Provisional Data: East Fork First Fork Sinnemahoning Creek near Logue, PA


Please select a monitoring station.
Please select start date.
Please select start date.

Toggle Unit: C/F Toggle Unit: C/F
Sample Time Temperature (C) Temperature (F) Specific Conductivity (mS/cm) pH   Turbidity (NTU+) DO (mg/L)
10/17/2022 12:00:00 AM 8.08 46.544 0.062 7.22 1.82 11.06
10/17/2022 12:15:00 AM 8.02 46.436 0.063 7.2 1.97 11.09
10/17/2022 12:30:00 AM 7.99 46.382 0.063 7.23 2.13 11.08
10/17/2022 12:45:00 AM 7.96 46.328 0.063 7.22 1.87 11.11
10/17/2022 1:00:00 AM 7.93 46.274 0.063 7.23 1.8 11.12
10/17/2022 1:15:00 AM 7.9 46.22 0.062 7.23 1.86 11.12
10/17/2022 1:30:00 AM 7.88 46.184 0.063 7.23 1.84 11.15
10/17/2022 1:45:00 AM 7.86 46.148 0.063 7.22 1.82 11.14
10/17/2022 2:00:00 AM 7.84 46.112 0.063 7.23 2.09 11.12
10/17/2022 2:15:00 AM 7.81 46.058 0.063 7.24 2.06 11.16
10/17/2022 2:30:00 AM 7.8 46.04 0.063 7.24 1.91 11.17
10/17/2022 2:45:00 AM 7.79 46.022 0.063 7.24 1.97 11.15
10/17/2022 3:00:00 AM 7.77 45.986 0.063 7.24 1.88 11.17
10/17/2022 3:15:00 AM 7.76 45.968 0.063 7.23 1.74 11.18
10/17/2022 3:30:00 AM 7.75 45.95 0.063 7.23 1.89 11.17
10/17/2022 3:45:00 AM 7.74 45.932 0.063 7.23 1.81 11.17
10/17/2022 4:00:00 AM 7.7 45.86 0.063 7.25 1.99 11.17
10/17/2022 4:15:00 AM 7.68 45.824 0.063 7.22 1.8 11.19
10/17/2022 4:30:00 AM 7.67 45.806 0.063 7.24 1.71 11.19
10/17/2022 4:45:00 AM 7.66 45.788 0.063 7.24 1.85 11.18
10/17/2022 5:00:00 AM 7.64 45.752 0.064 7.23 1.87 11.19
10/17/2022 5:15:00 AM 7.62 45.716 0.064 7.25 2.03 11.2
10/17/2022 5:30:00 AM 7.6 45.68 0.064 7.24 1.87 11.21
10/17/2022 5:45:00 AM 7.59 45.662 0.064 7.23 1.81 11.2
10/17/2022 6:00:00 AM 7.57 45.626 0.065 7.24 1.85 11.21
10/17/2022 6:15:00 AM 7.55 45.59 0.067 7.23 1.83 11.21
10/17/2022 6:30:00 AM 7.54 45.572 0.066 7.24 1.82 11.22
10/17/2022 6:45:00 AM 7.53 45.554 0.066 7.22 1.83 11.23
10/17/2022 7:00:00 AM 7.53 45.554 0.071 7.23 1.82 11.25
10/17/2022 7:15:00 AM 7.52 45.536 0.07 7.25 2.02 11.23
10/17/2022 7:30:00 AM 7.52 45.536 0.07 7.25 1.82 11.24
10/17/2022 7:45:00 AM 7.52 45.536 0.069 7.26 1.78 11.23
10/17/2022 8:00:00 AM 7.52 45.536 0.069 7.29 1.83 11.25
10/17/2022 8:15:00 AM 7.53 45.554 0.068 7.3 1.74 11.32
10/17/2022 8:30:00 AM -99999.99 -179968 -99999.99 -99999.99 -99999.99 -99999.99
10/17/2022 8:45:00 AM -99999.99 -179968 -99999.99 -99999.99 -99999.99 -99999.99
10/17/2022 9:00:00 AM -99999.99 -179968 -99999.99 -99999.99 -99999.99 -99999.99
10/17/2022 9:15:00 AM -99999.99 -179968 -99999.99 -99999.99 -99999.99 -99999.99
10/17/2022 9:30:00 AM -99999.99 -179968 -99999.99 -99999.99 -99999.99 -99999.99
10/17/2022 9:45:00 AM -99999.99 -179968 -99999.99 -99999.99 -99999.99 -99999.99
10/17/2022 10:00:00 AM -99999.99 -179968 -99999.99 -99999.99 -99999.99 -99999.99
10/17/2022 10:15:00 AM -99999.99 -179968 -99999.99 -99999.99 -99999.99 -99999.99
10/17/2022 10:30:00 AM -99999.99 -179968 -99999.99 -99999.99 -99999.99 -99999.99
10/17/2022 10:45:00 AM -99999.99 -179968 -99999.99 -99999.99 -99999.99 -99999.99
10/17/2022 11:00:00 AM -99999.99 -179968 -99999.99 -99999.99 -99999.99 -99999.99
10/17/2022 11:15:00 AM -99999.99 -179968 -99999.99 -99999.99 -99999.99 -99999.99
10/17/2022 11:30:00 AM -99999.99 -179968 -99999.99 -99999.99 -99999.99 -99999.99
10/17/2022 11:45:00 AM -99999.99 -179968 -99999.99 -99999.99 -99999.99 -99999.99
10/17/2022 12:00:00 PM -99999.99 -179968 -99999.99 -99999.99 -99999.99 -99999.99
10/17/2022 12:15:00 PM -99999.99 -179968 -99999.99 -99999.99 -99999.99 -99999.99
10/17/2022 12:30:00 PM -99999.99 -179968 -99999.99 -99999.99 -99999.99 -99999.99
10/17/2022 12:45:00 PM -99999.99 -179968 -99999.99 -99999.99 -99999.99 -99999.99
10/17/2022 1:00:00 PM -99999.99 -179968 -99999.99 -99999.99 -99999.99 -99999.99
10/17/2022 1:15:00 PM -99999.99 -179968 -99999.99 -99999.99 -99999.99 -99999.99
10/17/2022 1:30:00 PM -99999.99 -179968 -99999.99 -99999.99 -99999.99 -99999.99
10/17/2022 1:45:00 PM 8.86 47.948 0.066 7.54 1.68 11.58
10/17/2022 2:00:00 PM 8.9 48.02 0.064 7.5 1.69 11.53
10/17/2022 2:15:00 PM 8.97 48.146 0.064 7.51 1.72 11.54
10/17/2022 2:30:00 PM 9.05 48.29 0.066 7.54 1.72 11.49
10/17/2022 2:45:00 PM 9.11 48.398 0.069 7.54 1.69 11.47
10/17/2022 3:00:00 PM 9.19 48.542 0.063 7.51 1.71 11.44
10/17/2022 3:15:00 PM 9.32 48.776 0.064 7.53 1.69 11.43
10/17/2022 3:30:00 PM 9.39 48.902 0.065 7.54 1.71 11.37
10/17/2022 3:45:00 PM 9.55 49.19 0.066 7.56 1.75 11.35
10/17/2022 4:00:00 PM 9.64 49.352 0.066 7.57 1.74 11.32
10/17/2022 4:15:00 PM 9.5 49.1 0.065 7.54 1.75 11.27
10/17/2022 4:30:00 PM 9.44 48.992 0.067 7.49 1.69 11.26
10/17/2022 4:45:00 PM 9.42 48.956 0.066 7.48 1.74 11.21
10/17/2022 5:00:00 PM 9.34 48.812 0.066 7.45 2.17 11.15
10/17/2022 5:15:00 PM 9.28 48.704 0.065 7.44 1.9 11.12
10/17/2022 5:30:00 PM 9.21 48.578 0.064 7.38 1.78 11.08
10/17/2022 5:45:00 PM 9.15 48.47 0.064 7.36 1.68 11.03
10/17/2022 6:00:00 PM 9.04 48.272 0.064 7.34 1.82 11.01
10/17/2022 6:15:00 PM 8.97 48.146 0.064 7.3 1.82 10.95
10/17/2022 6:30:00 PM 8.91 48.038 0.064 7.3 1.8 10.9
10/17/2022 6:45:00 PM 8.84 47.912 0.063 7.29 1.78 10.87
10/17/2022 7:00:00 PM 8.78 47.804 0.064 7.27 1.75 10.87
10/17/2022 7:15:00 PM 8.72 47.696 0.067 7.25 1.76 10.85
10/17/2022 7:30:00 PM 8.65 47.57 0.065 7.25 1.96 10.83
10/17/2022 7:45:00 PM 8.57 47.426 0.064 7.24 1.83 10.84
10/17/2022 8:00:00 PM 8.49 47.282 0.064 7.24 1.86 10.83
10/17/2022 8:15:00 PM 8.39 47.102 0.064 7.23 1.83 10.88
10/17/2022 8:30:00 PM 8.32 46.976 0.064 7.21 1.85 10.86
10/17/2022 8:45:00 PM 8.25 46.85 0.065 7.22 1.8 10.89
10/17/2022 9:00:00 PM 8.16 46.688 0.064 7.21 1.98 10.91
10/17/2022 9:15:00 PM 8.07 46.526 0.065 7.21 1.89 10.92
10/17/2022 9:30:00 PM 7.99 46.382 0.064 7.19 1.85 10.95
10/17/2022 9:45:00 PM 7.9 46.22 0.064 7.21 1.89 10.96
10/17/2022 10:00:00 PM 7.81 46.058 0.064 7.19 1.84 11
10/17/2022 10:15:00 PM 7.73 45.914 0.064 7.27 1.86 11.03
10/17/2022 10:30:00 PM 7.64 45.752 0.065 7.28 1.95 11.06
10/17/2022 10:45:00 PM 7.56 45.608 0.065 7.28 1.94 11.06
10/17/2022 11:00:00 PM 7.48 45.464 0.064 7.28 2.13 11.11
10/17/2022 11:15:00 PM 7.41 45.338 0.064 7.27 1.93 11.11
10/17/2022 11:30:00 PM 7.32 45.176 0.064 7.22 2.02 11.16
10/17/2022 11:45:00 PM 7.24 45.032 0.065 7.21 1.94 11.16
10/18/2022 12:00:00 AM 7.15 44.87 0.065 7.21 2.02 11.23
10/18/2022 12:15:00 AM 7.06 44.708 0.065 7.21 1.95 11.24
10/18/2022 12:30:00 AM 6.98 44.564 0.065 7.18 1.82 11.26
10/18/2022 12:45:00 AM 6.9 44.42 0.065 7.2 1.87 11.28
10/18/2022 1:00:00 AM 6.82 44.276 0.065 7.21 1.87 11.32
10/18/2022 1:15:00 AM 6.74 44.132 0.065 7.21 1.85 11.33
10/18/2022 1:30:00 AM 6.68 44.024 0.065 7.22 1.86 11.36
10/18/2022 1:45:00 AM 6.62 43.916 0.066 7.24 1.91 11.37
10/18/2022 2:00:00 AM 6.56 43.808 0.066 7.24 1.93 11.39
10/18/2022 2:15:00 AM 6.5 43.7 0.066 7.26 1.82 11.42
10/18/2022 2:30:00 AM 6.45 43.61 0.066 7.28 1.77 11.45
10/18/2022 2:45:00 AM 6.42 43.556 0.066 7.25 1.77 11.44
10/18/2022 3:00:00 AM 6.37 43.466 0.067 7.25 1.85 11.47
10/18/2022 3:15:00 AM 6.34 43.412 0.067 7.25 1.75 11.49
10/18/2022 3:30:00 AM 6.32 43.376 0.068 7.26 1.88 11.49
10/18/2022 3:45:00 AM 6.28 43.304 0.068 7.27 1.8 11.49
10/18/2022 4:00:00 AM 6.27 43.286 0.068 7.27 1.86 11.53
10/18/2022 4:15:00 AM 6.21 43.178 0.067 7.28 1.79 11.54
10/18/2022 4:30:00 AM 6.2 43.16 0.067 7.25 10.72 11.52
10/18/2022 4:45:00 AM 6.18 43.124 0.067 7.26 2.04 11.53
10/18/2022 5:00:00 AM 6.16 43.088 0.067 7.26 1.89 11.55
10/18/2022 5:15:00 AM 6.16 43.088 0.067 7.26 1.87 11.57
10/18/2022 5:30:00 AM 6.13 43.034 0.067 7.25 2 11.57
10/18/2022 5:45:00 AM 6.1 42.98 0.066 7.25 1.77 11.58
10/18/2022 6:00:00 AM 6.09 42.962 0.066 7.24 1.81 11.57
10/18/2022 6:15:00 AM 6.07 42.926 0.066 7.26 1.75 11.6
10/18/2022 6:30:00 AM 6.05 42.89 0.066 7.26 1.8 11.6
10/18/2022 6:45:00 AM 6.04 42.872 0.067 7.24 1.75 11.61
10/18/2022 7:00:00 AM 6.02 42.836 0.066 7.23 1.89 11.63
10/18/2022 7:15:00 AM 6.02 42.836 0.066 7.24 1.77 11.64
10/18/2022 7:30:00 AM 6.01 42.818 0.066 7.23 1.78 11.66
10/18/2022 7:45:00 AM 6 42.8 0.065 7.23 1.7 11.68
10/18/2022 8:00:00 AM 6 42.8 0.065 7.24 1.73 11.69
10/18/2022 8:15:00 AM 6 42.8 0.065 7.22 1.76 11.72
10/18/2022 8:30:00 AM 6.01 42.818 0.064 7.24 1.77 11.75
10/18/2022 8:45:00 AM 6.03 42.854 0.064 7.24 1.76 11.81
10/18/2022 9:00:00 AM 6.05 42.89 0.064 7.28 1.74 11.83
10/18/2022 9:15:00 AM 6.06 42.908 0.064 7.27 1.71 11.88
10/18/2022 9:30:00 AM 6.07 42.926 0.064 7.27 1.7 11.88
10/18/2022 9:45:00 AM 6.1 42.98 0.064 7.28 1.72 11.94
10/18/2022 10:00:00 AM 6.14 43.052 0.064 7.3 1.7 11.97
10/18/2022 10:15:00 AM 6.19 43.142 0.064 7.31 1.7 12.01
10/18/2022 10:30:00 AM 6.21 43.178 0.064 7.3 1.73 12.01
10/18/2022 10:45:00 AM 6.24 43.232 0.064 7.3 1.66 12.01
10/18/2022 11:00:00 AM 6.26 43.268 0.067 7.3 1.69 12.03
10/18/2022 11:15:00 AM 6.29 43.322 0.064 7.31 1.66 12.04
10/18/2022 11:30:00 AM 6.32 43.376 0.064 7.32 1.69 12.04
10/18/2022 11:45:00 AM 6.35 43.43 0.064 7.32 1.72 12.07
10/18/2022 12:00:00 PM 6.37 43.466 0.064 7.3 1.75 12.06
10/18/2022 12:15:00 PM 6.42 43.556 0.064 7.32 1.75 12.04
10/18/2022 12:30:00 PM 6.47 43.646 0.064 7.35 1.91 12.07
10/18/2022 12:45:00 PM 6.5 43.7 0.063 7.34 1.69 12.07
10/18/2022 1:00:00 PM 6.56 43.808 0.064 7.35 1.66 12.07
10/18/2022 1:15:00 PM 6.65 43.97 0.064 7.38 1.68 12.1
10/18/2022 1:30:00 PM 6.73 44.114 0.064 7.42 1.68 12.11
10/18/2022 1:45:00 PM 6.78 44.204 0.063 7.42 1.68 12.12
10/18/2022 2:00:00 PM 6.8 44.24 0.063 7.4 1.71 12.09
10/18/2022 2:15:00 PM 6.83 44.294 0.063 7.39 1.68 12.08
10/18/2022 2:30:00 PM 6.94 44.492 0.063 7.43 1.65 12.07
10/18/2022 2:45:00 PM 7.13 44.834 0.063 7.45 1.65 12.06
10/18/2022 3:00:00 PM 7.12 44.816 0.064 7.47 1.64 12.06
10/18/2022 3:15:00 PM 7.11 44.798 0.063 7.43 1.65 12.02
10/18/2022 3:30:00 PM 7.15 44.87 0.064 7.41 1.68 11.98
10/18/2022 3:45:00 PM 7.13 44.834 0.063 7.4 1.72 11.93
10/18/2022 4:00:00 PM 7.17 44.906 0.063 7.36 1.62 11.9
10/18/2022 4:15:00 PM 7.18 44.924 0.064 7.38 1.68 11.89
10/18/2022 4:30:00 PM 7.19 44.942 0.063 7.39 1.67 11.87
10/18/2022 4:45:00 PM 7.21 44.978 0.064 7.38 1.63 11.84
10/18/2022 5:00:00 PM 7.19 44.942 0.064 7.32 1.65 11.77
10/18/2022 5:15:00 PM 7.16 44.888 0.064 7.31 1.7 11.72
10/18/2022 5:30:00 PM 7.14 44.852 0.064 7.29 1.68 11.72
10/18/2022 5:45:00 PM 7.12 44.816 0.064 7.28 1.8 11.65
10/18/2022 6:00:00 PM 7.07 44.726 0.064 7.27 1.68 11.62
10/18/2022 6:15:00 PM 7.03 44.654 0.064 7.27 1.76 11.58
10/18/2022 6:30:00 PM 7 44.6 0.064 7.27 1.76 11.55
10/18/2022 6:45:00 PM 6.96 44.528 0.064 7.25 1.67 11.53
10/18/2022 7:00:00 PM 6.93 44.474 0.064 7.22 1.68 11.49
10/18/2022 7:15:00 PM 6.9 44.42 0.064 7.22 1.75 11.48
10/18/2022 7:30:00 PM 6.87 44.366 0.064 7.21 1.71 11.48
10/18/2022 7:45:00 PM 6.84 44.312 0.064 7.21 1.69 11.48
10/18/2022 8:00:00 PM 6.82 44.276 0.064 7.2 1.75 11.49
10/18/2022 8:15:00 PM 6.79 44.222 0.064 7.19 1.72 11.49
10/18/2022 8:30:00 PM 6.76 44.168 0.064 7.18 1.83 11.46
10/18/2022 8:45:00 PM 6.73 44.114 0.065 7.17 1.73 11.48
10/18/2022 9:00:00 PM 6.7 44.06 0.065 7.18 1.79 11.5
10/18/2022 9:15:00 PM 6.69 44.042 0.064 7.17 1.82 11.5
10/18/2022 9:30:00 PM 6.66 43.988 0.065 7.18 1.87 11.51
10/18/2022 9:45:00 PM 6.63 43.934 0.065 7.17 1.84 11.5
10/18/2022 10:00:00 PM 6.6 43.88 0.065 7.18 1.74 11.52
10/18/2022 10:15:00 PM 6.59 43.862 0.065 7.16 1.81 11.53
10/18/2022 10:30:00 PM 6.57 43.826 0.065 7.16 1.88 11.53
10/18/2022 10:45:00 PM 6.55 43.79 0.065 7.17 1.8 11.56
10/18/2022 11:00:00 PM 6.52 43.736 0.065 7.17 1.84 11.56
10/18/2022 11:15:00 PM 6.5 43.7 0.065 7.18 1.8 11.55
10/18/2022 11:30:00 PM 6.48 43.664 0.065 7.15 1.92 11.56
10/18/2022 11:45:00 PM 6.46 43.628 0.065 7.16 1.82 11.59
10/19/2022 12:00:00 AM 6.45 43.61 0.065 7.16 1.87 11.58
10/19/2022 12:15:00 AM 6.43 43.574 0.067 7.15 1.86 11.58
10/19/2022 12:30:00 AM 6.42 43.556 0.065 7.16 1.85 11.59
10/19/2022 12:45:00 AM 6.4 43.52 0.066 7.17 1.86 11.59
10/19/2022 1:00:00 AM 6.39 43.502 0.065 7.17 1.8 11.61
10/19/2022 1:15:00 AM 6.37 43.466 0.065 7.17 1.93 11.61
10/19/2022 1:30:00 AM 6.35 43.43 0.065 7.16 1.82 11.6
10/19/2022 1:45:00 AM 6.33 43.394 0.065 7.18 1.79 11.63
10/19/2022 2:00:00 AM 6.32 43.376 0.065 7.18 2.11 11.61
10/19/2022 2:15:00 AM 6.3 43.34 0.065 7.18 2 11.62
10/19/2022 2:30:00 AM 6.29 43.322 0.065 7.16 1.86 11.61
10/19/2022 2:45:00 AM 6.27 43.286 0.065 7.19 1.83 11.63
10/19/2022 3:00:00 AM 6.25 43.25 0.065 7.17 1.78 11.63
10/19/2022 3:15:00 AM 6.24 43.232 0.065 7.16 1.82 11.64
10/19/2022 3:30:00 AM 6.22 43.196 0.065 7.16 1.87 11.65
10/19/2022 3:45:00 AM 6.2 43.16 0.065 7.17 1.84 11.64
10/19/2022 4:00:00 AM 6.19 43.142 0.065 7.16 3.53 11.68
10/19/2022 4:15:00 AM 6.17 43.106 0.065 7.17 1.96 11.67
10/19/2022 4:30:00 AM 6.15 43.07 0.065 7.17 1.89 11.66
10/19/2022 4:45:00 AM 6.13 43.034 0.065 7.19 1.87 11.67
10/19/2022 5:00:00 AM 6.12 43.016 0.066 7.16 1.85 11.68
10/19/2022 5:15:00 AM 6.1 42.98 0.065 7.19 1.84 11.68
10/19/2022 5:30:00 AM 6.08 42.944 0.066 7.18 1.74 11.69
10/19/2022 5:45:00 AM 6.07 42.926 0.066 7.18 1.74 11.68
10/19/2022 6:00:00 AM 6.06 42.908 0.066 7.17 1.85 11.68
10/19/2022 6:15:00 AM 6.04 42.872 0.066 7.17 1.8 11.71
10/19/2022 6:30:00 AM 6.03 42.854 0.066 7.18 1.8 11.68
10/19/2022 6:45:00 AM 6.01 42.818 0.066 7.21 2.01 11.7
10/19/2022 7:00:00 AM 6.01 42.818 0.066 7.18 1.9 11.7
10/19/2022 7:15:00 AM 5.98 42.764 0.066 7.17 1.79 11.71
10/19/2022 7:30:00 AM 5.97 42.746 0.065 7.19 1.93 11.7
10/19/2022 7:45:00 AM 5.96 42.728 0.066 7.2 1.82 11.73
10/19/2022 8:00:00 AM 5.96 42.728 0.065 7.2 3.91 11.75
10/19/2022 8:15:00 AM 5.96 42.728 0.065 7.19 1.88 11.78
10/19/2022 8:30:00 AM 5.96 42.728 0.065 7.2 1.92 11.8
10/19/2022 8:45:00 AM 5.95 42.71 0.065 7.22 1.86 11.84
10/19/2022 9:00:00 AM 5.86 42.548 0.065 7.22 24.93 11.85
10/19/2022 9:15:00 AM 5.9 42.62 0.065 7.23 4.07 11.88
10/19/2022 9:30:00 AM 5.91 42.638 0.065 7.24 2.01 11.91
10/19/2022 9:45:00 AM 5.91 42.638 0.064 7.27 1.77 11.97
10/19/2022 10:00:00 AM 5.94 42.692 0.065 7.26 1.84 12.01
10/19/2022 10:15:00 AM 5.96 42.728 0.064 7.28 1.69 12.06
10/19/2022 10:30:00 AM 6.01 42.818 0.064 7.31 1.69 12.12
10/19/2022 10:45:00 AM 6.09 42.962 0.064 7.35 1.7 12.19
10/19/2022 11:00:00 AM 6.15 43.07 0.064 7.37 1.73 12.2
10/19/2022 11:15:00 AM 6.21 43.178 0.064 7.39 1.74 12.23
10/19/2022 11:30:00 AM 6.28 43.304 0.064 7.39 1.69 12.25
10/19/2022 11:45:00 AM 6.33 43.394 0.064 7.41 1.81 12.27
10/19/2022 12:00:00 PM 6.36 43.448 0.064 7.4 1.68 12.24
10/19/2022 12:15:00 PM 6.39 43.502 0.064 7.41 1.74 12.25
10/19/2022 12:30:00 PM 6.41 43.538 0.065 7.39 1.7 12.21
10/19/2022 12:45:00 PM 6.46 43.628 0.064 7.41 1.63 12.19
10/19/2022 1:00:00 PM 6.5 43.7 0.064 7.4 1.68 12.17
10/19/2022 1:15:00 PM 6.51 43.718 0.065 7.39 1.74 12.16
10/19/2022 1:30:00 PM 6.55 43.79 0.064 7.4 1.69 12.15
10/19/2022 1:45:00 PM 6.61 43.898 0.065 7.4 1.66 12.13
10/19/2022 2:00:00 PM 6.63 43.934 0.065 7.4 1.78 12.14
10/19/2022 2:15:00 PM 6.65 43.97 0.065 7.39 1.73 12.12
10/19/2022 2:30:00 PM 6.71 44.078 0.065 7.41 1.66 12.11
10/19/2022 2:45:00 PM 6.77 44.186 0.065 7.42 1.66 12.13
10/19/2022 3:00:00 PM 6.82 44.276 0.065 7.43 1.67 12.12
10/19/2022 3:15:00 PM 6.91 44.438 0.065 7.44 1.64 12.13
10/19/2022 3:30:00 PM 6.95 44.51 0.065 7.44 1.7 12.12
10/19/2022 3:45:00 PM 6.94 44.492 0.064 7.42 1.63 12.09
10/19/2022 4:00:00 PM 6.99 44.582 0.064 7.4 1.67 12.11
10/19/2022 4:15:00 PM 6.99 44.582 0.065 7.38 1.67 12.07
10/19/2022 4:30:00 PM 7 44.6 0.064 7.38 1.74 12.02
10/19/2022 4:45:00 PM 7.01 44.618 0.065 7.36 1.68 12
10/19/2022 5:00:00 PM 7.03 44.654 0.064 7.35 1.64 11.99
10/19/2022 5:15:00 PM 7.04 44.672 0.064 7.33 1.75 11.94
10/19/2022 5:30:00 PM 7.02 44.636 0.065 7.3 1.77 11.89
10/19/2022 5:45:00 PM 7 44.6 0.064 7.28 1.61 11.82
10/19/2022 6:00:00 PM 6.97 44.546 0.064 7.26 1.76 11.77
10/19/2022 6:15:00 PM 6.94 44.492 0.065 7.25 1.74 11.71
10/19/2022 6:30:00 PM 6.9 44.42 0.064 7.23 1.66 11.66
10/19/2022 6:45:00 PM 6.87 44.366 0.064 7.21 1.68 11.63
10/19/2022 7:00:00 PM 6.84 44.312 0.064 7.2 1.72 11.6
10/19/2022 7:15:00 PM 6.81 44.258 0.064 7.21 1.82 11.59
10/19/2022 7:30:00 PM 6.78 44.204 0.064 7.21 1.98 11.57
10/19/2022 7:45:00 PM 6.75 44.15 0.064 7.19 1.83 11.57
10/19/2022 8:00:00 PM 6.73 44.114 0.064 7.19 1.82 11.56
10/19/2022 8:15:00 PM 6.7 44.06 0.064 7.18 2.01 11.56
10/19/2022 8:30:00 PM 6.68 44.024 0.064 7.17 1.77 11.54
10/19/2022 8:45:00 PM 6.65 43.97 0.064 7.16 1.9 11.55
10/19/2022 9:00:00 PM 6.63 43.934 0.064 7.18 1.89 11.56
10/19/2022 9:15:00 PM 6.61 43.898 0.064 7.17 1.79 11.55
10/19/2022 9:30:00 PM 6.59 43.862 0.064 7.18 1.78 11.56
10/19/2022 9:45:00 PM 6.57 43.826 0.064 7.17 1.79 11.58
10/19/2022 10:00:00 PM 6.55 43.79 0.065 7.18 1.83 11.58
10/19/2022 10:15:00 PM 6.54 43.772 0.066 7.18 1.81 11.57
10/19/2022 10:30:00 PM 6.52 43.736 0.067 7.17 1.94 11.6
10/19/2022 10:45:00 PM 6.5 43.7 0.068 7.19 1.82 11.62
10/19/2022 11:00:00 PM 6.48 43.664 0.068 7.18 1.89 11.62
10/19/2022 11:15:00 PM 6.46 43.628 0.067 7.17 1.88 11.62
10/19/2022 11:30:00 PM 6.45 43.61 0.067 7.16 1.9 11.61
10/19/2022 11:45:00 PM 6.45 43.61 0.067 7.16 1.85 11.64
10/20/2022 12:00:00 AM 6.43 43.574 0.067 7.16 1.91 11.63
10/20/2022 12:15:00 AM 6.42 43.556 0.068 7.19 2.03 11.64
10/20/2022 12:30:00 AM 6.41 43.538 0.068 7.19 1.93 11.65
10/20/2022 12:45:00 AM 6.39 43.502 0.067 7.19 1.92 11.65
10/20/2022 1:00:00 AM 6.38 43.484 0.067 7.19 1.92 11.67
10/20/2022 1:15:00 AM 6.37 43.466 0.067 7.17 1.88 11.67
10/20/2022 1:30:00 AM 6.36 43.448 0.067 7.18 1.93 11.69
10/20/2022 1:45:00 AM 6.34 43.412 0.067 7.18 1.86 11.67
10/20/2022 2:00:00 AM 6.31 43.358 0.067 7.19 1.88 11.68
10/20/2022 2:15:00 AM 6.28 43.304 0.067 7.21 1.82 11.69
10/20/2022 2:30:00 AM 6.25 43.25 0.067 7.19 1.88 11.7
10/20/2022 2:45:00 AM 6.2 43.16 0.067 7.18 1.76 11.7
10/20/2022 3:00:00 AM 6.16 43.088 0.067 7.17 1.97 11.7
10/20/2022 3:15:00 AM 6.11 42.998 0.067 7.18 1.81 11.71
10/20/2022 3:30:00 AM 6.07 42.926 0.067 7.18 3.87 11.73
10/20/2022 3:45:00 AM 6.01 42.818 0.066 7.2 2.18 11.75
10/20/2022 4:00:00 AM 5.97 42.746 0.067 7.19 1.86 11.77
10/20/2022 4:15:00 AM 5.91 42.638 0.067 7.2 2.41 11.78
10/20/2022 4:30:00 AM 5.86 42.548 0.067 7.19 1.83 11.81
10/20/2022 4:45:00 AM 5.81 42.458 0.067 7.19 1.79 11.81
10/20/2022 5:00:00 AM 5.76 42.368 0.067 7.2 1.82 11.83
10/20/2022 5:15:00 AM 5.72 42.296 0.067 7.21 1.81 11.84
10/20/2022 5:30:00 AM 5.67 42.206 0.067 7.22 1.85 11.86
10/20/2022 5:45:00 AM 5.62 42.116 0.067 7.22 1.81 11.87
10/20/2022 6:00:00 AM 5.57 42.026 0.067 7.21 1.83 11.89
10/20/2022 6:15:00 AM 5.52 41.936 0.068 7.21 1.89 11.91
10/20/2022 6:30:00 AM 5.48 41.864 0.067 7.2 1.9 11.91
10/20/2022 6:45:00 AM 5.44 41.792 0.067 7.2 1.84 11.94
10/20/2022 7:00:00 AM 5.39 41.702 0.067 7.21 2 11.95
10/20/2022 7:15:00 AM 5.33 41.594 0.067 7.2 1.89 11.95
10/20/2022 7:30:00 AM 5.29 41.522 0.068 7.2 1.81 11.97
10/20/2022 7:45:00 AM 5.26 41.468 0.067 7.21 1.81 12.01
10/20/2022 8:00:00 AM 5.22 41.396 0.067 7.21 1.77 12.03
10/20/2022 8:15:00 AM 5.19 41.342 0.068 7.23 1.78 12.07
10/20/2022 8:30:00 AM 5.16 41.288 0.067 7.23 1.89 12.12
10/20/2022 8:45:00 AM 5.13 41.234 0.067 7.25 1.78 12.16
10/20/2022 9:00:00 AM 5.1 41.18 0.067 7.26 1.75 12.2
10/20/2022 9:15:00 AM 5.09 41.162 0.067 7.27 1.7 12.24
10/20/2022 9:30:00 AM 5.08 41.144 0.067 7.3 1.79 12.3
10/20/2022 9:45:00 AM 5.11 41.198 0.067 7.37 1.73 12.35
10/20/2022 10:00:00 AM 5.13 41.234 0.067 7.4 1.71 12.4
10/20/2022 10:15:00 AM 5.17 41.306 0.067 7.45 1.69 12.44
10/20/2022 10:30:00 AM 5.22 41.396 0.067 7.47 1.7 12.47
10/20/2022 10:45:00 AM 5.24 41.432 0.066 7.47 1.74 12.49
10/20/2022 11:00:00 AM 5.24 41.432 0.066 7.44 1.67 12.5
10/20/2022 11:15:00 AM 5.25 41.45 0.066 7.46 1.68 12.52
10/20/2022 11:30:00 AM 5.34 41.612 0.065 7.47 1.73 12.54
10/20/2022 11:45:00 AM 5.43 41.774 0.065 7.48 1.68 12.53
10/20/2022 12:00:00 PM 5.56 42.008 0.066 7.49 1.66 12.52
10/20/2022 12:15:00 PM 5.7 42.26 0.066 7.49 1.66 12.51
10/20/2022 12:30:00 PM 5.85 42.53 0.065 7.51 1.69 12.5
10/20/2022 12:45:00 PM 5.99 42.782 0.065 7.52 1.61 12.5
10/20/2022 1:00:00 PM 6.12 43.016 0.065 7.52 1.73 12.5
10/20/2022 1:15:00 PM 6.24 43.232 0.065 7.54 1.7 12.46
10/20/2022 1:30:00 PM 6.32 43.376 0.065 7.54 1.61 12.47
10/20/2022 1:45:00 PM 6.44 43.592 0.065 7.54 1.74 12.45
10/20/2022 2:00:00 PM 6.55 43.79 0.065 7.54 1.67 12.41
10/20/2022 2:15:00 PM 6.62 43.916 0.064 7.53 1.66 12.4
10/20/2022 2:30:00 PM 6.77 44.186 0.065 7.51 1.63 12.35
10/20/2022 2:45:00 PM 6.86 44.348 0.065 7.48 1.62 12.34
10/20/2022 3:00:00 PM 6.96 44.528 0.065 7.48 1.63 12.29
10/20/2022 3:15:00 PM 7.01 44.618 0.065 7.49 1.64 12.24
10/20/2022 3:30:00 PM 7.07 44.726 0.065 7.46 1.72 12.19
10/20/2022 3:45:00 PM 7.15 44.87 0.065 7.47 1.87 12.15
10/20/2022 4:00:00 PM 7.17 44.906 0.065 7.43 1.61 12.1
10/20/2022 4:15:00 PM 7.22 44.996 0.064 7.44 1.81 12.06
10/20/2022 4:30:00 PM 7.32 45.176 0.065 7.46 1.72 12.03
10/20/2022 4:45:00 PM 7.38 45.284 0.065 7.47 1.6 12.03
10/20/2022 5:00:00 PM 7.33 45.194 0.065 7.43 1.61 11.98
10/20/2022 5:15:00 PM 7.25 45.05 0.065 7.39 1.64 11.95
10/20/2022 5:30:00 PM 7.23 45.014 0.065 7.36 1.81 11.9
10/20/2022 5:45:00 PM 7.19 44.942 0.065 7.33 1.68 11.86
10/20/2022 6:00:00 PM 7.14 44.852 0.065 7.31 1.69 11.79
10/20/2022 6:15:00 PM 7.09 44.762 0.065 7.29 1.77 11.75
10/20/2022 6:30:00 PM 7.04 44.672 0.065 7.26 1.64 11.69
10/20/2022 6:45:00 PM 7 44.6 0.066 7.25 1.71 11.66
10/20/2022 7:00:00 PM 6.96 44.528 0.065 7.23 1.92 11.62
10/20/2022 7:15:00 PM 6.91 44.438 0.066 7.21 1.88 11.61
10/20/2022 7:30:00 PM 6.86 44.348 0.066 7.24 1.81 11.59
10/20/2022 7:45:00 PM 6.82 44.276 0.065 7.24 1.76 11.59
10/20/2022 8:00:00 PM 6.78 44.204 0.065 7.23 1.77 11.58
10/20/2022 8:15:00 PM 6.76 44.168 0.066 7.23 1.9 11.58
10/20/2022 8:30:00 PM 6.74 44.132 0.066 7.23 2.34 11.58
10/20/2022 8:45:00 PM 6.71 44.078 0.066 7.22 1.86 11.6
10/20/2022 9:00:00 PM 6.68 44.024 0.066 7.22 2.25 11.58
10/20/2022 9:15:00 PM 6.66 43.988 0.066 7.22 2.03 11.61
10/20/2022 9:30:00 PM 6.63 43.934 0.067 7.21 1.92 11.62
10/20/2022 9:45:00 PM 6.58 43.844 0.067 7.21 1.85 11.62
10/20/2022 10:00:00 PM 6.55 43.79 0.067 7.21 1.96 11.62
10/20/2022 10:15:00 PM 6.53 43.754 0.068 7.22 1.86 11.64
10/20/2022 10:30:00 PM 6.51 43.718 0.071 7.21 1.86 11.64
10/20/2022 10:45:00 PM 6.48 43.664 0.068 7.19 1.87 11.65
10/20/2022 11:00:00 PM 6.46 43.628 0.068 7.2 1.86 11.66
10/20/2022 11:15:00 PM 6.44 43.592 0.068 7.2 1.91 11.67
10/20/2022 11:30:00 PM 6.39 43.502 0.07 7.19 2.29 11.69
10/20/2022 11:45:00 PM 6.36 43.448 0.068 7.2 1.94 11.7
10/21/2022 12:00:00 AM 6.33 43.394 0.069 7.18 1.85 11.7
10/21/2022 12:15:00 AM 6.27 43.286 0.068 7.19 1.89 11.72
10/21/2022 12:30:00 AM 6.21 43.178 0.069 7.19 1.94 11.74
10/21/2022 12:45:00 AM 6.15 43.07 0.071 7.2 1.9 11.74
10/21/2022 1:00:00 AM 6.09 42.962 0.069 7.19 1.93 11.76
10/21/2022 1:15:00 AM 6.03 42.854 0.069 7.18 1.86 11.76
10/21/2022 1:30:00 AM 5.96 42.728 0.069 7.18 1.86 11.78
10/21/2022 1:45:00 AM 5.88 42.584 0.069 7.17 1.86 11.8
10/21/2022 2:00:00 AM 5.82 42.476 0.069 7.17 1.87 11.82
10/21/2022 2:15:00 AM 5.74 42.332 0.069 7.18 1.81 11.85
10/21/2022 2:30:00 AM 5.67 42.206 0.068 7.18 1.85 11.87
10/21/2022 2:45:00 AM 5.61 42.098 0.069 7.18 1.81 11.9
10/21/2022 3:00:00 AM 5.53 41.954 0.068 7.18 1.9 11.93
10/21/2022 3:15:00 AM 5.46 41.828 0.068 7.17 1.89 11.94
10/21/2022 3:30:00 AM 5.39 41.702 0.068 7.17 1.87 11.96
10/21/2022 3:45:00 AM 5.32 41.576 0.07 7.18 1.89 12
10/21/2022 4:00:00 AM 5.26 41.468 0.07 7.18 1.91 12.01
10/21/2022 4:15:00 AM 5.2 41.36 0.073 7.18 1.84 12.04
10/21/2022 4:30:00 AM 5.14 41.252 0.07 7.17 1.82 12.07
10/21/2022 4:45:00 AM 5.07 41.126 0.07 7.19 1.76 12.1
10/21/2022 5:00:00 AM 5.02 41.036 0.069 7.18 1.87 12.12
10/21/2022 5:15:00 AM 4.95 40.91 0.069 7.18 1.75 12.12
10/21/2022 5:30:00 AM 4.89 40.802 0.069 7.18 1.99 12.15
10/21/2022 5:45:00 AM 4.84 40.712 0.069 7.19 1.98 12.17
10/21/2022 6:00:00 AM 4.78 40.604 0.068 7.19 1.86 12.2
10/21/2022 6:15:00 AM 4.72 40.496 0.068 7.19 1.84 12.22
10/21/2022 6:30:00 AM 4.68 40.424 0.068 7.19 1.9 12.24
10/21/2022 6:45:00 AM 4.61 40.298 0.068 7.2 1.81 12.27
10/21/2022 7:00:00 AM 4.55 40.19 0.069 7.19 1.78 12.28
10/21/2022 7:15:00 AM 4.5 40.1 0.069 7.2 1.82 12.32
10/21/2022 7:30:00 AM 4.45 40.01 0.069 7.18 1.88 12.32
10/21/2022 7:45:00 AM 4.41 39.938 0.069 7.18 1.94 12.38
10/21/2022 8:00:00 AM 4.37 39.866 0.069 7.16 1.89 12.42
10/21/2022 8:15:00 AM 4.32 39.776 0.068 7.16 1.84 12.46
10/21/2022 8:30:00 AM 4.29 39.722 0.068 7.19 1.79 12.52
10/21/2022 8:45:00 AM 4.25 39.65 0.071 7.2 1.83 12.57
10/21/2022 9:00:00 AM 4.22 39.596 0.07 7.21 1.74 12.61
10/21/2022 9:15:00 AM 4.19 39.542 0.07 7.22 1.78 12.66
10/21/2022 9:30:00 AM 4.17 39.506 0.07 7.23 1.73 12.69
10/21/2022 9:45:00 AM 4.19 39.542 0.07 7.3 1.71 12.74
10/21/2022 10:00:00 AM 4.22 39.596 0.069 7.31 1.78 12.78
10/21/2022 10:15:00 AM 4.27 39.686 0.069 7.34 1.75 12.8
10/21/2022 10:30:00 AM 4.34 39.812 0.069 7.38 1.68 12.82
10/21/2022 10:45:00 AM 4.42 39.956 0.069 7.41 1.75 12.86
10/21/2022 11:00:00 AM 4.5 40.1 0.069 7.4 1.72 12.84
10/21/2022 11:15:00 AM 4.56 40.208 0.069 7.38 1.68 12.82
10/21/2022 11:30:00 AM 4.69 40.442 0.068 7.36 1.72 12.84
10/21/2022 11:45:00 AM 4.86 40.748 0.067 7.38 1.71 12.8
10/21/2022 12:00:00 PM 5.06 41.108 0.068 7.37 1.67 12.78
10/21/2022 12:15:00 PM 5.27 41.486 0.068 7.37 1.7 12.68
10/21/2022 12:30:00 PM 5.5 41.9 0.067 7.37 1.69 12.61
10/21/2022 12:45:00 PM 5.77 42.386 0.068 7.38 1.65 12.62
10/21/2022 1:00:00 PM 6.05 42.89 0.067 7.38 1.61 12.6
10/21/2022 1:15:00 PM 6.28 43.304 0.067 7.38 1.61 12.53
10/21/2022 1:30:00 PM 6.54 43.772 0.068 7.38 1.59 12.43
10/21/2022 1:45:00 PM 6.77 44.186 0.068 7.38 1.7 12.38
10/21/2022 2:00:00 PM 7.01 44.618 0.068 7.37 1.64 12.28
10/21/2022 2:15:00 PM 7.19 44.942 0.067 7.38 1.58 12.22
10/21/2022 2:30:00 PM 7.45 45.41 0.067 7.36 1.64 12.13
10/21/2022 2:45:00 PM 7.66 45.788 0.068 7.35 1.65 12.06
10/21/2022 3:00:00 PM 7.88 46.184 0.068 7.36 1.61 11.99
10/21/2022 3:15:00 PM 8 46.4 0.067 7.36 1.64 11.95
10/21/2022 3:30:00 PM 8.22 46.796 0.067 7.36 1.62 11.88
10/21/2022 3:45:00 PM 8.36 47.048 0.067 7.37 1.59 11.83
10/21/2022 4:00:00 PM 8.43 47.174 0.066 7.4 1.62 11.79
10/21/2022 4:15:00 PM 8.5 47.3 0.066 7.45 1.6 11.75
10/21/2022 4:30:00 PM 8.53 47.354 0.066 7.46 1.61 11.72
10/21/2022 4:45:00 PM 8.5 47.3 0.066 7.43 1.65 11.68
10/21/2022 5:00:00 PM 8.46 47.228 0.067 7.39 1.68 11.62
10/21/2022 5:15:00 PM 8.4 47.12 0.067 7.36 1.73 11.58
10/21/2022 5:30:00 PM 8.33 46.994 0.067 7.34 1.59 11.52
10/21/2022 5:45:00 PM 8.27 46.886 0.067 7.3 1.68 11.46
10/21/2022 6:00:00 PM 8.19 46.742 0.067 7.29 1.71 11.43
10/21/2022 6:15:00 PM 8.09 46.562 0.066 7.27 1.64 11.39
10/21/2022 6:30:00 PM 7.99 46.382 0.067 7.25 1.71 11.35
10/21/2022 6:45:00 PM 7.91 46.238 0.067 7.24 1.65 11.32
10/21/2022 7:00:00 PM 7.83 46.094 0.067 7.23 2.02 11.3
10/21/2022 7:15:00 PM 7.75 45.95 0.067 7.22 1.84 11.27
10/21/2022 7:30:00 PM 7.68 45.824 0.068 7.21 1.8 11.27
10/21/2022 7:45:00 PM 7.61 45.698 0.068 7.2 1.99 11.27
10/21/2022 8:00:00 PM 7.54 45.572 0.068 7.18 1.78 11.28
10/21/2022 8:15:00 PM 7.46 45.428 0.067 7.18 1.86 11.3
10/21/2022 8:30:00 PM 7.37 45.266 0.067 7.19 1.86 11.31
10/21/2022 8:45:00 PM 7.28 45.104 0.067 7.19 1.97 11.34
10/21/2022 9:00:00 PM 7.19 44.942 0.067 7.18 1.92 11.35
10/21/2022 9:15:00 PM 7.11 44.798 0.068 7.18 1.82 11.38
10/21/2022 9:30:00 PM 7.01 44.618 0.068 7.18 1.84 11.4
10/21/2022 9:45:00 PM 6.93 44.474 0.068 7.18 1.77 11.44
10/21/2022 10:00:00 PM 6.84 44.312 0.068 7.15 1.95 11.46
10/21/2022 10:15:00 PM 6.76 44.168 0.068 7.16 1.85 11.5
10/21/2022 10:30:00 PM 6.67 44.006 0.068 7.16 1.92 11.5
10/21/2022 10:45:00 PM 6.59 43.862 0.068 7.16 1.91 11.55
10/21/2022 11:00:00 PM 6.51 43.718 0.068 7.17 1.85 11.59
10/21/2022 11:15:00 PM 6.43 43.574 0.068 7.16 1.91 11.62
10/21/2022 11:30:00 PM 6.34 43.412 0.068 7.16 1.84 11.65
10/21/2022 11:45:00 PM 6.27 43.286 0.068 7.15 1.88 11.67
10/22/2022 12:00:00 AM 6.2 43.16 0.067 7.15 1.89 11.7
10/22/2022 12:15:00 AM 6.14 43.052 0.068 7.16 1.87 11.71
10/22/2022 12:30:00 AM 6.07 42.926 0.068 7.15 2.07 11.74
10/22/2022 12:45:00 AM 6.02 42.836 0.068 7.16 2 11.76
10/22/2022 1:00:00 AM 5.96 42.728 0.067 7.18 1.88 11.77
10/22/2022 1:15:00 AM 5.91 42.638 0.068 7.17 1.83 11.8
10/22/2022 1:30:00 AM 5.86 42.548 0.068 7.17 1.85 11.82
10/22/2022 1:45:00 AM 5.8 42.44 0.068 7.18 2 11.85
10/22/2022 2:00:00 AM 5.75 42.35 0.068 7.16 1.84 11.87
10/22/2022 2:15:00 AM 5.7 42.26 0.068 7.17 1.83 11.88
10/22/2022 2:30:00 AM 5.65 42.17 0.068 7.16 1.91 11.9
10/22/2022 2:45:00 AM 5.6 42.08 0.068 7.17 1.86 11.92
10/22/2022 3:00:00 AM 5.55 41.99 0.068 7.16 1.78 11.94
10/22/2022 3:15:00 AM 5.5 41.9 0.068 7.17 1.81 11.95
10/22/2022 3:30:00 AM 5.46 41.828 0.068 7.16 1.83 11.98
10/22/2022 3:45:00 AM 5.41 41.738 0.068 7.16 1.8 12
10/22/2022 4:00:00 AM 5.36 41.648 0.068 7.16 1.92 12
10/22/2022 4:15:00 AM 5.32 41.576 0.068 7.16 1.86 12.04
10/22/2022 4:30:00 AM 5.28 41.504 0.068 7.17 1.96 12.05
10/22/2022 4:45:00 AM 5.24 41.432 0.068 7.18 1.94 12.06
10/22/2022 5:00:00 AM 5.2 41.36 0.068 7.2 1.94 12.09
10/22/2022 5:15:00 AM 5.16 41.288 0.068 7.17 1.87 12.08
10/22/2022 5:30:00 AM 5.12 41.216 0.068 7.17 1.83 12.11
10/22/2022 5:45:00 AM 5.07 41.126 0.068 7.17 1.87 12.12
10/22/2022 6:00:00 AM 5.03 41.054 0.068 7.19 1.9 12.14
10/22/2022 6:15:00 AM 4.99 40.982 0.068 7.19 1.95 12.16
10/22/2022 6:30:00 AM 4.95 40.91 0.068 7.16 1.94 12.18
10/22/2022 6:45:00 AM 4.91 40.838 0.068 7.19 2.01 12.19
10/22/2022 7:00:00 AM 4.87 40.766 0.068 7.19 1.86 12.22
10/22/2022 7:15:00 AM 4.83 40.694 0.068 7.18 1.95 12.24
10/22/2022 7:30:00 AM 4.8 40.64 0.068 7.19 2.07 12.26
10/22/2022 7:45:00 AM 4.76 40.568 0.068 7.2 1.82 12.29
10/22/2022 8:00:00 AM 4.72 40.496 0.068 7.21 1.78 12.32
10/22/2022 8:15:00 AM 4.69 40.442 0.068 7.23 1.79 12.37
10/22/2022 8:30:00 AM 4.67 40.406 0.068 7.24 1.81 12.42
10/22/2022 8:45:00 AM 4.64 40.352 0.068 7.23 1.79 12.45
10/22/2022 9:00:00 AM 4.62 40.316 0.068 7.22 1.79 12.49
10/22/2022 9:15:00 AM 4.6 40.28 0.068 7.23 1.76 12.54
10/22/2022 9:30:00 AM 4.58 40.244 0.068 7.24 1.75 12.56
10/22/2022 9:45:00 AM 4.6 40.28 0.068 7.32 1.69 12.61
10/22/2022 10:00:00 AM 4.64 40.352 0.068 7.34 1.7 12.65
10/22/2022 10:15:00 AM 4.72 40.496 0.068 7.36 1.74 12.68
10/22/2022 10:30:00 AM 4.79 40.622 0.068 7.4 1.65 12.71
10/22/2022 10:45:00 AM 4.89 40.802 0.068 7.42 1.76 12.71
10/22/2022 11:00:00 AM 4.95 40.91 0.067 7.42 1.67 12.73
10/22/2022 11:15:00 AM 5.03 41.054 0.067 7.41 1.7 12.73
10/22/2022 11:30:00 AM 5.16 41.288 0.068 7.41 1.69 12.72
10/22/2022 11:45:00 AM 5.34 41.612 0.067 7.4 1.68 12.7
10/22/2022 12:00:00 PM 5.55 41.99 0.069 7.42 1.72 12.65
10/22/2022 12:15:00 PM 5.78 42.404 0.067 7.39 1.7 12.59
10/22/2022 12:30:00 PM 6.05 42.89 0.067 7.4 1.8 12.5
10/22/2022 12:45:00 PM 6.35 43.43 0.067 7.42 1.7 12.49
10/22/2022 1:00:00 PM 6.65 43.97 0.067 7.42 1.66 12.48
10/22/2022 1:15:00 PM 6.96 44.528 0.067 7.43 1.63 12.39
10/22/2022 1:30:00 PM 7.22 44.996 0.067 7.4 1.64 12.33
10/22/2022 1:45:00 PM 7.46 45.428 0.067 7.4 1.65 12.24
10/22/2022 2:00:00 PM 7.75 45.95 0.067 7.41 1.57 12.16
10/22/2022 2:15:00 PM 7.97 46.346 0.067 7.4 1.63 12.05
10/22/2022 2:30:00 PM 8.26 46.868 0.067 7.41 1.75 11.96
10/22/2022 2:45:00 PM 8.5 47.3 0.066 7.39 1.56 11.92
10/22/2022 3:00:00 PM 8.75 47.75 0.067 7.42 1.58 11.85
10/22/2022 3:15:00 PM 8.92 48.056 0.067 7.43 1.58 11.78
10/22/2022 3:30:00 PM 9.1 48.38 0.067 7.43 1.62 11.72
10/22/2022 3:45:00 PM 9.27 48.686 0.067 7.43 1.66 11.66
10/22/2022 4:00:00 PM 9.4 48.92 0.067 7.46 1.59 11.62
10/22/2022 4:15:00 PM 9.45 49.01 0.067 7.51 1.58 11.55
10/22/2022 4:30:00 PM 9.47 49.046 0.067 7.51 1.76 11.51
10/22/2022 4:45:00 PM 9.45 49.01 0.067 7.49 1.76 11.47
10/22/2022 5:00:00 PM 9.42 48.956 0.067 7.44 1.69 11.43
10/22/2022 5:15:00 PM 9.36 48.848 0.066 7.4 1.59 11.36
10/22/2022 5:30:00 PM 9.3 48.74 0.066 7.39 1.6 11.31
10/22/2022 5:45:00 PM 9.23 48.614 0.066 7.33 1.68 11.26
10/22/2022 6:00:00 PM 9.15 48.47 0.066 7.32 1.81 11.24
10/22/2022 6:15:00 PM 9.06 48.308 0.067 7.29 1.7 11.19
10/22/2022 6:30:00 PM 8.96 48.128 0.067 7.31 1.71 11.14
10/22/2022 6:45:00 PM 8.86 47.948 0.067 7.28 1.72 11.1
10/22/2022 7:00:00 PM 8.77 47.786 0.067 7.27 1.87 11.1
10/22/2022 7:15:00 PM 8.7 47.66 0.067 7.26 1.73 11.08
10/22/2022 7:30:00 PM 8.63 47.534 0.067 7.25 1.7 11.06
10/22/2022 7:45:00 PM 8.56 47.408 0.067 7.24 1.79 11.07
10/22/2022 8:00:00 PM 8.5 47.3 0.067 7.24 1.84 11.07
10/22/2022 8:15:00 PM 8.43 47.174 0.067 7.23 1.77 11.1
10/22/2022 8:30:00 PM 8.36 47.048 0.068 7.22 1.85 11.1
10/22/2022 8:45:00 PM 8.28 46.904 0.067 7.25 1.81 11.11
10/22/2022 9:00:00 PM 8.2 46.76 0.067 7.25 1.76 11.14
10/22/2022 9:15:00 PM 8.11 46.598 0.067 7.22 2.01 11.16
10/22/2022 9:30:00 PM 8.03 46.454 0.067 7.24 1.81 11.18
10/22/2022 9:45:00 PM 7.94 46.292 0.067 7.23 1.78 11.2
10/22/2022 10:00:00 PM 7.85 46.13 0.067 7.24 1.87 11.24
10/22/2022 10:15:00 PM 7.76 45.968 0.067 7.25 1.82 11.26
10/22/2022 10:30:00 PM 7.67 45.806 0.068 7.23 1.82 11.29
10/22/2022 10:45:00 PM 7.58 45.644 0.068 7.25 1.9 11.33
10/22/2022 11:00:00 PM 7.5 45.5 0.068 7.26 1.88 11.35
10/22/2022 11:15:00 PM 7.41 45.338 0.068 7.24 1.89 11.39
10/22/2022 11:30:00 PM 7.33 45.194 0.068 7.23 1.95 11.4
10/22/2022 11:45:00 PM 7.26 45.068 0.067 7.21 1.81 11.45
10/23/2022 12:00:00 AM 7.18 44.924 0.067 7.21 1.8 11.47
10/23/2022 12:15:00 AM 7.11 44.798 0.068 7.22 1.8 11.5
10/23/2022 12:30:00 AM 7.04 44.672 0.068 7.23 1.92 11.52
10/23/2022 12:45:00 AM 6.97 44.546 0.068 7.21 1.94 11.53
10/23/2022 1:00:00 AM 6.92 44.456 0.068 7.22 1.93 11.56
10/23/2022 1:15:00 AM 6.86 44.348 0.068 7.23 2.02 11.58
10/23/2022 1:30:00 AM 6.8 44.24 0.068 7.24 1.89 11.6
10/23/2022 1:45:00 AM 6.73 44.114 0.068 7.23 1.88 11.62
10/23/2022 2:00:00 AM 6.67 44.006 0.068 7.24 2.05 11.65
10/23/2022 2:15:00 AM 6.62 43.916 0.068 7.24 1.9 11.66
10/23/2022 2:30:00 AM 6.57 43.826 0.068 7.24 2.06 11.68
10/23/2022 2:45:00 AM 6.51 43.718 0.068 7.25 2.1 11.68
10/23/2022 3:00:00 AM 6.45 43.61 0.068 7.24 1.98 11.71
10/23/2022 3:15:00 AM 6.4 43.52 0.068 7.23 2.04 11.73
10/23/2022 3:30:00 AM 6.35 43.43 0.071 7.24 1.91 11.75
10/23/2022 3:45:00 AM 6.29 43.322 0.07 7.22 2.01 11.76
10/23/2022 4:00:00 AM 6.24 43.232 0.07 7.22 1.89 11.79
10/23/2022 4:15:00 AM 6.19 43.142 0.067 7.23 2.05 11.8
10/23/2022 4:30:00 AM 6.13 43.034 0.069 7.24 2.05 11.82
10/23/2022 4:45:00 AM 6.09 42.962 0.07 7.2 1.94 11.84
10/23/2022 5:00:00 AM 6.03 42.854 0.054 7.23 1.89 11.86
10/23/2022 5:15:00 AM 5.97 42.746 0.061 7.24 1.99 11.88
10/23/2022 5:30:00 AM 5.92 42.656 0.053 7.23 1.97 11.89
10/23/2022 5:45:00 AM 5.87 42.566 0.061 7.23 2.12 11.91
10/23/2022 6:00:00 AM 5.82 42.476 0.061 7.24 1.99 11.94
10/23/2022 6:15:00 AM 5.78 42.404 0.054 7.24 1.86 11.96
10/23/2022 6:30:00 AM 5.72 42.296 0.054 7.25 1.82 11.98
10/23/2022 6:45:00 AM 5.67 42.206 0.053 7.26 1.86 12
10/23/2022 7:00:00 AM 5.62 42.116 0.053 7.24 1.8 12
10/23/2022 7:15:00 AM 5.57 42.026 0.053 7.25 1.86 12.04
10/23/2022 7:30:00 AM 5.52 41.936 0.053 7.25 2.02 12.06
10/23/2022 7:45:00 AM 5.47 41.846 0.052 7.25 1.85 12.08
10/23/2022 8:00:00 AM 5.44 41.792 0.053 7.25 1.86 12.11
10/23/2022 8:15:00 AM 5.4 41.72 0.053 7.26 1.95 12.16
10/23/2022 8:30:00 AM 5.37 41.666 0.053 7.29 1.88 12.22
10/23/2022 8:45:00 AM 5.34 41.612 0.053 7.28 1.86 12.27
10/23/2022 9:00:00 AM 5.33 41.594 0.053 7.3 1.9 12.31
10/23/2022 9:15:00 AM 5.3 41.54 0.052 7.32 1.99 12.37
10/23/2022 9:30:00 AM 5.29 41.522 0.052 7.36 2.01 12.41
10/23/2022 9:45:00 AM 5.28 41.504 0.053 7.41 1.79 12.44
10/23/2022 10:00:00 AM 5.3 41.54 0.053 7.45 1.85 12.48
10/23/2022 10:15:00 AM 5.35 41.63 0.052 7.5 1.76 12.54
10/23/2022 10:30:00 AM 5.45 41.81 0.052 7.49 1.76 12.57
10/23/2022 10:45:00 AM 5.57 42.026 0.052 7.52 1.85 12.61
10/23/2022 11:00:00 AM 5.64 42.152 0.052 7.51 1.73 12.63
10/23/2022 11:15:00 AM 5.78 42.404 0.053 7.51 1.68 12.63
10/23/2022 11:30:00 AM 5.87 42.566 0.052 7.53 1.7 12.65
10/23/2022 11:45:00 AM 6.04 42.872 0.051 7.54 1.68 12.64
10/23/2022 12:00:00 PM 6.18 43.124 0.052 7.53 1.69 12.59
10/23/2022 12:15:00 PM 6.36 43.448 0.053 7.55 1.68 12.55
10/23/2022 12:30:00 PM 6.6 43.88 0.051 7.56 1.67 12.51
10/23/2022 12:45:00 PM 6.89 44.402 0.052 7.55 1.73 12.49
10/23/2022 1:00:00 PM 7.15 44.87 0.052 7.58 1.67 12.45
10/23/2022 1:15:00 PM 7.43 45.374 0.052 7.58 1.65 12.36
10/23/2022 1:30:00 PM 7.68 45.824 0.053 7.55 1.61 12.28
10/23/2022 1:45:00 PM 7.92 46.256 0.051 7.56 1.69 12.21
10/23/2022 2:00:00 PM 8.09 46.562 0.051 7.55 1.58 12.1
10/23/2022 2:15:00 PM 8.25 46.85 0.052 7.57 1.69 12.05
10/23/2022 2:30:00 PM 8.52 47.336 0.051 7.57 1.64 11.97
10/23/2022 2:45:00 PM 8.82 47.876 0.052 7.58 1.63 11.91
10/23/2022 3:00:00 PM 9.02 48.236 0.051 7.58 1.63 11.84
10/23/2022 3:15:00 PM 9.23 48.614 0.051 7.59 1.62 11.79
10/23/2022 3:30:00 PM 9.43 48.974 0.051 7.6 1.77 11.73
10/23/2022 3:45:00 PM 9.57 49.226 0.053 7.58 1.63 11.7
10/23/2022 4:00:00 PM 9.58 49.244 0.052 7.59 1.62 11.62
10/23/2022 4:15:00 PM 9.65 49.37 0.053 7.61 1.63 11.59
10/23/2022 4:30:00 PM 9.76 49.568 0.052 7.62 1.69 11.54
10/23/2022 4:45:00 PM 9.76 49.568 0.05 7.59 1.64 11.52
10/23/2022 5:00:00 PM 9.7 49.46 0.052 7.56 1.81 11.48
10/23/2022 5:15:00 PM 9.64 49.352 0.052 7.55 1.66 11.42
10/23/2022 5:30:00 PM 9.59 49.262 0.053 7.49 1.62 11.34
10/23/2022 5:45:00 PM 9.57 49.226 0.053 7.47 1.7 11.3
10/23/2022 6:00:00 PM 9.52 49.136 0.052 7.42 1.68 11.26
10/23/2022 6:15:00 PM 9.44 48.992 0.053 7.4 1.74 11.21
10/23/2022 6:30:00 PM 9.36 48.848 0.052 7.37 1.68 11.14
10/23/2022 6:45:00 PM 9.29 48.722 0.051 7.34 1.86 11.09
10/23/2022 7:00:00 PM 9.22 48.596 0.052 7.34 1.7 11.04
10/23/2022 7:15:00 PM 9.16 48.488 0.052 7.27 1.7 11.02
10/23/2022 7:30:00 PM 9.11 48.398 0.052 7.27 1.72 10.99
10/23/2022 7:45:00 PM 9.08 48.344 0.052 7.28 1.69 10.99
10/23/2022 8:00:00 PM 9.07 48.326 0.052 7.28 1.74 10.97
10/23/2022 8:15:00 PM 9.04 48.272 0.052 7.28 1.87 10.98
10/23/2022 8:30:00 PM 9.02 48.236 0.052 7.27 1.79 10.98
10/23/2022 8:45:00 PM 8.99 48.182 0.052 7.28 1.83 10.96
10/23/2022 9:00:00 PM 8.95 48.11 0.054 7.27 1.83 10.98
10/23/2022 9:15:00 PM 8.9 48.02 0.052 7.27 1.85 10.98
10/23/2022 9:30:00 PM 8.85 47.93 0.054 7.25 2.02 10.99
10/23/2022 9:45:00 PM 8.79 47.822 0.054 7.25 1.91 11
10/23/2022 10:00:00 PM 8.75 47.75 0.053 7.26 1.88 11.01
10/23/2022 10:15:00 PM 8.7 47.66 0.053 7.26 1.91 11.02
10/23/2022 10:30:00 PM 8.67 47.606 0.053 7.25 1.94 11.04
10/23/2022 10:45:00 PM 8.63 47.534 0.053 7.26 2.22 11.05
10/23/2022 11:00:00 PM 8.59 47.462 0.053 7.27 2.04 11.02
10/23/2022 11:15:00 PM 8.52 47.336 0.052 7.27 2 11.07
10/23/2022 11:30:00 PM 8.47 47.246 0.053 7.27 2.31 11.1
10/23/2022 11:45:00 PM 8.43 47.174 0.052 7.28 2.12 11.11
10/24/2022 12:00:00 AM 8.38 47.084 0.052 7.26 2.07 11.12
10/24/2022 12:15:00 AM 8.33 46.994 0.054 7.27 2.05 11.12
10/24/2022 12:30:00 AM 8.28 46.904 0.054 7.25 1.9 11.15
10/24/2022 12:45:00 AM 8.23 46.814 0.054 7.26 1.98 11.18
10/24/2022 1:00:00 AM 8.19 46.742 0.054 7.24 1.8 11.18
10/24/2022 1:15:00 AM 8.14 46.652 0.053 7.26 1.9 11.19
10/24/2022 1:30:00 AM 8.1 46.58 0.052 7.25 1.79 11.2
10/24/2022 1:45:00 AM 8.05 46.49 0.053 7.26 2.37 11.21
10/24/2022 2:00:00 AM 8.02 46.436 0.053 7.27 1.9 11.23
10/24/2022 2:15:00 AM 7.98 46.364 0.053 7.3 1.89 11.24
10/24/2022 2:30:00 AM 7.94 46.292 0.053 7.26 1.87 11.25
10/24/2022 2:45:00 AM 7.91 46.238 0.054 7.26 2.05 11.24
10/24/2022 3:00:00 AM 7.87 46.166 0.053 7.23 1.94 11.27
10/24/2022 3:15:00 AM 7.84 46.112 0.053 7.24 1.87 11.28
10/24/2022 3:30:00 AM 7.81 46.058 0.053 7.24 1.91 11.3
10/24/2022 3:45:00 AM 7.76 45.968 0.054 7.28 1.85 11.3
10/24/2022 4:00:00 AM 7.72 45.896 0.054 7.28 2.94 11.3
10/24/2022 4:15:00 AM 7.68 45.824 0.054 7.3 1.95 11.32
10/24/2022 4:30:00 AM 7.64 45.752 0.055 7.24 1.85 11.34
10/24/2022 4:45:00 AM 7.6 45.68 0.055 7.23 1.84 11.35
10/24/2022 5:00:00 AM 7.56 45.608 0.054 7.26 1.82 11.35
10/24/2022 5:15:00 AM 7.52 45.536 0.054 7.3 1.83 11.38
10/24/2022 5:30:00 AM 7.48 45.464 0.053 7.3 1.88 11.38
10/24/2022 5:45:00 AM 7.43 45.374 0.053 7.31 1.88 11.4
10/24/2022 6:00:00 AM 7.4 45.32 0.053 7.31 1.84 11.42
10/24/2022 6:15:00 AM 7.37 45.266 0.054 7.26 1.82 11.44
10/24/2022 6:30:00 AM 7.35 45.23 0.053 7.29 1.84 11.43
10/24/2022 6:45:00 AM 7.33 45.194 0.052 7.35 1.79 11.45
10/24/2022 7:00:00 AM 7.32 45.176 0.054 7.34 1.85 11.47
10/24/2022 7:15:00 AM 7.3 45.14 0.053 7.34 1.84 11.46
10/24/2022 7:30:00 AM 7.29 45.122 0.053 7.34 1.91 11.48
10/24/2022 7:45:00 AM 7.26 45.068 0.052 7.35 1.83 11.49
10/24/2022 8:00:00 AM 7.23 45.014 0.053 7.35 1.94 11.52
10/24/2022 8:15:00 AM 7.2 44.96 0.053 7.36 1.85 11.55
10/24/2022 8:30:00 AM 7.18 44.924 0.054 7.36 1.83 11.59
10/24/2022 8:45:00 AM 7.16 44.888 0.053 7.36 1.75 11.63
10/24/2022 9:00:00 AM 7.15 44.87 0.052 7.36 1.82 11.67
10/24/2022 9:15:00 AM 7.13 44.834 0.054 7.36 1.71 11.69
10/24/2022 9:30:00 AM 7.12 44.816 0.054 7.38 1.86 11.74
10/24/2022 9:45:00 AM 7.12 44.816 0.054 7.43 1.83 11.76
10/24/2022 10:00:00 AM 7.16 44.888 0.053 7.44 1.9 11.8
10/24/2022 10:15:00 AM 7.23 45.014 0.052 7.51 1.72 11.83
10/24/2022 10:30:00 AM 7.31 45.158 0.053 7.54 1.71 11.88
10/24/2022 10:45:00 AM 7.37 45.266 0.052 7.57 1.76 11.92
10/24/2022 11:00:00 AM 7.48 45.464 0.052 7.6 1.72 11.95
10/24/2022 11:15:00 AM 7.56 45.608 0.052 7.56 1.72 11.95
10/24/2022 11:30:00 AM 7.67 45.806 0.055 7.54 1.68 11.92
10/24/2022 11:45:00 AM 7.8 46.04 0.053 7.55 1.67 11.91
10/24/2022 12:00:00 PM 7.97 46.346 0.052 7.55 1.72 11.89
10/24/2022 12:15:00 PM 8.14 46.652 0.052 7.54 2.12 11.86
10/24/2022 12:30:00 PM 8.4 47.12 0.054 7.58 1.63 11.88
10/24/2022 12:45:00 PM 8.63 47.534 0.051 7.61 1.71 11.87
10/24/2022 1:00:00 PM 8.87 47.966 0.052 7.64 1.63 11.85
10/24/2022 1:15:00 PM 9.16 48.488 0.052 7.67 1.67 11.81
10/24/2022 1:30:00 PM 9.46 49.028 0.052 7.66 1.64 11.71
10/24/2022 1:45:00 PM 9.69 49.442 0.052 7.67 1.66 11.62
10/24/2022 2:00:00 PM 9.96 49.928 0.052 7.66 1.67 11.57
10/24/2022 2:15:00 PM 10.16 50.288 0.053 7.61 1.86 11.51
10/24/2022 2:30:00 PM 10.39 50.702 0.052 7.58 2.48 11.4
10/24/2022 2:45:00 PM 10.57 51.026 0.051 7.56 1.94 11.33
10/24/2022 3:00:00 PM 10.75 51.35 0.052 7.56 2.07 11.27
10/24/2022 3:15:00 PM 10.89 51.602 0.052 7.53 1.65 11.22
10/24/2022 3:30:00 PM 11.07 51.926 0.051 7.52 1.69 11.17
10/24/2022 3:45:00 PM 11.08 51.944 0.051 7.5 1.67 11.13
10/24/2022 4:00:00 PM 11.13 52.034 0.051 7.5 1.74 11.08
10/24/2022 4:15:00 PM 11.24 52.232 0.052 7.59 1.61 11.02
10/24/2022 4:30:00 PM 11.34 52.412 0.053 7.6 1.68 10.98
10/24/2022 4:45:00 PM 11.32 52.376 0.051 7.54 1.68 10.95
10/24/2022 5:00:00 PM 11.41 52.538 0.05 7.17 1.84 10.46
10/24/2022 5:15:00 PM 11.35 52.43 0.049 7.16 1.35 10.41
10/24/2022 5:30:00 PM 11.36 52.448 0.048 7.04 1.01 10.37
10/24/2022 5:45:00 PM 11.37 52.466 0.048 7.11 0.88 10.31
10/24/2022 6:00:00 PM 11.34 52.412 0.049 7.02 0.93 10.27
10/24/2022 6:15:00 PM 11.29 52.322 0.049 7.09 0.85 10.21
10/24/2022 6:30:00 PM 11.22 52.196 0.05 7.06 1.19 10.15
10/24/2022 6:45:00 PM 11.15 52.07 0.05 7.02 0.94 10.1
10/24/2022 7:00:00 PM 11.09 51.962 0.05 6.96 0.87 10.08
10/24/2022 7:15:00 PM 11.03 51.854 0.051 6.95 0.97 10.01
10/24/2022 7:30:00 PM 10.98 51.764 0.05 7.03 1.04 10.03
10/24/2022 7:45:00 PM 10.93 51.674 0.049 7.01 0.89 10.03
10/24/2022 8:00:00 PM 10.89 51.602 0.053 6.9 0.98 9.99
10/24/2022 8:15:00 PM 10.86 51.548 0.051 6.96 1.03 10.02
10/24/2022 8:30:00 PM 10.81 51.458 0.049 7 1.09 9.98
10/24/2022 8:45:00 PM 10.77 51.386 0.05 6.95 1.12 10.01
10/24/2022 9:00:00 PM 10.72 51.296 0.05 7.01 1.17 10.01
10/24/2022 9:15:00 PM 10.66 51.188 0.05 6.99 1.12 10.01
10/24/2022 9:30:00 PM 10.6 51.08 0.052 6.89 1.01 10.04
10/24/2022 9:45:00 PM 10.53 50.954 0.053 6.9 1.1 10.05
10/24/2022 10:00:00 PM 10.47 50.846 0.052 6.92 1.08 10.08
10/24/2022 10:15:00 PM 10.4 50.72 0.051 6.94 0.98 10.08
10/24/2022 10:30:00 PM 10.32 50.576 0.051 6.94 1.02 10.12
10/24/2022 10:45:00 PM 10.25 50.45 0.052 6.88 1.04 10.11
10/24/2022 11:00:00 PM 10.19 50.342 0.051 6.91 1.02 10.14
10/24/2022 11:15:00 PM 10.16 50.288 0.051 6.91 1.07 10.16
10/24/2022 11:30:00 PM 10.11 50.198 0.05 6.97 1.23 10.18
10/24/2022 11:45:00 PM 10.07 50.126 0.05 6.96 1.24 10.21
10/25/2022 12:00:00 AM 10.04 50.072 0.051 6.96 1.34 10.21
10/25/2022 12:15:00 AM 10.02 50.036 0.051 6.89 1.27 10.23
10/25/2022 12:30:00 AM 9.99 49.982 0.051 6.91 1.2 10.24
10/25/2022 12:45:00 AM 9.98 49.964 0.051 6.93 1.16 10.22
10/25/2022 1:00:00 AM 9.96 49.928 0.051 6.99 1.16 10.26
10/25/2022 1:15:00 AM 9.95 49.91 0.051 6.97 1.12 10.25
10/25/2022 1:30:00 AM 9.94 49.892 0.051 6.95 1.12 10.25
10/25/2022 1:45:00 AM 9.94 49.892 0.05 6.94 1.16 10.26
10/25/2022 2:00:00 AM 9.93 49.874 0.05 6.97 1.14 10.26
10/25/2022 2:15:00 AM 9.93 49.874 0.051 6.94 1.04 10.27
10/25/2022 2:30:00 AM 9.93 49.874 0.051 6.99 1.04 10.26
10/25/2022 2:45:00 AM 9.93 49.874 0.051 6.99 0.97 10.26
10/25/2022 3:00:00 AM 9.93 49.874 0.05 7 1.04 10.26
10/25/2022 3:15:00 AM 9.93 49.874 0.051 6.95 1.01 10.25
10/25/2022 3:30:00 AM 9.94 49.892 0.051 7 0.98 10.25
10/25/2022 3:45:00 AM 9.94 49.892 0.051 6.95 1.08 10.25
10/25/2022 4:00:00 AM 9.94 49.892 0.051 7.01 1.09 10.23
10/25/2022 4:15:00 AM 9.94 49.892 0.051 7.02 1.07 10.26
10/25/2022 4:30:00 AM 9.95 49.91 0.051 6.97 1.03 10.25
10/25/2022 4:45:00 AM 9.95 49.91 0.051 6.98 1.02 10.25
10/25/2022 5:00:00 AM 9.95 49.91 0.051 7 1.05 10.24
10/25/2022 5:15:00 AM 9.95 49.91 0.051 6.99 1.06 10.24
10/25/2022 5:30:00 AM 9.95 49.91 0.051 6.99 1.09 10.23
10/25/2022 5:45:00 AM 9.95 49.91 0.051 6.98 1.08 10.25
10/25/2022 6:00:00 AM 9.95 49.91 0.051 6.98 1.04 10.24
10/25/2022 6:15:00 AM 9.95 49.91 0.051 6.95 1.16 10.25
10/25/2022 6:30:00 AM 9.95 49.91 0.05 7 1.06 10.24
10/25/2022 6:45:00 AM 9.95 49.91 0.051 6.98 0.99 10.25
10/25/2022 7:00:00 AM 9.94 49.892 0.051 6.99 1.03 10.25
10/25/2022 7:15:00 AM 9.94 49.892 0.051 7.01 1.19 10.24
10/25/2022 7:30:00 AM 9.94 49.892 0.051 6.93 1.01 10.24
10/25/2022 7:45:00 AM 9.95 49.91 0.051 6.95 1.09 10.24
10/25/2022 8:00:00 AM 9.95 49.91 0.051 6.97 1.07 10.28
10/25/2022 8:15:00 AM 9.96 49.928 0.051 7.01 1.07 10.28
10/25/2022 8:30:00 AM 9.98 49.964 0.051 7.01 1.04 10.28
10/25/2022 8:45:00 AM 10 50 0.051 7.04 1.16 10.28
10/25/2022 9:00:00 AM 10.02 50.036 0.051 7.05 1.08 10.37
10/25/2022 9:15:00 AM 10.04 50.072 0.051 7.01 1.03 10.41
10/25/2022 9:30:00 AM 10.08 50.144 0.05 7.06 0.98 10.48
10/25/2022 9:45:00 AM 10.14 50.252 0.05 7.09 1.02 10.55
10/25/2022 10:00:00 AM 10.2 50.36 0.05 7.09 1.09 10.58
10/25/2022 10:15:00 AM 10.25 50.45 0.05 7.06 0.96 10.66
10/25/2022 10:30:00 AM 10.34 50.612 0.05 7.12 0.92 10.67
10/25/2022 10:45:00 AM 10.4 50.72 0.05 7.1 0.93 10.72
10/25/2022 11:00:00 AM 10.52 50.936 0.05 7.15 0.97 10.69
10/25/2022 11:15:00 AM 10.59 51.062 0.05 7.16 0.99 10.74
10/25/2022 11:30:00 AM 10.69 51.242 0.05 7.22 0.86 10.75
10/25/2022 11:45:00 AM 10.77 51.386 0.05 7.2 0.96 10.74
10/25/2022 12:00:00 PM 10.89 51.602 0.05 7.17 0.87 10.73
10/25/2022 12:15:00 PM 11.02 51.836 0.05 7.26 0.88 10.76
10/25/2022 12:30:00 PM 11.16 52.088 0.049 7.27 0.84 10.74
10/25/2022 12:45:00 PM 11.29 52.322 0.05 7.26 0.87 10.74
10/25/2022 1:00:00 PM 11.48 52.664 0.05 7.25 0.82 10.7
10/25/2022 1:15:00 PM 11.57 52.826 0.049 7.25 0.86 10.67
10/25/2022 1:30:00 PM 11.67 53.006 0.049 7.28 0.95 10.62
10/25/2022 1:45:00 PM 11.78 53.204 0.049 7.28 0.92 10.57
10/25/2022 2:00:00 PM 11.89 53.402 0.049 7.24 0.85 10.53
10/25/2022 2:15:00 PM 11.98 53.564 0.049 7.25 0.86 10.48
10/25/2022 2:30:00 PM 12.15 53.87 0.049 7.28 0.81 10.43
10/25/2022 2:45:00 PM 12.34 54.212 0.049 7.28 0.92 10.38
10/25/2022 3:00:00 PM 12.49 54.482 0.049 7.28 0.84 10.33
10/25/2022 3:15:00 PM 12.66 54.788 0.049 7.26 0.89 10.28
10/25/2022 3:30:00 PM 12.86 55.148 0.049 7.27 0.86 10.23
10/25/2022 3:45:00 PM 13.04 55.472 0.049 7.24 0.87 10.18
10/25/2022 4:00:00 PM 13.13 55.634 0.049 7.29 0.84 10.13
10/25/2022 4:15:00 PM 13.19 55.742 0.049 7.25 0.79 10.05
10/25/2022 4:30:00 PM 13.27 55.886 0.049 7.28 0.9 10.01
10/25/2022 4:45:00 PM 13.25 55.85 0.049 7.26 0.87 9.95
10/25/2022 5:00:00 PM 13.2 55.76 0.049 7.19 0.81 9.88
10/25/2022 5:15:00 PM 13.15 55.67 0.049 7.23 0.86 9.81
10/25/2022 5:30:00 PM 13.08 55.544 0.05 7.21 0.85 9.76
10/25/2022 5:45:00 PM 13 55.4 0.049 7.18 1 9.71
10/25/2022 6:00:00 PM 12.9 55.22 0.049 7.18 0.84 9.64
10/25/2022 6:15:00 PM 12.8 55.04 0.05 7.17 0.88 9.63
10/25/2022 6:30:00 PM 12.72 54.896 0.05 7.15 0.82 9.59
10/25/2022 6:45:00 PM 12.64 54.752 0.05 7.12 0.92 9.57
10/25/2022 7:00:00 PM 12.58 54.644 0.05 7.11 0.87 9.55
10/25/2022 7:15:00 PM 12.51 54.518 0.05 7.1 1.01 9.56
10/25/2022 7:30:00 PM 12.48 54.464 0.051 7.1 0.93 9.51
10/25/2022 7:45:00 PM 12.45 54.41 0.05 7.09 1.38 9.5
10/25/2022 8:00:00 PM 12.43 54.374 0.05 7.08 1.05 9.48
10/25/2022 8:15:00 PM 12.41 54.338 0.05 7.07 1.11 9.51
10/25/2022 8:30:00 PM 12.39 54.302 0.05 7.07 1.13 9.5
10/25/2022 8:45:00 PM 12.38 54.284 0.051 7.03 1.01 9.49
10/25/2022 9:00:00 PM 12.37 54.266 0.05 7.02 1.17 9.48
10/25/2022 9:15:00 PM 12.36 54.248 0.051 7.07 0.98 9.51
10/25/2022 9:30:00 PM 12.34 54.212 0.051 7.06 1.14 9.51
10/25/2022 9:45:00 PM 12.33 54.194 0.051 7.04 1.04 9.51
10/25/2022 10:00:00 PM 12.31 54.158 0.051 7.06 0.99 9.51
10/25/2022 10:15:00 PM 12.28 54.104 0.051 7.04 1.08 9.52
10/25/2022 10:30:00 PM 12.25 54.05 0.051 7.05 1.02 9.53
10/25/2022 10:45:00 PM 12.22 53.996 0.051 7.04 1.01 9.54
10/25/2022 11:00:00 PM 12.19 53.942 0.051 6.99 1.03 9.54
10/25/2022 11:15:00 PM 12.15 53.87 0.051 7.05 1.11 9.54
10/25/2022 11:30:00 PM 12.12 53.816 0.051 6.97 1.11 9.55
10/25/2022 11:45:00 PM 12.08 53.744 0.051 7.02 1.02 9.57
10/26/2022 12:00:00 AM 12.03 53.654 0.051 7.03 1.06 9.58
10/26/2022 12:15:00 AM 11.98 53.564 0.051 6.98 1.22 9.57
10/26/2022 12:30:00 AM 11.93 53.474 0.051 7.02 1.14 9.59
10/26/2022 12:45:00 AM 11.89 53.402 0.051 6.98 1.15 9.59
10/26/2022 1:00:00 AM 11.84 53.312 0.051 7 1.16 9.6
10/26/2022 1:15:00 AM 11.81 53.258 0.051 6.97 1.11 9.62
10/26/2022 1:30:00 AM 11.76 53.168 0.051 7.03 1.06 9.64
10/26/2022 1:45:00 AM 11.73 53.114 0.052 7.01 1.1 9.62
10/26/2022 2:00:00 AM 11.69 53.042 0.051 6.93 1.09 9.61
10/26/2022 2:15:00 AM 11.66 52.988 0.051 7.02 1.03 9.66
10/26/2022 2:30:00 AM 11.62 52.916 0.051 6.99 0.99 9.66
10/26/2022 2:45:00 AM 11.58 52.844 0.051 7 1.1 9.64
10/26/2022 3:00:00 AM 11.56 52.808 0.051 7 1.32 9.67
10/26/2022 3:15:00 AM 11.53 52.754 0.051 7 1.17 9.67
10/26/2022 3:30:00 AM 11.5 52.7 0.051 6.95 1.15 9.67
10/26/2022 3:45:00 AM 11.47 52.646 0.051 7 1.13 9.69
10/26/2022 4:00:00 AM 11.43 52.574 0.051 6.98 1.17 9.64
10/26/2022 4:15:00 AM 11.4 52.52 0.051 6.92 1.18 9.7
10/26/2022 4:30:00 AM 11.35 52.43 0.051 6.97 1.16 9.71
10/26/2022 4:45:00 AM 11.29 52.322 0.051 6.98 1.1 9.71
10/26/2022 5:00:00 AM 11.24 52.232 0.051 6.98 1.19 9.72
10/26/2022 5:15:00 AM 11.18 52.124 0.051 6.98 1.18 9.72
10/26/2022 5:30:00 AM 11.14 52.052 0.051 6.97 1.15 9.74
10/26/2022 5:45:00 AM 11.11 51.998 0.051 6.94 1.09 9.75
10/26/2022 6:00:00 AM 11.08 51.944 0.051 6.98 1.17 9.73
10/26/2022 6:15:00 AM 11.07 51.926 0.051 6.98 1.18 9.77
10/26/2022 6:30:00 AM 11.05 51.89 0.051 6.98 1.13 9.79
10/26/2022 6:45:00 AM 11.03 51.854 0.052 7 1.24 9.81
10/26/2022 7:00:00 AM 11 51.8 0.051 6.91 1.28 9.78
10/26/2022 7:15:00 AM 10.98 51.764 0.051 7 1.18 9.81
10/26/2022 7:30:00 AM 10.97 51.746 0.051 7 1.17 9.83
10/26/2022 7:45:00 AM 10.96 51.728 0.051 6.98 1.18 9.84
10/26/2022 8:00:00 AM 10.94 51.692 0.051 7.01 1.17 9.85
10/26/2022 8:15:00 AM 10.92 51.656 0.051 6.95 1.11 9.9
10/26/2022 8:30:00 AM 10.93 51.674 0.051 7.02 1.22 9.97
10/26/2022 8:45:00 AM 10.97 51.746 0.051 7.03 1.21 10.03
10/26/2022 9:00:00 AM 11 51.8 0.051 7.04 1.15 10.09
10/26/2022 9:15:00 AM 11.05 51.89 0.051 7.05 1.07 10.17
10/26/2022 9:30:00 AM 11.11 51.998 0.051 7.04 1.08 10.25
10/26/2022 9:45:00 AM 11.14 52.052 0.051 7.1 1.05 10.3
10/26/2022 10:00:00 AM 11.21 52.178 0.051 7.1 0.98 10.31
10/26/2022 10:15:00 AM 11.25 52.25 0.051 7.17 1.11 10.33
10/26/2022 10:30:00 AM 11.28 52.304 0.05 7.17 1 10.35
10/26/2022 10:45:00 AM 11.31 52.358 0.05 7.14 1.02 10.36
10/26/2022 11:00:00 AM 11.34 52.412 0.05 7.14 0.9 10.37
10/26/2022 11:15:00 AM 11.41 52.538 0.05 7.21 1.03 10.37
10/26/2022 11:30:00 AM 11.53 52.754 0.05 7.21 0.98 10.4
10/26/2022 11:45:00 AM 11.62 52.916 0.05 7.22 0.98 10.42
10/26/2022 12:00:00 PM 11.71 53.078 0.05 7.25 0.93 10.44
10/26/2022 12:15:00 PM 11.85 53.33 0.05 7.25 1.08 10.43
10/26/2022 12:30:00 PM 12.02 53.636 0.049 7.27 0.9 10.44
10/26/2022 12:45:00 PM 12.15 53.87 0.049 7.3 0.92 10.44
10/26/2022 1:00:00 PM 12.15 53.87 0.049 7.24 0.92 10.38
10/26/2022 1:15:00 PM 12.11 53.798 0.05 7.28 0.91 10.28
10/26/2022 1:30:00 PM 12.13 53.834 0.05 7.27 0.99 10.25
10/26/2022 1:45:00 PM 12.18 53.924 0.049 7.26 0.87 10.22
10/26/2022 2:00:00 PM 12.2 53.96 0.049 7.26 0.88 10.2
10/26/2022 2:15:00 PM 12.27 54.086 0.05 7.28 0.9 10.16
10/26/2022 2:30:00 PM 12.3 54.14 0.049 7.26 0.92 10.13
10/26/2022 2:45:00 PM 12.3 54.14 0.05 7.25 1.03 10.05
10/26/2022 3:00:00 PM 12.32 54.176 0.05 7.24 0.91 9.95
10/26/2022 3:15:00 PM 12.34 54.212 0.049 7.23 0.88 9.92
10/26/2022 3:30:00 PM 12.34 54.212 0.05 7.2 1.06 9.87
10/26/2022 3:45:00 PM 12.33 54.194 0.05 7.14 0.95 9.86
10/26/2022 4:00:00 PM 12.3 54.14 0.05 7.2 1.02 9.8
10/26/2022 4:15:00 PM 12.27 54.086 0.05 7.19 0.91 9.77
10/26/2022 4:30:00 PM 12.25 54.05 0.05 7.19 0.89 9.77
10/26/2022 4:45:00 PM 12.22 53.996 0.05 7.16 1 9.74
10/26/2022 5:00:00 PM 12.18 53.924 0.05 7.13 0.91 9.75
10/26/2022 5:15:00 PM 12.15 53.87 0.05 7.16 0.96 9.75
10/26/2022 5:30:00 PM 12.11 53.798 0.05 7.13 0.99 9.72
10/26/2022 5:45:00 PM 12.08 53.744 0.05 7.12 1.01 9.63
10/26/2022 6:00:00 PM 12.05 53.69 0.05 7.04 1.09 9.63
10/26/2022 6:15:00 PM 12.01 53.618 0.05 7.07 1 9.64
10/26/2022 6:30:00 PM 11.95 53.51 0.05 7.06 0.97 9.64
10/26/2022 6:45:00 PM 11.89 53.402 0.051 7.06 1.02 9.61
10/26/2022 7:00:00 PM 11.86 53.348 0.05 7.03 1.07 9.58
10/26/2022 7:15:00 PM 11.83 53.294 0.051 7.09 1.02 9.6
10/26/2022 7:30:00 PM 11.81 53.258 0.051 7.07 1.15 9.62
10/26/2022 7:45:00 PM 11.78 53.204 0.051 7.07 1.04 9.61
10/26/2022 8:00:00 PM 11.76 53.168 0.051 7.05 1.03 9.61
10/26/2022 8:15:00 PM 11.73 53.114 0.051 7.02 1.04 9.61
10/26/2022 8:30:00 PM 11.7 53.06 0.051 7.05 1.07 9.59
10/26/2022 8:45:00 PM 11.67 53.006 0.051 7.01 1.06 9.65
10/26/2022 9:00:00 PM 11.65 52.97 0.051 7.05 1.04 9.62
10/26/2022 9:15:00 PM 11.62 52.916 0.051 7.06 1.14 9.63
10/26/2022 9:30:00 PM 11.59 52.862 0.051 7.04 1.2 9.66
10/26/2022 9:45:00 PM 11.57 52.826 0.051 6.99 1.15 9.67
10/26/2022 10:00:00 PM 11.54 52.772 0.051 7.02 1.12 9.67
10/26/2022 10:15:00 PM 11.51 52.718 0.051 6.98 1.2 9.64
10/26/2022 10:30:00 PM 11.48 52.664 0.051 7 1.12 9.66
10/26/2022 10:45:00 PM 11.45 52.61 0.051 7.02 1.12 9.71
10/26/2022 11:00:00 PM 11.42 52.556 0.051 7 1.38 9.67
10/26/2022 11:15:00 PM 11.38 52.484 0.051 7.04 1.15 9.73
10/26/2022 11:30:00 PM 11.35 52.43 0.051 7 1.13 9.74
10/26/2022 11:45:00 PM 11.31 52.358 0.051 7.01 1.43 9.7
10/27/2022 12:00:00 AM 11.28 52.304 0.051 7.02 1.15 9.75
10/27/2022 12:15:00 AM 11.24 52.232 0.051 7.02 1.11 9.76
10/27/2022 12:30:00 AM 11.21 52.178 0.051 7 1.17 9.75
10/27/2022 12:45:00 AM 11.18 52.124 0.051 6.95 1.15 9.77
10/27/2022 1:00:00 AM 11.13 52.034 0.051 6.98 1.19 9.81
10/27/2022 1:15:00 AM 11.09 51.962 0.051 6.96 1.15 9.79
10/27/2022 1:30:00 AM 11.05 51.89 0.051 7.01 1.2 9.77
10/27/2022 1:45:00 AM 11 51.8 0.051 7.02 1.16 9.86
10/27/2022 2:00:00 AM 10.96 51.728 0.051 7.01 1.22 9.83
10/27/2022 2:15:00 AM 10.92 51.656 0.051 7.01 1.21 9.89
10/27/2022 2:30:00 AM 10.88 51.584 0.051 7 1.64 9.86
10/27/2022 2:45:00 AM 10.84 51.512 0.051 7.01 1.32 9.88
10/27/2022 3:00:00 AM 10.8 51.44 0.051 7 1.27 9.88
10/27/2022 3:15:00 AM 10.76 51.368 0.051 6.99 1.29 9.89
10/27/2022 3:30:00 AM 10.72 51.296 0.051 6.97 1.3 9.93
10/27/2022 3:45:00 AM 10.68 51.224 0.051 6.99 1.3 9.96
10/27/2022 4:00:00 AM 10.63 51.134 0.051 6.98 1.29 9.96
10/27/2022 4:15:00 AM 10.58 51.044 0.052 7 1.22 9.96
10/27/2022 4:30:00 AM 10.54 50.972 0.051 6.95 1.25 9.99
10/27/2022 4:45:00 AM 10.49 50.882 0.051 6.97 1.16 9.99
10/27/2022 5:00:00 AM 10.45 50.81 0.051 7 1.17 10
10/27/2022 5:15:00 AM 10.4 50.72 0.051 6.94 1.44 9.99
10/27/2022 5:30:00 AM 10.34 50.612 0.051 7 1.39 10.01
10/27/2022 5:45:00 AM 10.28 50.504 0.051 6.98 1.32 10.08
10/27/2022 6:00:00 AM 10.21 50.378 0.051 6.98 1.38 10.09
10/27/2022 6:15:00 AM 10.12 50.216 0.051 6.99 1.48 10.13
10/27/2022 6:30:00 AM 10.04 50.072 0.051 6.97 1.33 10.12
10/27/2022 6:45:00 AM 9.96 49.928 0.051 6.96 1.31 10.14
10/27/2022 7:00:00 AM 9.89 49.802 0.051 6.97 1.21 10.17
10/27/2022 7:15:00 AM 9.83 49.694 0.051 6.96 1.14 10.19
10/27/2022 7:30:00 AM 9.75 49.55 0.052 6.96 1.49 10.23
10/27/2022 7:45:00 AM 9.67 49.406 0.051 6.96 2.06 10.23
10/27/2022 8:00:00 AM 9.62 49.316 0.051 6.97 1.03 10.28
10/27/2022 8:15:00 AM 9.58 49.244 0.051 6.97 1.08 10.34
10/27/2022 8:30:00 AM 9.53 49.154 0.051 6.99 1.13 10.38
10/27/2022 8:45:00 AM 9.49 49.082 0.051 7 1.05 10.47
10/27/2022 9:00:00 AM 9.49 49.082 0.051 6.99 2.25 10.53
10/27/2022 9:15:00 AM 9.48 49.064 0.051 7.01 1.05 10.59
10/27/2022 9:30:00 AM 9.47 49.046 0.051 7.06 1.31 10.7
10/27/2022 9:45:00 AM 9.42 48.956 0.05 7.08 0.92 10.77
10/27/2022 10:00:00 AM 9.36 48.848 0.051 7.05 0.94 10.82
10/27/2022 10:15:00 AM 9.38 48.884 0.051 7.11 0.91 10.88
10/27/2022 10:30:00 AM 9.41 48.938 0.05 7.12 0.94 10.9
10/27/2022 10:45:00 AM 9.41 48.938 0.05 7.07 0.93 10.92
10/27/2022 11:00:00 AM 9.42 48.956 0.051 7.14 1 10.94
10/27/2022 11:15:00 AM 9.39 48.902 0.051 7.14 0.88 10.94
10/27/2022 11:30:00 AM 9.39 48.902 0.051 7.16 0.94 10.96
10/27/2022 11:45:00 AM 9.43 48.974 0.05 7.17 0.88 10.98
10/27/2022 12:00:00 PM 9.47 49.046 0.05 7.18 0.89 10.99
10/27/2022 12:15:00 PM 9.53 49.154 0.05 7.18 0.89 10.99
10/27/2022 12:30:00 PM 9.61 49.298 0.05 7.2 0.93 10.98
10/27/2022 12:45:00 PM 9.75 49.55 0.05 7.21 0.87 10.97
10/27/2022 1:00:00 PM 9.91 49.838 0.05 7.21 0.89 10.95
10/27/2022 1:15:00 PM 10.08 50.144 0.049 7.23 0.91 10.93
10/27/2022 1:30:00 PM 10.24 50.432 0.05 7.25 0.83 10.89
10/27/2022 1:45:00 PM 10.4 50.72 0.05 7.23 0.91 10.85
10/27/2022 2:00:00 PM 10.55 50.99 0.05 7.27 0.89 10.81
10/27/2022 2:15:00 PM 10.67 51.206 0.05 7.26 0.95 10.77
10/27/2022 2:30:00 PM 10.86 51.548 0.05 7.23 0.9 10.72
10/27/2022 2:45:00 PM 11.02 51.836 0.05 7.29 0.85 10.68
10/27/2022 3:00:00 PM 11.13 52.034 0.05 7.23 0.97 10.65
10/27/2022 3:15:00 PM 11.26 52.268 0.05 7.29 0.86 10.59
10/27/2022 3:30:00 PM 11.42 52.556 0.05 7.29 1.01 10.57
10/27/2022 3:45:00 PM 11.53 52.754 0.05 7.28 0.86 10.54
10/27/2022 4:00:00 PM 11.57 52.826 0.05 7.28 0.87 10.5
10/27/2022 4:15:00 PM 11.52 52.736 0.049 7.29 0.89 10.5
10/27/2022 4:30:00 PM 11.51 52.718 0.049 7.29 0.87 10.48
10/27/2022 4:45:00 PM 11.48 52.664 0.049 7.27 0.88 10.46
10/27/2022 5:00:00 PM 11.39 52.502 0.049 7.21 0.92 10.42
10/27/2022 5:15:00 PM 11.28 52.304 0.05 7.26 0.86 10.39
10/27/2022 5:30:00 PM 11.19 52.142 0.05 7.24 0.92 10.36
10/27/2022 5:45:00 PM 11.08 51.944 0.05 7.22 0.99 10.3
10/27/2022 6:00:00 PM 10.98 51.764 0.05 7.21 0.97 10.27
10/27/2022 6:15:00 PM 10.83 51.494 0.05 7.17 1.09 10.24
10/27/2022 6:30:00 PM 10.68 51.224 0.05 7.17 1.01 10.22
10/27/2022 6:45:00 PM 10.54 50.972 0.05 7.15 1.03 10.19
10/27/2022 7:00:00 PM 10.4 50.72 0.05 7.12 1.11 10.19
10/27/2022 7:15:00 PM 10.24 50.432 0.05 7.12 1.04 10.2
10/27/2022 7:30:00 PM 10.09 50.162 0.05 7.08 1.11 10.21
10/27/2022 7:45:00 PM 9.97 49.946 0.051 7.02 1.03 10.23
10/27/2022 8:00:00 PM 9.85 49.73 0.05 7.02 1.03 10.27
10/27/2022 8:15:00 PM 9.73 49.514 0.051 6.97 1.03 10.25
10/27/2022 8:30:00 PM 9.62 49.316 0.05 6.97 1.1 10.28
10/27/2022 8:45:00 PM 9.52 49.136 0.051 6.97 1.03 10.35
10/27/2022 9:00:00 PM 9.41 48.938 0.051 6.96 1.07 10.37
10/27/2022 9:15:00 PM 9.3 48.74 0.051 6.91 1.06 10.41
10/27/2022 9:30:00 PM 9.19 48.542 0.051 6.95 1.03 10.45
10/27/2022 9:45:00 PM 9.09 48.362 0.051 6.94 1.13 10.48
10/27/2022 10:00:00 PM 8.97 48.146 0.051 6.93 1.08 10.48
10/27/2022 10:15:00 PM 8.86 47.948 0.051 6.92 1.13 10.52
10/27/2022 10:30:00 PM 8.74 47.732 0.051 6.9 1.13 10.58
10/27/2022 10:45:00 PM 8.62 47.516 0.051 6.93 1.19 10.61
10/27/2022 11:00:00 PM 8.53 47.354 0.052 6.86 1.19 10.66
10/27/2022 11:15:00 PM 8.41 47.138 0.051 6.92 1.16 10.68
10/27/2022 11:30:00 PM 8.3 46.94 0.051 6.89 1.29 10.73
10/27/2022 11:45:00 PM 8.2 46.76 0.051 6.88 1.2 10.76
10/28/2022 12:00:00 AM 8.11 46.598 0.051 6.91 1.1 10.79
10/28/2022 12:15:00 AM 8 46.4 0.051 6.89 1.33 10.85
10/28/2022 12:30:00 AM 7.9 46.22 0.051 6.91 1.08 10.87
10/28/2022 12:45:00 AM 7.8 46.04 0.052 6.86 1.16 10.88
10/28/2022 1:00:00 AM 7.7 45.86 0.051 6.91 1.16 10.93
10/28/2022 1:15:00 AM 7.61 45.698 0.051 6.91 1.11 10.96
10/28/2022 1:30:00 AM 7.5 45.5 0.051 6.86 1.15 10.98
10/28/2022 1:45:00 AM 7.42 45.356 0.051 6.9 1.12 10.98
10/28/2022 2:00:00 AM 7.34 45.212 0.051 6.87 1.16 11.04
10/28/2022 2:15:00 AM 7.25 45.05 0.051 6.91 1.17 11.08
10/28/2022 2:30:00 AM 7.17 44.906 0.051 6.92 1.12 11.1
10/28/2022 2:45:00 AM 7.1 44.78 0.051 6.9 1.32 11.14
10/28/2022 3:00:00 AM 7.01 44.618 0.051 6.93 1.11 11.15
10/28/2022 3:15:00 AM 6.95 44.51 0.051 6.92 1.07 11.19
10/28/2022 3:30:00 AM 6.88 44.384 0.051 6.93 1.08 11.21
10/28/2022 3:45:00 AM 6.8 44.24 0.052 6.94 1.08 11.23
10/28/2022 4:00:00 AM 6.74 44.132 0.051 6.93 1.18 11.26
10/28/2022 4:15:00 AM 6.66 43.988 0.051 6.95 1.2 11.27
10/28/2022 4:30:00 AM 6.6 43.88 0.051 6.95 1.11 11.3
10/28/2022 4:45:00 AM 6.54 43.772 0.051 6.96 1.09 11.35
10/28/2022 5:00:00 AM 6.47 43.646 0.051 6.96 1.27 11.37
10/28/2022 5:15:00 AM 6.42 43.556 0.051 6.96 1.09 11.39
10/28/2022 5:30:00 AM 6.35 43.43 0.051 6.97 1.09 11.4
10/28/2022 5:45:00 AM 6.3 43.34 0.051 6.97 1.1 11.43
10/28/2022 6:00:00 AM 6.24 43.232 0.052 6.97 1.43 11.46
10/28/2022 6:15:00 AM 6.18 43.124 0.052 6.97 1.14 11.47
10/28/2022 6:30:00 AM 6.09 42.962 0.052 6.94 1.12 11.5
10/28/2022 6:45:00 AM 6.05 42.89 0.051 6.97 1.2 11.53
10/28/2022 7:00:00 AM 5.99 42.782 0.052 6.98 1.04 11.55
10/28/2022 7:15:00 AM 5.92 42.656 0.051 6.97 1.1 11.54
10/28/2022 7:30:00 AM 5.87 42.566 0.051 6.97 1.04 11.58
10/28/2022 7:45:00 AM 5.82 42.476 0.051 6.98 1.17 11.62
10/28/2022 8:00:00 AM 5.77 42.386 0.051 6.98 1.1 11.65
10/28/2022 8:15:00 AM 5.73 42.314 0.051 6.98 1.14 11.71
10/28/2022 8:30:00 AM 5.7 42.26 0.051 6.98 1.07 11.77
10/28/2022 8:45:00 AM 5.68 42.224 0.051 7.03 1.08 11.84
10/28/2022 9:00:00 AM 5.68 42.224 0.051 7.04 1.1 11.9
10/28/2022 9:15:00 AM 5.69 42.242 0.051 7.06 1.05 11.98
10/28/2022 9:30:00 AM 5.71 42.278 0.051 7.09 1.02 12.04
10/28/2022 9:45:00 AM 5.74 42.332 0.051 7.1 1.03 12.08
10/28/2022 10:00:00 AM 5.78 42.404 0.051 7.09 0.99 12.14
10/28/2022 10:15:00 AM 5.84 42.512 0.051 7.14 1.04 12.16
10/28/2022 10:30:00 AM 5.94 42.692 0.05 7.16 1 12.21
10/28/2022 10:45:00 AM 6.01 42.818 0.05 7.17 0.94 12.21
10/28/2022 11:00:00 AM 6.1 42.98 0.051 7.2 0.96 12.22
10/28/2022 11:15:00 AM 6.16 43.088 0.051 7.17 0.98 12.21
10/28/2022 11:30:00 AM 6.28 43.304 0.05 7.22 0.96 12.2
10/28/2022 11:45:00 AM 6.38 43.484 0.05 7.22 0.98 12.16
10/28/2022 12:00:00 PM 6.47 43.646 0.05 7.25 0.95 12.15
10/28/2022 12:15:00 PM 6.59 43.862 0.05 7.24 0.94 12.12
10/28/2022 12:30:00 PM 6.7 44.06 0.05 7.25 0.91 12.08
10/28/2022 12:45:00 PM 6.84 44.312 0.05 7.26 1.01 12.03
10/28/2022 1:00:00 PM 7.02 44.636 0.05 7.27 0.95 12
10/28/2022 1:15:00 PM 7.15 44.87 0.05 7.25 0.89 11.96
10/28/2022 1:30:00 PM 7.35 45.23 0.05 7.27 0.98 11.91
10/28/2022 1:45:00 PM 7.5 45.5 0.05 7.24 0.91 11.86
10/28/2022 2:00:00 PM 7.68 45.824 0.05 7.28 0.93 11.8
10/28/2022 2:15:00 PM 7.88 46.184 0.05 7.28 0.9 11.75
10/28/2022 2:30:00 PM 8.06 46.508 0.05 7.3 0.96 11.71
10/28/2022 2:45:00 PM 8.25 46.85 0.049 7.3 0.89 11.65
10/28/2022 3:00:00 PM 8.42 47.156 0.049 7.31 0.92 11.6
10/28/2022 3:15:00 PM 8.6 47.48 0.049 7.33 0.89 11.56
10/28/2022 3:30:00 PM 8.73 47.714 0.049 7.32 0.95 11.51
10/28/2022 3:45:00 PM 8.85 47.93 0.049 7.29 0.93 11.46
10/28/2022 4:00:00 PM 8.95 48.11 0.049 7.32 1.03 11.42
10/28/2022 4:15:00 PM 9.01 48.218 0.049 7.32 0.9 11.39
10/28/2022 4:30:00 PM 9.04 48.272 0.049 7.32 0.85 11.35
10/28/2022 4:45:00 PM 9.06 48.308 0.05 7.27 0.86 11.33
10/28/2022 5:00:00 PM 9.06 48.308 0.049 7.27 0.91 11.29
10/28/2022 5:15:00 PM 9.03 48.254 0.049 7.25 0.93 11.24
10/28/2022 5:30:00 PM 9 48.2 0.049 7.25 0.93 11.22
10/28/2022 5:45:00 PM 8.93 48.074 0.049 7.23 0.89 11.18
10/28/2022 6:00:00 PM 8.85 47.93 0.049 7.25 0.93 11.14
10/28/2022 6:15:00 PM 8.74 47.732 0.05 7.22 0.96 11.09
10/28/2022 6:30:00 PM 8.64 47.552 0.05 7.2 0.99 11.02
10/28/2022 6:45:00 PM 8.53 47.354 0.05 7.21 0.97 11
10/28/2022 7:00:00 PM 8.43 47.174 0.05 7.19 1.07 10.97
10/28/2022 7:15:00 PM 8.34 47.012 0.05 7.17 1.02 10.97
10/28/2022 7:30:00 PM 8.23 46.814 0.05 7.15 1.02 10.92
10/28/2022 7:45:00 PM 8.13 46.634 0.05 7.12 1.02 10.93
10/28/2022 8:00:00 PM 8.03 46.454 0.05 7.15 1.1 10.95
10/28/2022 8:15:00 PM 7.95 46.31 0.05 7.13 1.08 10.96
10/28/2022 8:30:00 PM 7.85 46.13 0.05 7.09 1.09 10.99
10/28/2022 8:45:00 PM 7.77 45.986 0.05 7.07 1.07 11.01
10/28/2022 9:00:00 PM 7.68 45.824 0.05 7.11 1.03 11.03
10/28/2022 9:15:00 PM 7.6 45.68 0.05 7.11 1.06 11.06
10/28/2022 9:30:00 PM 7.52 45.536 0.051 7.08 1.25 11.07
10/28/2022 9:45:00 PM 7.43 45.374 0.051 7.08 1.17 11.07
10/28/2022 10:00:00 PM 7.36 45.248 0.051 7.09 1.12 11.12
10/28/2022 10:15:00 PM 7.28 45.104 0.051 7.04 1.21 11.13
10/28/2022 10:30:00 PM 7.2 44.96 0.051 7.07 1.16 11.16
10/28/2022 10:45:00 PM 7.11 44.798 0.051 7.06 1.13 11.19
10/28/2022 11:00:00 PM 7.03 44.654 0.051 7.06 1.13 11.21
10/28/2022 11:15:00 PM 6.94 44.492 0.051 7.04 1.09 11.25
10/28/2022 11:30:00 PM 6.85 44.33 0.051 7.01 1.1 11.27
10/28/2022 11:45:00 PM 6.78 44.204 0.051 6.99 1.24 11.3
10/29/2022 12:00:00 AM 6.69 44.042 0.051 7.01 1.23 11.32
10/29/2022 12:15:00 AM 6.62 43.916 0.051 6.98 1.28 11.34
10/29/2022 12:30:00 AM 6.54 43.772 0.051 6.99 1.21 11.37
10/29/2022 12:45:00 AM 6.47 43.646 0.051 6.95 1.3 11.38
10/29/2022 1:00:00 AM 6.39 43.502 0.051 6.95 1.22 11.4
10/29/2022 1:15:00 AM 6.32 43.376 0.051 6.98 1.25 11.44
10/29/2022 1:30:00 AM 6.24 43.232 0.051 6.97 1.17 11.49
10/29/2022 1:45:00 AM 6.17 43.106 0.052 6.95 1.18 11.51
10/29/2022 2:00:00 AM 6.1 42.98 0.052 6.97 1.14 11.54
10/29/2022 2:15:00 AM 6.03 42.854 0.051 6.92 1.09 11.54
10/29/2022 2:30:00 AM 5.95 42.71 0.051 6.97 1.11 11.58
10/29/2022 2:45:00 AM 5.89 42.602 0.051 6.93 1.11 11.6
10/29/2022 3:00:00 AM 5.82 42.476 0.051 6.97 1.12 11.63
10/29/2022 3:15:00 AM 5.75 42.35 0.051 6.93 1.12 11.65
10/29/2022 3:30:00 AM 5.68 42.224 0.051 6.96 1.13 11.67
10/29/2022 3:45:00 AM 5.61 42.098 0.051 6.93 1.16 11.67
10/29/2022 4:00:00 AM 5.55 41.99 0.051 6.97 1.22 11.71
10/29/2022 4:15:00 AM 5.48 41.864 0.051 6.96 1.18 11.71
10/29/2022 4:30:00 AM 5.43 41.774 0.052 6.93 1.24 11.75
10/29/2022 4:45:00 AM 5.37 41.666 0.051 6.95 1.26 11.79
10/29/2022 5:00:00 AM 5.31 41.558 0.051 6.97 1.29 11.81
10/29/2022 5:15:00 AM 5.24 41.432 0.051 6.96 1.33 11.83
10/29/2022 5:30:00 AM 5.18 41.324 0.052 6.95 1.3 11.86
10/29/2022 5:45:00 AM 5.11 41.198 0.051 6.97 1.32 11.87
10/29/2022 6:00:00 AM 5.04 41.072 0.052 6.97 1.34 11.89
10/29/2022 6:15:00 AM 4.99 40.982 0.052 6.95 1.25 11.91
10/29/2022 6:30:00 AM 4.92 40.856 0.052 6.99 1.16 11.94
10/29/2022 6:45:00 AM 4.86 40.748 0.052 6.98 1.19 11.97
10/29/2022 7:00:00 AM 4.8 40.64 0.052 6.95 1.21 12
10/29/2022 7:15:00 AM 4.75 40.55 0.052 6.97 1.16 12.02
10/29/2022 7:30:00 AM 4.68 40.424 0.052 6.99 1.39 12.04
10/29/2022 7:45:00 AM 4.62 40.316 0.052 6.97 1.14 12.06
10/29/2022 8:00:00 AM 4.58 40.244 0.051 6.99 1.11 12.11
10/29/2022 8:15:00 AM 4.54 40.172 0.052 7.01 1.06 12.16
10/29/2022 8:30:00 AM 4.49 40.082 0.052 6.99 1.16 12.2
10/29/2022 8:45:00 AM 4.45 40.01 0.052 7.02 1.11 12.25
10/29/2022 9:00:00 AM 4.41 39.938 0.052 6.98 1.13 12.29
10/29/2022 9:15:00 AM 4.37 39.866 0.052 7.03 1.08 12.33
10/29/2022 9:30:00 AM 4.35 39.83 0.052 7.02 1.17 12.38
10/29/2022 9:45:00 AM 4.32 39.776 0.051 7.04 1.11 12.42
10/29/2022 10:00:00 AM 4.31 39.758 0.051 7.03 1.1 12.46
10/29/2022 10:15:00 AM 4.37 39.866 0.051 7.07 1.02 12.51
10/29/2022 10:30:00 AM 4.46 40.028 0.051 7.08 1.09 12.54
10/29/2022 10:45:00 AM 4.52 40.136 0.051 7.1 1.04 12.56
10/29/2022 11:00:00 AM 4.59 40.262 0.051 7.13 1.04 12.58
10/29/2022 11:15:00 AM 4.63 40.334 0.051 7.12 1.02 12.58
10/29/2022 11:30:00 AM 4.72 40.496 0.051 7.13 1.03 12.59
10/29/2022 11:45:00 AM 4.82 40.676 0.051 7.15 1.01 12.57
10/29/2022 12:00:00 PM 4.94 40.892 0.051 7.16 1 12.57
10/29/2022 12:15:00 PM 5.05 41.09 0.051 7.16 0.99 12.54
10/29/2022 12:30:00 PM 5.21 41.378 0.051 7.19 1.01 12.49
10/29/2022 12:45:00 PM 5.43 41.774 0.05 7.17 1.1 12.44
10/29/2022 1:00:00 PM 5.68 42.224 0.051 7.23 1.01 12.38
10/29/2022 1:15:00 PM 5.94 42.692 0.05 7.22 0.92 12.32
10/29/2022 1:30:00 PM 6.2 43.16 0.05 7.23 3.32 12.22
10/29/2022 1:45:00 PM 6.45 43.61 0.05 7.27 1.27 12.18
10/29/2022 2:00:00 PM 6.67 44.006 0.05 7.25 1.1 12.1
10/29/2022 2:15:00 PM 6.91 44.438 0.05 7.27 1.02 12
10/29/2022 2:30:00 PM 7.16 44.888 0.049 7.25 1.04 11.92
10/29/2022 2:45:00 PM 7.41 45.338 0.05 7.24 1.03 11.84
10/29/2022 3:00:00 PM 7.66 45.788 0.05 7.26 1.05 11.78
10/29/2022 3:15:00 PM 7.88 46.184 0.05 7.24 1.04 11.69
10/29/2022 3:30:00 PM 8.11 46.598 0.05 7.28 1 11.64
10/29/2022 3:45:00 PM 8.3 46.94 0.05 7.29 0.96 11.58
10/29/2022 4:00:00 PM 8.39 47.102 0.05 7.3 0.98 11.53
10/29/2022 4:15:00 PM 8.43 47.174 0.05 7.3 1.02 11.47
10/29/2022 4:30:00 PM 8.5 47.3 0.05 7.28 1 11.43
10/29/2022 4:45:00 PM 8.55 47.39 0.05 7.27 1.01 11.39
10/29/2022 5:00:00 PM 8.52 47.336 0.05 7.25 1.08 11.35
10/29/2022 5:15:00 PM 8.46 47.228 0.05 7.26 1.02 11.26
10/29/2022 5:30:00 PM 8.41 47.138 0.05 7.23 1.01 11.24
10/29/2022 5:45:00 PM 8.34 47.012 0.05 7.16 1.17 11.2
10/29/2022 6:00:00 PM 8.26 46.868 0.05 7.23 1.06 11.17
10/29/2022 6:15:00 PM 8.17 46.706 0.05 7.21 1.04 11.13
10/29/2022 6:30:00 PM 8.06 46.508 0.051 7.19 1.05 11.11
10/29/2022 6:45:00 PM 7.94 46.292 0.051 7.18 1.07 11.09
10/29/2022 7:00:00 PM 7.8 46.04 0.05 7.15 1.16 11.06
10/29/2022 7:15:00 PM 7.65 45.77 0.051 7.16 1.15 11.1
10/29/2022 7:30:00 PM 7.53 45.554 0.051 7.11 1.06 11.11
10/29/2022 7:45:00 PM 7.43 45.374 0.051 7.13 1.26 11.13
10/29/2022 8:00:00 PM 7.32 45.176 0.051 7.14 1.12 11.14
10/29/2022 8:15:00 PM 7.22 44.996 0.051 7.09 1.17 11.16
10/29/2022 8:30:00 PM 7.14 44.852 0.051 7.12 1.16 11.18
10/29/2022 8:45:00 PM 7.06 44.708 0.051 7.11 1.21 11.2
10/29/2022 9:00:00 PM 6.99 44.582 0.051 7.06 1.18 11.18
10/29/2022 9:15:00 PM 6.91 44.438 0.05 7.11 1.33 11.23
10/29/2022 9:30:00 PM 6.83 44.294 0.051 7.09 1.28 11.23
10/29/2022 9:45:00 PM 6.74 44.132 0.051 7.08 1.2 11.27
10/29/2022 10:00:00 PM 6.66 43.988 0.051 7.1 1.31 11.31
10/29/2022 10:15:00 PM 6.58 43.844 0.051 7.1 1.17 11.34
10/29/2022 10:30:00 PM 6.5 43.7 0.051 7.09 1.2 11.36
10/29/2022 10:45:00 PM 6.41 43.538 0.051 7.06 1.15 11.37
10/29/2022 11:00:00 PM 6.34 43.412 0.051 7.05 1.15 11.42
10/29/2022 11:15:00 PM 6.24 43.232 0.051 7.06 1.19 11.45
10/29/2022 11:30:00 PM 6.16 43.088 0.052 7.06 1.16 11.45
10/29/2022 11:45:00 PM 6.08 42.944 0.052 7.08 1.21 11.49
10/30/2022 12:00:00 AM 5.98 42.764 0.051 7.06 1.26 11.51
10/30/2022 12:15:00 AM 5.91 42.638 0.051 7.03 1.38 11.55
10/30/2022 12:30:00 AM 5.82 42.476 0.051 7.05 1.43 11.57
10/30/2022 12:45:00 AM 5.73 42.314 0.051 7.03 1.57 11.62
10/30/2022 1:00:00 AM 5.63 42.134 0.052 7.02 1.46 11.65
10/30/2022 1:15:00 AM 5.56 42.008 0.052 7.01 1.43 11.68
10/30/2022 1:30:00 AM 5.47 41.846 0.051 7 1.45 11.72
10/30/2022 1:45:00 AM 5.38 41.684 0.052 6.98 1.42 11.74
10/30/2022 2:00:00 AM 5.3 41.54 0.052 6.96 1.29 11.77
10/30/2022 2:15:00 AM 5.23 41.414 0.052 6.96 1.29 11.79
10/30/2022 2:30:00 AM 5.16 41.288 0.051 6.96 1.34 11.82
10/30/2022 2:45:00 AM 5.08 41.144 0.052 6.97 1.57 11.83
10/30/2022 3:00:00 AM 5.01 41.018 0.052 6.96 1.35 11.84
10/30/2022 3:15:00 AM 4.95 40.91 0.052 6.94 1.35 11.88
10/30/2022 3:30:00 AM 4.9 40.82 0.052 6.93 1.29 11.91
10/30/2022 3:45:00 AM 4.83 40.694 0.052 6.93 1.33 11.94
10/30/2022 4:00:00 AM 4.76 40.568 0.052 6.97 1.28 11.96
10/30/2022 4:15:00 AM 4.7 40.46 0.052 6.96 1.23 11.99
10/30/2022 4:30:00 AM 4.63 40.334 0.052 6.93 1.23 12
10/30/2022 4:45:00 AM 4.56 40.208 0.051 6.96 1.23 12.02
10/30/2022 5:00:00 AM 4.52 40.136 0.052 6.94 1.22 12.05
10/30/2022 5:15:00 AM 4.45 40.01 0.052 6.95 1.3 12.07
10/30/2022 5:30:00 AM 4.39 39.902 0.052 6.95 1.33 12.08
10/30/2022 5:45:00 AM 4.34 39.812 0.052 6.95 1.24 12.11
10/30/2022 6:00:00 AM 4.29 39.722 0.052 6.97 1.22 12.13
10/30/2022 6:15:00 AM 4.24 39.632 0.052 6.97 1.27 12.15
10/30/2022 6:30:00 AM 4.18 39.524 0.052 6.96 1.21 12.15
10/30/2022 6:45:00 AM 4.12 39.416 0.052 6.98 1.22 12.18
10/30/2022 7:00:00 AM 4.07 39.326 0.052 6.98 1.24 12.21
10/30/2022 7:15:00 AM 4.02 39.236 0.052 6.98 1.19 12.22
10/30/2022 7:30:00 AM 3.98 39.164 0.052 6.98 3.39 12.24
10/30/2022 7:45:00 AM 3.93 39.074 0.052 6.99 2.22 12.27
10/30/2022 8:00:00 AM 3.89 39.002 0.052 6.98 1.16 12.3
10/30/2022 8:15:00 AM 3.86 38.948 0.052 6.98 1.28 12.34
10/30/2022 8:30:00 AM 3.83 38.894 0.052 7 1.25 12.4
10/30/2022 8:45:00 AM 3.8 38.84 0.052 7.03 1.16 12.44
10/30/2022 9:00:00 AM 3.77 38.786 0.052 7.01 1.13 12.47
10/30/2022 9:15:00 AM 3.75 38.75 0.052 7.03 2.19 12.53
10/30/2022 9:30:00 AM 3.74 38.732 0.052 7.04 1.24 12.57
10/30/2022 9:45:00 AM 3.72 38.696 0.051 7.06 1.19 12.59
10/30/2022 10:00:00 AM 3.71 38.678 0.052 7.04 3.36 12.61
10/30/2022 10:15:00 AM 3.75 38.75 0.052 7.07 1.39 12.65
10/30/2022 10:30:00 AM 3.84 38.912 0.051 7.08 1.12 12.67
10/30/2022 10:45:00 AM 3.91 39.038 0.052 7.09 1.21 12.69
10/30/2022 11:00:00 AM 3.97 39.146 0.051 7.11 1.51 12.71
10/30/2022 11:15:00 AM 4.02 39.236 0.051 7.14 1.44 12.7
10/30/2022 11:30:00 AM 4.13 39.434 0.051 7.15 5.11 12.7
10/30/2022 11:45:00 AM 4.24 39.632 0.052 7.17 1.49 12.69
10/30/2022 12:00:00 PM 4.39 39.902 0.051 7.17 1.32 12.68
10/30/2022 12:15:00 PM 4.49 40.082 0.051 7.16 1.11 12.66
10/30/2022 12:30:00 PM 4.64 40.352 0.051 7.18 1.03 12.64
10/30/2022 12:45:00 PM 4.84 40.712 0.051 7.19 1.02 12.6
10/30/2022 1:00:00 PM 5.12 41.216 0.051 7.22 1.12 12.54
10/30/2022 1:15:00 PM 5.37 41.666 0.05 7.22 0.9 12.44
10/30/2022 1:30:00 PM 5.66 42.188 0.051 7.25 1.04 12.35
10/30/2022 1:45:00 PM 5.9 42.62 0.05 7.25 0.85 12.29
10/30/2022 2:00:00 PM 6.13 43.034 0.051 7.25 0.84 12.23
10/30/2022 2:15:00 PM 6.32 43.376 0.051 7.28 0.8 12.16
10/30/2022 2:30:00 PM 6.62 43.916 0.05 7.28 0.83 12.09
10/30/2022 2:45:00 PM 6.92 44.456 0.05 7.26 0.85 12.01
10/30/2022 3:00:00 PM 7.13 44.834 0.05 7.28 0.79 11.91
10/30/2022 3:15:00 PM 7.24 45.032 0.05 7.27 0.82 11.85
10/30/2022 3:30:00 PM 7.37 45.266 0.05 7.3 0.8 11.76
10/30/2022 3:45:00 PM 7.56 45.608 0.05 7.25 0.83 11.71
10/30/2022 4:00:00 PM 7.75 45.95 0.05 7.29 0.8 11.69
10/30/2022 4:15:00 PM 7.83 46.094 0.05 7.27 0.89 11.66
10/30/2022 4:30:00 PM 7.84 46.112 0.05 7.29 0.79 11.59
10/30/2022 4:45:00 PM 7.85 46.13 0.05 7.26 0.85 11.55
10/30/2022 5:00:00 PM 7.85 46.13 0.05 7.26 0.81 11.51
10/30/2022 5:15:00 PM 7.82 46.076 0.05 7.27 0.81 11.46
10/30/2022 5:30:00 PM 7.79 46.022 0.05 7.24 0.86 11.4
10/30/2022 5:45:00 PM 7.75 45.95 0.05 7.23 0.86 11.35
10/30/2022 6:00:00 PM 7.7 45.86 0.05 7.2 0.87 11.3
10/30/2022 6:15:00 PM 7.64 45.752 0.05 7.2 0.83 11.27
10/30/2022 6:30:00 PM 7.56 45.608 0.05 7.19 0.89 11.23
10/30/2022 6:45:00 PM 7.5 45.5 0.05 7.18 0.87 11.18
10/30/2022 7:00:00 PM 7.44 45.392 0.051 7.17 0.91 11.16
10/30/2022 7:15:00 PM 7.37 45.266 0.051 7.16 1.04 11.17
10/30/2022 7:30:00 PM 7.31 45.158 0.051 7.13 0.92 11.15
10/30/2022 7:45:00 PM 7.26 45.068 0.051 7.14 0.96 11.16
10/30/2022 8:00:00 PM 7.21 44.978 0.051 7.15 0.91 11.16
10/30/2022 8:15:00 PM 7.17 44.906 0.051 7.13 0.95 11.16
10/30/2022 8:30:00 PM 7.11 44.798 0.05 7.12 0.96 11.15
10/30/2022 8:45:00 PM 7.05 44.69 0.05 7.1 1 11.15
10/30/2022 9:00:00 PM 7 44.6 0.051 7.11 0.93 11.15
10/30/2022 9:15:00 PM 6.95 44.51 0.051 7.09 1 11.18
10/30/2022 9:30:00 PM 6.91 44.438 0.051 7.11 1.03 11.17
10/30/2022 9:45:00 PM 6.86 44.348 0.051 7.08 1.04 11.19
10/30/2022 10:00:00 PM 6.82 44.276 0.051 7.1 1.05 11.21
10/30/2022 10:15:00 PM 6.76 44.168 0.051 7.09 0.97 11.24
10/30/2022 10:30:00 PM 6.69 44.042 0.051 7.08 0.98 11.25
10/30/2022 10:45:00 PM 6.62 43.916 0.051 7.08 0.99 11.25
10/30/2022 11:00:00 PM 6.57 43.826 0.051 7.08 1.03 11.28
10/30/2022 11:15:00 PM 6.5 43.7 0.051 7.09 1.06 11.31
10/30/2022 11:30:00 PM 6.43 43.574 0.051 7.1 1.06 11.3
10/30/2022 11:45:00 PM 6.36 43.448 0.051 7.08 1.06 11.34
10/31/2022 12:00:00 AM 6.28 43.304 0.052 7.06 1.18 11.36
10/31/2022 12:15:00 AM 6.22 43.196 0.052 7.09 1.1 11.38
10/31/2022 12:30:00 AM 6.14 43.052 0.052 7.07 1.08 11.41
10/31/2022 12:45:00 AM 6.07 42.926 0.051 7.07 1.08 11.44
10/31/2022 1:00:00 AM 6 42.8 0.052 7.07 1.08 11.46
10/31/2022 1:15:00 AM 5.93 42.674 0.052 7.07 1.27 11.48
10/31/2022 1:30:00 AM 5.88 42.584 0.052 7.08 1.09 11.51
10/31/2022 1:45:00 AM 5.82 42.476 0.051 7.08 1.04 11.53
10/31/2022 2:00:00 AM 5.77 42.386 0.052 7.06 1.08 11.55
10/31/2022 2:15:00 AM 5.72 42.296 0.051 7.08 1.03 11.57
10/31/2022 2:30:00 AM 5.67 42.206 0.052 7.05 1.09 11.59
10/31/2022 2:45:00 AM 5.62 42.116 0.051 7.05 1.1 11.61
10/31/2022 3:00:00 AM 5.57 42.026 0.052 7.08 1.06 11.62
10/31/2022 3:15:00 AM 5.54 41.972 0.052 7.07 1.09 11.63
10/31/2022 3:30:00 AM 5.52 41.936 0.052 7.07 1.07 11.64
10/31/2022 3:45:00 AM 5.5 41.9 0.052 7.07 1.06 11.66
10/31/2022 4:00:00 AM 5.49 41.882 0.052 7.08 1.04 11.66
10/31/2022 4:15:00 AM 5.47 41.846 0.052 7.07 1.07 11.67
10/31/2022 4:30:00 AM 5.46 41.828 0.052 7.06 1.03 11.68
10/31/2022 4:45:00 AM 5.44 41.792 0.052 7.05 1.04 11.68
10/31/2022 5:00:00 AM 5.42 41.756 0.052 7.06 1.1 11.69
10/31/2022 5:15:00 AM 5.39 41.702 0.052 7.07 1.15 11.69
10/31/2022 5:30:00 AM 5.36 41.648 0.052 7.06 1.08 11.7
10/31/2022 5:45:00 AM 5.32 41.576 0.052 7.05 1.06 11.72
10/31/2022 6:00:00 AM 5.29 41.522 0.052 7.08 1.04 11.72
10/31/2022 6:15:00 AM 5.25 41.45 0.052 7.07 1.01 11.73
10/31/2022 6:30:00 AM 5.22 41.396 0.052 7.06 1.04 11.75
10/31/2022 6:45:00 AM 5.19 41.342 0.052 7.05 1 11.77
10/31/2022 7:00:00 AM 5.19 41.342 0.052 7.03 1.09 11.75
10/31/2022 7:15:00 AM 5.2 41.36 0.052 7.04 1.05 11.78
10/31/2022 7:30:00 AM 5.21 41.378 0.052 7.05 1.05 11.78
10/31/2022 7:45:00 AM 5.22 41.396 0.051 7.03 1.01 11.78
10/31/2022 8:00:00 AM 5.24 41.432 0.052 7.06 1.02 11.8
10/31/2022 8:15:00 AM 5.26 41.468 0.052 7.05 1.03 11.85
10/31/2022 8:30:00 AM 5.29 41.522 0.051 7.07 1.11 11.85
10/31/2022 8:45:00 AM 5.32 41.576 0.052 7.07 1.21 11.91
10/31/2022 9:00:00 AM 5.36 41.648 0.052 7.09 1.15 11.95
10/31/2022 9:15:00 AM 5.42 41.756 0.051 7.08 1.08 11.99
10/31/2022 9:30:00 AM 5.46 41.828 0.052 7.12 1.01 12.02
10/31/2022 9:45:00 AM 5.54 41.972 0.051 7.13 0.99 12.02
10/31/2022 10:00:00 AM 5.61 42.098 0.052 7.12 0.96 12.1
10/31/2022 10:15:00 AM 5.68 42.224 0.051 7.13 0.97 12.11
10/31/2022 10:30:00 AM 5.77 42.386 0.051 7.16 0.96 12.11
10/31/2022 10:45:00 AM 5.87 42.566 0.051 7.17 0.95 12.12
10/31/2022 11:00:00 AM 5.99 42.782 0.051 7.16 0.91 12.12
10/31/2022 11:15:00 AM 6.1 42.98 0.051 7.18 0.91 12.12
10/31/2022 11:30:00 AM 6.28 43.304 0.051 7.19 0.88 12.11
10/31/2022 11:45:00 AM 6.41 43.538 0.051 7.19 0.96 12.09
10/31/2022 12:00:00 PM 6.54 43.772 0.051 7.21 0.83 12.07
10/31/2022 12:15:00 PM 6.62 43.916 0.05 7.23 0.84 12.04
10/31/2022 12:30:00 PM 6.7 44.06 0.05 7.21 0.86 12
10/31/2022 12:45:00 PM 6.81 44.258 0.051 7.24 0.88 11.96
10/31/2022 1:00:00 PM 6.9 44.42 0.05 7.23 0.85 11.91
10/31/2022 1:15:00 PM 6.98 44.564 0.05 7.23 0.88 11.87
10/31/2022 1:30:00 PM 7.07 44.726 0.05 7.24 0.87 11.84
10/31/2022 1:45:00 PM 7.15 44.87 0.05 7.24 0.82 11.8
10/31/2022 2:00:00 PM 7.23 45.014 0.051 7.24 0.92 11.77
10/31/2022 2:15:00 PM 7.32 45.176 0.05 7.24 1.08 11.74
10/31/2022 2:30:00 PM 7.4 45.32 0.05 7.25 0.86 11.7
10/31/2022 2:45:00 PM 7.48 45.464 0.05 7.24 0.84 11.66
10/31/2022 3:00:00 PM 7.54 45.572 0.051 7.26 0.89 11.6
10/31/2022 3:15:00 PM 7.58 45.644 0.05 7.25 0.9 11.56
10/31/2022 3:30:00 PM 7.62 45.716 0.05 7.23 0.87 11.52
10/31/2022 3:45:00 PM 7.66 45.788 0.05 7.23 0.84 11.49
10/31/2022 4:00:00 PM 7.69 45.842 0.05 7.24 0.87 11.44
10/31/2022 4:15:00 PM 7.71 45.878 0.05 7.23 0.92 11.41
10/31/2022 4:30:00 PM 7.72 45.896 0.05 7.22 0.89 11.36
10/31/2022 4:45:00 PM 7.73 45.914 0.05 7.23 0.85 11.32
10/31/2022 5:00:00 PM 7.75 45.95 0.05 7.2 0.89 11.29
10/31/2022 5:15:00 PM 7.76 45.968 0.051 7.19 0.88 11.26
10/31/2022 5:30:00 PM 7.77 45.986 0.05 7.17 0.89 11.22
10/31/2022 5:45:00 PM 7.79 46.022 0.051 7.18 0.91 11.17
10/31/2022 6:00:00 PM 7.8 46.04 0.051 7.16 0.88 11.14
10/31/2022 6:15:00 PM 7.81 46.058 0.05 7.15 1.81 11.08
10/31/2022 6:30:00 PM 7.82 46.076 0.051 7.15 0.96 11.06
10/31/2022 6:45:00 PM 7.83 46.094 0.051 7.12 0.94 11.02
10/31/2022 7:00:00 PM 7.84 46.112 0.051 7.14 1 11
10/31/2022 7:15:00 PM 7.85 46.13 0.051 7.1 0.93 10.98
10/31/2022 7:30:00 PM 7.86 46.148 0.051 7.12 0.94 10.97
10/31/2022 7:45:00 PM 7.86 46.148 0.051 7.11 0.93 10.94
10/31/2022 8:00:00 PM 7.87 46.166 0.051 7.08 0.98 10.94
10/31/2022 8:15:00 PM 7.88 46.184 0.051 7.09 1.05 10.93
10/31/2022 8:30:00 PM 7.89 46.202 0.051 7.09 0.92 10.92
10/31/2022 8:45:00 PM 7.9 46.22 0.051 7.08 1.08 10.92
10/31/2022 9:00:00 PM 7.91 46.238 0.051 7.08 1.04 10.9
10/31/2022 9:15:00 PM 7.92 46.256 0.051 7.08 1.02 10.88
10/31/2022 9:30:00 PM 7.92 46.256 0.051 7.07 1.06 10.87
10/31/2022 9:45:00 PM 7.93 46.274 0.051 7.07 0.93 10.88
10/31/2022 10:00:00 PM 7.94 46.292 0.051 7.05 1.04 10.87
10/31/2022 10:15:00 PM 7.95 46.31 0.051 7.06 0.98 10.85
10/31/2022 10:30:00 PM 7.96 46.328 0.051 7.06 1.01 10.84
10/31/2022 10:45:00 PM 7.97 46.346 0.051 7.05 1.01 10.84
10/31/2022 11:00:00 PM 7.97 46.346 0.051 7.04 1.1 10.85
10/31/2022 11:15:00 PM 7.98 46.364 0.051 7.07 1.09 10.85
10/31/2022 11:30:00 PM 7.99 46.382 0.051 7.04 1.32 10.86
10/31/2022 11:45:00 PM 8 46.4 0.052 7.07 1.34 10.85
11/1/2022 12:00:00 AM 8.01 46.418 0.052 7.05 1.1 10.82
11/1/2022 12:15:00 AM 8.02 46.436 0.052 7.03 1.11 10.85
11/1/2022 12:30:00 AM 8.03 46.454 0.052 7.05 1.09 10.84
11/1/2022 12:45:00 AM 8.04 46.472 0.052 7.04 1.16 10.83
11/1/2022 1:00:00 AM 8.04 46.472 0.052 7.03 1.07 10.83
11/1/2022 1:15:00 AM 8.05 46.49 0.052 7.04 1.04 10.83
11/1/2022 1:30:00 AM 8.06 46.508 0.052 7.03 1.1 10.82
11/1/2022 1:45:00 AM 8.07 46.526 0.052 7.03 1.24 10.82
11/1/2022 2:00:00 AM 8.08 46.544 0.052 7.03 1.09 10.81
11/1/2022 2:15:00 AM 8.08 46.544 0.052 7.01 1.07 10.82
11/1/2022 2:30:00 AM 8.09 46.562 0.052 7.04 1.06 10.82
11/1/2022 2:45:00 AM 8.1 46.58 0.052 7.02 1.02 10.82
11/1/2022 3:00:00 AM 8.11 46.598 0.052 7.02 1.13 10.81
11/1/2022 3:15:00 AM 8.11 46.598 0.051 7.01 1.1 10.8
11/1/2022 3:30:00 AM 8.12 46.616 0.052 7.01 1.05 10.81
11/1/2022 3:45:00 AM 8.13 46.634 0.052 7.04 1.14 10.8
11/1/2022 4:00:00 AM 8.13 46.634 0.052 7.03 1.06 10.79
11/1/2022 4:15:00 AM 8.14 46.652 0.052 7.02 1.1 10.8
11/1/2022 4:30:00 AM 8.15 46.67 0.052 7.02 1.09 10.76
11/1/2022 4:45:00 AM 8.15 46.67 0.052 7.03 1.01 10.79
11/1/2022 5:00:00 AM 8.16 46.688 0.052 7.02 1.02 10.8
11/1/2022 5:15:00 AM 8.17 46.706 0.052 7.02 1.02 10.77
11/1/2022 5:30:00 AM 8.18 46.724 0.052 7.03 1.01 10.8
11/1/2022 5:45:00 AM 8.18 46.724 0.052 7 1.06 10.78
11/1/2022 6:00:00 AM 8.19 46.742 0.051 7.02 1.03 10.77
11/1/2022 6:15:00 AM 8.19 46.742 0.052 7.02 1.05 10.8
11/1/2022 6:30:00 AM 8.2 46.76 0.051 7.01 1.1 10.79
11/1/2022 6:45:00 AM 8.21 46.778 0.052 7.01 1.16 10.77
11/1/2022 7:00:00 AM 8.21 46.778 0.052 7 1.07 10.77
11/1/2022 7:15:00 AM 8.22 46.796 0.051 7.01 1.06 10.77
11/1/2022 7:30:00 AM 8.22 46.796 0.052 6.99 1.18 10.77
11/1/2022 7:45:00 AM 8.23 46.814 0.052 7.01 1.3 10.77
11/1/2022 8:00:00 AM 8.23 46.814 0.052 7 1.16 10.78
11/1/2022 8:15:00 AM 8.24 46.832 0.052 7 1.21 10.73
11/1/2022 8:30:00 AM 8.25 46.85 0.052 7.02 1.16 10.79
11/1/2022 8:45:00 AM 8.26 46.868 0.052 7.01 1.09 10.82
11/1/2022 9:00:00 AM 8.28 46.904 0.052 7.03 1.23 10.84
11/1/2022 9:15:00 AM 8.3 46.94 0.052 7.02 1.04 10.87
11/1/2022 9:30:00 AM 8.32 46.976 0.052 7.03 1.04 10.91
11/1/2022 9:45:00 AM 8.36 47.048 0.052 7.03 1 10.93
11/1/2022 10:00:00 AM 8.43 47.174 0.052 7.04 1.07 11.05
11/1/2022 10:15:00 AM 8.54 47.372 0.052 7.06 1.17 11.12
11/1/2022 10:30:00 AM 8.68 47.624 0.052 7.08 0.93 11.2
11/1/2022 10:45:00 AM 8.78 47.804 0.052 7.1 0.93 11.22
11/1/2022 11:00:00 AM 8.93 48.074 0.051 7.12 0.96 11.24
11/1/2022 11:15:00 AM 9.04 48.272 0.051 7.12 1.01 11.25
11/1/2022 11:30:00 AM 9.23 48.614 0.052 7.15 0.95 11.26
11/1/2022 11:45:00 AM 9.32 48.776 0.052 7.19 0.88 11.27
11/1/2022 12:00:00 PM 9.34 48.812 0.052 7.17 0.91 11.23
11/1/2022 12:15:00 PM 9.39 48.902 0.051 7.18 0.91 11.17
11/1/2022 12:30:00 PM 9.5 49.1 0.051 7.19 0.97 11.18
11/1/2022 12:45:00 PM 9.63 49.334 0.051 7.2 0.99 11.15
11/1/2022 1:00:00 PM 9.67 49.406 0.051 7.19 1.01 11.1
11/1/2022 1:15:00 PM 9.69 49.442 0.051 7.2 0.93 11.04
11/1/2022 1:30:00 PM 9.75 49.55 0.051 7.22 0.9 10.99
11/1/2022 1:45:00 PM 9.89 49.802 0.051 7.21 0.92 11.01
11/1/2022 2:00:00 PM 10.11 50.198 0.051 7.26 0.92 11
11/1/2022 2:15:00 PM 10.34 50.612 0.05 7.26 0.94 10.98
11/1/2022 2:30:00 PM 10.56 51.008 0.05 7.26 0.98 10.95
11/1/2022 2:45:00 PM 10.62 51.116 0.051 7.25 0.88 10.93
11/1/2022 3:00:00 PM 10.65 51.17 0.051 7.26 0.94 10.89
11/1/2022 3:15:00 PM 10.77 51.386 0.05 7.27 0.94 10.84
11/1/2022 3:30:00 PM 10.82 51.476 0.05 7.24 0.94 10.78
11/1/2022 3:45:00 PM 10.83 51.494 0.051 7.27 0.95 10.75
11/1/2022 4:00:00 PM 10.9 51.62 0.05 7.24 0.95 10.71
11/1/2022 4:15:00 PM 10.94 51.692 0.05 7.22 0.94 10.7
11/1/2022 4:30:00 PM 10.99 51.782 0.05 7.22 1.03 10.67
11/1/2022 4:45:00 PM 11.02 51.836 0.05 7.24 0.93 10.64
11/1/2022 5:00:00 PM 11.04 51.872 0.05 7.27 1.07 10.6
11/1/2022 5:15:00 PM 11.07 51.926 0.051 7.18 0.92 10.53
11/1/2022 5:30:00 PM 11.09 51.962 0.05 7.24 1.15 10.46
11/1/2022 5:45:00 PM 11.08 51.944 0.05 7.22 2.88 10.38
11/1/2022 6:00:00 PM 11.05 51.89 0.051 7.19 2.57 10.31
11/1/2022 6:15:00 PM 11.02 51.836 0.05 7.19 1.11 10.25
11/1/2022 6:30:00 PM 10.98 51.764 0.051 7.16 0.9 10.19
11/1/2022 6:45:00 PM 10.96 51.728 0.051 7.09 1.03 10.15
11/1/2022 7:00:00 PM 10.93 51.674 0.051 7.12 1.06 10.13
11/1/2022 7:15:00 PM 10.91 51.638 0.051 7.12 1.05 10.09
11/1/2022 7:30:00 PM 10.88 51.584 0.051 7.11 1.06 10.09
11/1/2022 7:45:00 PM 10.81 51.458 0.051 7.1 1.03 10.09
11/1/2022 8:00:00 PM 10.74 51.332 0.051 7.07 1.02 10.1
11/1/2022 8:15:00 PM 10.68 51.224 0.051 7.08 1.09 10.1
11/1/2022 8:30:00 PM 10.61 51.098 0.052 7.07 1.04 10.09
11/1/2022 8:45:00 PM 10.54 50.972 0.052 7.08 1.15 10.11
11/1/2022 9:00:00 PM 10.47 50.846 0.052 7.07 1.18 10.13
11/1/2022 9:15:00 PM 10.4 50.72 0.052 7.07 1.21 10.14
11/1/2022 9:30:00 PM 10.33 50.594 0.051 7.03 1.21 10.16
11/1/2022 9:45:00 PM 10.25 50.45 0.052 7.03 1.07 10.15
11/1/2022 10:00:00 PM 10.19 50.342 0.052 7.05 1.14 10.19
11/1/2022 10:15:00 PM 10.11 50.198 0.052 7 1.02 10.2
11/1/2022 10:30:00 PM 10.03 50.054 0.052 7.02 1.08 10.23
11/1/2022 10:45:00 PM 9.95 49.91 0.052 7.06 1.13 10.23
11/1/2022 11:00:00 PM 9.87 49.766 0.052 7.05 1.14 10.27
11/1/2022 11:15:00 PM 9.78 49.604 0.052 7 1.01 10.32
11/1/2022 11:30:00 PM 9.69 49.442 0.052 7.06 1.09 10.32
11/1/2022 11:45:00 PM 9.61 49.298 0.052 7.06 1.01 10.35
11/2/2022 12:00:00 AM 9.51 49.118 0.052 7.01 1.1 10.39
11/2/2022 12:15:00 AM 9.42 48.956 0.052 7.04 1.19 10.41
11/2/2022 12:30:00 AM 9.35 48.83 0.052 7.04 1.16 10.43
11/2/2022 12:45:00 AM 9.28 48.704 0.053 7.05 1.08 10.48
11/2/2022 1:00:00 AM 9.23 48.614 0.052 7.04 1.17 10.48
11/2/2022 1:15:00 AM 9.18 48.524 0.052 7.02 1.21 10.5
11/2/2022 1:30:00 AM 9.14 48.452 0.052 7.04 1.07 10.52
11/2/2022 1:45:00 AM 9.06 48.308 0.052 7 1.11 10.54
11/2/2022 2:00:00 AM 9.01 48.218 0.052 7 1.09 10.57
11/2/2022 2:15:00 AM 8.98 48.164 0.053 7.05 1.07 10.57
11/2/2022 2:30:00 AM 8.96 48.128 0.053 7.04 1.02 10.59
11/2/2022 2:45:00 AM 8.93 48.074 0.052 7.02 1.12 10.61
11/2/2022 3:00:00 AM 8.9 48.02 0.052 7.04 1.07 10.59
11/2/2022 3:15:00 AM 8.88 47.984 0.052 7.03 1.08 10.63
11/2/2022 3:30:00 AM 8.85 47.93 0.052 7.04 1.09 10.64
11/2/2022 3:45:00 AM 8.83 47.894 0.052 7.01 1.38 10.65
11/2/2022 4:00:00 AM 8.81 47.858 0.052 7.03 1.13 10.65
11/2/2022 4:15:00 AM 8.79 47.822 0.052 7.04 1.15 10.67
11/2/2022 4:30:00 AM 8.77 47.786 0.052 7.01 1.14 10.68
11/2/2022 4:45:00 AM 8.75 47.75 0.053 7.04 1.13 10.69
11/2/2022 5:00:00 AM 8.72 47.696 0.053 7.05 1.16 10.71
11/2/2022 5:15:00 AM 8.69 47.642 0.053 7.06 1.1 10.7
11/2/2022 5:30:00 AM 8.67 47.606 0.053 7.01 1.24 10.71
11/2/2022 5:45:00 AM 8.64 47.552 0.053 7.05 1.22 10.71
11/2/2022 6:00:00 AM 8.62 47.516 0.053 7.05 1.12 10.72
11/2/2022 6:15:00 AM 8.59 47.462 0.053 7.02 1.48 10.75
11/2/2022 6:30:00 AM 8.57 47.426 0.053 7.05 1.12 10.77
11/2/2022 6:45:00 AM 8.54 47.372 0.053 7.03 1.13 10.77
11/2/2022 7:00:00 AM 8.51 47.318 0.053 7.04 1.13 10.76
11/2/2022 7:15:00 AM 8.49 47.282 0.053 7.05 1.09 10.79
11/2/2022 7:30:00 AM 8.47 47.246 0.052 7.02 1.19 10.78
11/2/2022 7:45:00 AM 8.45 47.21 0.052 7.02 1.15 10.8
11/2/2022 8:00:00 AM 8.42 47.156 0.052 7.03 1.09 10.84
11/2/2022 8:15:00 AM 8.4 47.12 0.052 7.05 1.09 10.86
11/2/2022 8:30:00 AM 8.38 47.084 0.053 7.03 1.21 10.9
11/2/2022 8:45:00 AM 8.37 47.066 0.052 7.07 1.15 10.97
11/2/2022 9:00:00 AM 8.36 47.048 0.052 7.07 1.08 11.04
11/2/2022 9:15:00 AM 8.36 47.048 0.052 7.09 1.07 11.11
11/2/2022 9:30:00 AM 8.37 47.066 0.052 7.1 1.19 11.17
11/2/2022 9:45:00 AM 8.4 47.12 0.052 7.07 1.07 11.24
11/2/2022 10:00:00 AM 8.42 47.156 0.052 7.1 1.01 11.3
11/2/2022 10:15:00 AM 8.46 47.228 0.052 7.15 1 11.36
11/2/2022 10:30:00 AM 8.49 47.282 0.052 7.14 1.07 11.39
11/2/2022 10:45:00 AM 8.49 47.282 0.052 7.13 0.98 11.4
11/2/2022 11:00:00 AM 8.47 47.246 0.052 7.17 1.03 11.39
11/2/2022 11:15:00 AM 8.47 47.246 0.052 7.16 0.94 11.41
11/2/2022 11:30:00 AM 8.54 47.372 0.052 7.16 0.98 11.4
11/2/2022 11:45:00 AM 8.64 47.552 0.052 7.18 1.02 11.4
11/2/2022 12:00:00 PM 8.74 47.732 0.051 7.15 0.97 11.4
11/2/2022 12:15:00 PM 8.78 47.804 0.051 7.18 0.93 11.39
11/2/2022 12:30:00 PM 8.84 47.912 0.051 7.18 4.1 11.36
11/2/2022 12:45:00 PM 8.94 48.092 0.051 7.18 1.11 11.35
11/2/2022 1:00:00 PM 9.06 48.308 0.051 7.18 0.97 11.34
11/2/2022 1:15:00 PM 9.25 48.65 0.051 7.22 1.08 11.3
11/2/2022 1:30:00 PM 9.43 48.974 0.051 7.22 0.94 11.27
11/2/2022 1:45:00 PM 9.6 49.28 0.051 7.19 1.06 11.25
11/2/2022 2:00:00 PM 9.75 49.55 0.051 7.24 0.96 11.19
11/2/2022 2:15:00 PM 9.92 49.856 0.051 7.24 1.04 11.13
11/2/2022 2:30:00 PM 10.13 50.234 0.051 7.21 0.98 11.06
11/2/2022 2:45:00 PM 10.34 50.612 0.051 7.27 0.9 11.01
11/2/2022 3:00:00 PM 10.54 50.972 0.051 7.23 0.99 10.95
11/2/2022 3:15:00 PM 10.74 51.332 0.051 7.24 0.92 10.89
11/2/2022 3:30:00 PM 10.93 51.674 0.051 7.27 1.23 10.85
11/2/2022 3:45:00 PM 11.08 51.944 0.051 7.28 0.97 10.81
11/2/2022 4:00:00 PM 11.13 52.034 0.051 7.24 0.93 10.75
11/2/2022 4:15:00 PM 11.16 52.088 0.051 7.27 0.88 10.72
11/2/2022 4:30:00 PM 11.19 52.142 0.051 7.22 0.92 10.66
11/2/2022 4:45:00 PM 11.21 52.178 0.051 7.22 1.16 10.62
11/2/2022 5:00:00 PM 11.17 52.106 0.051 7.26 0.98 10.56
11/2/2022 5:15:00 PM 11.12 52.016 0.051 7.25 0.88 10.5
11/2/2022 5:30:00 PM 11.06 51.908 0.051 7.21 0.87 10.45
11/2/2022 5:45:00 PM 10.98 51.764 0.051 7.2 0.98 10.4
11/2/2022 6:00:00 PM 10.89 51.602 0.051 7.21 0.87 10.36
11/2/2022 6:15:00 PM 10.79 51.422 0.051 7.18 0.97 10.31
11/2/2022 6:30:00 PM 10.67 51.206 0.051 7.17 0.96 10.28
11/2/2022 6:45:00 PM 10.56 51.008 0.052 7.16 0.98 10.28
11/2/2022 7:00:00 PM 10.42 50.756 0.052 7.15 0.96 10.28
11/2/2022 7:15:00 PM 10.29 50.522 0.052 7.12 1.01 10.29
11/2/2022 7:30:00 PM 10.15 50.27 0.052 7.1 1.01 10.3
11/2/2022 7:45:00 PM 10.03 50.054 0.053 7.06 0.99 10.31
11/2/2022 8:00:00 PM 9.93 49.874 0.052 7.09 1 10.33
11/2/2022 8:15:00 PM 9.83 49.694 0.052 7.1 0.97 10.36
11/2/2022 8:30:00 PM 9.74 49.532 0.052 7.07 1 10.38
11/2/2022 8:45:00 PM 9.66 49.388 0.052 7.09 1.05 10.4
11/2/2022 9:00:00 PM 9.57 49.226 0.052 7.1 1.03 10.42
11/2/2022 9:15:00 PM 9.49 49.082 0.052 7.06 1.07 10.44
11/2/2022 9:30:00 PM 9.41 48.938 0.052 7.05 1.04 10.46
11/2/2022 9:45:00 PM 9.33 48.794 0.052 7.04 1.04 10.48
11/2/2022 10:00:00 PM 9.25 48.65 0.052 7.07 1.12 10.5
11/2/2022 10:15:00 PM 9.16 48.488 0.052 7.05 1.06 10.52
11/2/2022 10:30:00 PM 9.09 48.362 0.052 7.08 1.07 10.55
11/2/2022 10:45:00 PM 9 48.2 0.052 7.05 1.09 10.58
11/2/2022 11:00:00 PM 8.91 48.038 0.052 7.08 1.05 10.61
11/2/2022 11:15:00 PM 8.83 47.894 0.052 7.08 1.12 10.63
11/2/2022 11:30:00 PM 8.74 47.732 0.052 7.04 1.11 10.66
11/2/2022 11:45:00 PM 8.67 47.606 0.052 7.08 1.07 10.69
11/3/2022 12:00:00 AM 8.57 47.426 0.053 7.05 1.05 10.72
11/3/2022 12:15:00 AM 8.48 47.264 0.053 7.06 1.07 10.74
11/3/2022 12:30:00 AM 8.4 47.12 0.053 7.05 1.07 10.76
11/3/2022 12:45:00 AM 8.31 46.958 0.053 7.05 1.18 10.8
11/3/2022 1:00:00 AM 8.23 46.814 0.053 7.04 1.06 10.82
11/3/2022 1:15:00 AM 8.13 46.634 0.053 7 1.19 10.83
11/3/2022 1:30:00 AM 8.06 46.508 0.053 7.01 1.26 10.87
11/3/2022 1:45:00 AM 7.97 46.346 0.053 7 1.4 10.89
11/3/2022 2:00:00 AM 7.9 46.22 0.053 6.99 1.39 10.93
11/3/2022 2:15:00 AM 7.82 46.076 0.053 6.97 1.21 10.96
11/3/2022 2:30:00 AM 7.74 45.932 0.053 6.97 1.19 10.97
11/3/2022 2:45:00 AM 7.66 45.788 0.053 6.98 1.23 11.02
11/3/2022 3:00:00 AM 7.59 45.662 0.053 6.96 1.19 11.03
11/3/2022 3:15:00 AM 7.52 45.536 0.053 6.96 1.26 11.05
11/3/2022 3:30:00 AM 7.45 45.41 0.053 6.98 1.25 11.06
11/3/2022 3:45:00 AM 7.38 45.284 0.053 6.95 1.16 11.09
11/3/2022 4:00:00 AM 7.31 45.158 0.053 6.96 1.17 11.11
11/3/2022 4:15:00 AM 7.25 45.05 0.053 6.97 1.17 11.13
11/3/2022 4:30:00 AM 7.19 44.942 0.053 6.94 1.22 11.14
11/3/2022 4:45:00 AM 7.13 44.834 0.053 6.97 1.2 11.17
11/3/2022 5:00:00 AM 7.06 44.708 0.053 6.96 1.39 11.18
11/3/2022 5:15:00 AM 7 44.6 0.053 6.95 1.36 11.2
11/3/2022 5:30:00 AM 6.94 44.492 0.053 6.97 1.24 11.25
11/3/2022 5:45:00 AM 6.88 44.384 0.053 6.97 1.2 11.27
11/3/2022 6:00:00 AM 6.82 44.276 0.053 6.97 1.09 11.28
11/3/2022 6:15:00 AM 6.76 44.168 0.053 6.95 1.19 11.29
11/3/2022 6:30:00 AM 6.69 44.042 0.053 6.98 1.24 11.32
11/3/2022 6:45:00 AM 6.64 43.952 0.053 6.97 1.17 11.34
11/3/2022 7:00:00 AM 6.58 43.844 0.053 6.95 1.1 11.37
11/3/2022 7:15:00 AM 6.53 43.754 0.053 6.98 1.59 11.4
11/3/2022 7:30:00 AM 6.47 43.646 0.053 6.98 1.17 11.41
11/3/2022 7:45:00 AM 6.41 43.538 0.053 6.98 1.1 11.42
11/3/2022 8:00:00 AM 6.35 43.43 0.053 6.98 1.08 11.45
11/3/2022 8:15:00 AM 6.31 43.358 0.053 6.95 1.12 11.47
11/3/2022 8:30:00 AM 6.28 43.304 0.053 6.98 1.17 11.56
11/3/2022 8:45:00 AM 6.25 43.25 0.053 6.98 1.21 11.62
11/3/2022 9:00:00 AM 6.2 43.16 0.053 7.01 1.31 11.65
11/3/2022 9:15:00 AM 6.17 43.106 0.053 7.01 1.23 11.73
11/3/2022 9:30:00 AM 6.15 43.07 0.053 7.03 1.15 11.76
11/3/2022 9:45:00 AM 6.12 43.016 0.053 7.03 1.18 11.81
11/3/2022 10:00:00 AM 6.1 42.98 0.052 7.05 1.17 11.84
11/3/2022 10:15:00 AM 6.09 42.962 0.052 7.04 1.12 11.87
11/3/2022 10:30:00 AM 6.16 43.088 0.052 7.05 1.02 11.91
11/3/2022 10:45:00 AM 6.25 43.25 0.052 7.09 1.06 11.96
11/3/2022 11:00:00 AM 6.32 43.376 0.052 7.1 1.01 11.97
11/3/2022 11:15:00 AM 6.38 43.484 0.052 7.11 0.98 11.98
11/3/2022 11:30:00 AM 6.47 43.646 0.052 7.13 1.02 12
11/3/2022 11:45:00 AM 6.58 43.844 0.052 7.15 0.98 12.01
11/3/2022 12:00:00 PM 6.72 44.096 0.052 7.16 1 11.98
11/3/2022 12:15:00 PM 6.79 44.222 0.052 7.16 1.13 11.95
11/3/2022 12:30:00 PM 6.92 44.456 0.052 7.19 1.08 11.95
11/3/2022 12:45:00 PM 7.09 44.762 0.052 7.19 0.93 11.93
11/3/2022 1:00:00 PM 7.31 45.158 0.052 7.2 0.92 11.88
11/3/2022 1:15:00 PM 7.56 45.608 0.052 7.22 0.91 11.83
11/3/2022 1:30:00 PM 7.82 46.076 0.051 7.21 0.92 11.77
11/3/2022 1:45:00 PM 8.05 46.49 0.051 7.25 0.91 11.71
11/3/2022 2:00:00 PM 8.26 46.868 0.051 7.23 0.9 11.65
11/3/2022 2:15:00 PM 8.46 47.228 0.051 7.25 0.94 11.59
11/3/2022 2:30:00 PM 8.69 47.642 0.051 7.26 0.91 11.52
11/3/2022 2:45:00 PM 8.93 48.074 0.051 7.28 1.03 11.45
11/3/2022 3:00:00 PM 9.15 48.47 0.051 7.29 1.77 11.38
11/3/2022 3:15:00 PM 9.36 48.848 0.051 7.27 1 11.32
11/3/2022 3:30:00 PM 9.58 49.244 0.051 7.28 0.82 11.26
11/3/2022 3:45:00 PM 9.74 49.532 0.051 7.3 0.85 11.22
11/3/2022 4:00:00 PM 9.81 49.658 0.051 7.3 0.84 11.16
11/3/2022 4:15:00 PM 9.85 49.73 0.051 7.29 0.85 11.11
11/3/2022 4:30:00 PM 9.91 49.838 0.051 7.29 0.85 11.04
11/3/2022 4:45:00 PM 9.96 49.928 0.051 7.31 0.85 11
11/3/2022 5:00:00 PM 9.97 49.946 0.051 7.29 0.83 10.94
11/3/2022 5:15:00 PM 9.96 49.928 0.051 7.24 0.93 10.88
11/3/2022 5:30:00 PM 9.93 49.874 0.051 7.27 0.85 10.83
11/3/2022 5:45:00 PM 9.89 49.802 0.051 7.25 0.91 10.77
11/3/2022 6:00:00 PM 9.84 49.712 0.051 7.21 0.92 10.72
11/3/2022 6:15:00 PM 9.78 49.604 0.051 7.22 1.02 10.66
11/3/2022 6:30:00 PM 9.69 49.442 0.051 7.21 0.88 10.62
11/3/2022 6:45:00 PM 9.61 49.298 0.052 7.17 0.92 10.58
11/3/2022 7:00:00 PM 9.5 49.1 0.052 7.16 0.98 10.58
11/3/2022 7:15:00 PM 9.39 48.902 0.052 7.17 0.93 10.58
11/3/2022 7:30:00 PM 9.28 48.704 0.052 7.13 0.94 10.6
11/3/2022 7:45:00 PM 9.18 48.524 0.052 7.16 0.99 10.61
11/3/2022 8:00:00 PM 9.08 48.344 0.052 7.14 0.94 10.61
11/3/2022 8:15:00 PM 8.99 48.182 0.052 7.14 1.17 10.63
11/3/2022 8:30:00 PM 8.92 48.056 0.052 7.1 1.08 10.65
11/3/2022 8:45:00 PM 8.85 47.93 0.052 7.13 0.98 10.66
11/3/2022 9:00:00 PM 8.78 47.804 0.052 7.08 1.04 10.67
11/3/2022 9:15:00 PM 8.72 47.696 0.052 7.11 1.03 10.69
11/3/2022 9:30:00 PM 8.65 47.57 0.052 7.09 0.98 10.7
11/3/2022 9:45:00 PM 8.59 47.462 0.052 7.1 0.99 10.72
11/3/2022 10:00:00 PM 8.51 47.318 0.052 7.1 1.05 10.73
11/3/2022 10:15:00 PM 8.45 47.21 0.052 7.08 1.07 10.75
11/3/2022 10:30:00 PM 8.39 47.102 0.052 7.08 1.09 10.79
11/3/2022 10:45:00 PM 8.32 46.976 0.052 7.08 1.19 10.8
11/3/2022 11:00:00 PM 8.25 46.85 0.052 7.09 1.12 10.82
11/3/2022 11:15:00 PM 8.18 46.724 0.052 7.07 1.07 10.85
11/3/2022 11:30:00 PM 8.11 46.598 0.052 7.09 1.09 10.87
11/3/2022 11:45:00 PM 8.03 46.454 0.052 7.09 1.05 10.91
11/4/2022 12:00:00 AM 7.96 46.328 0.053 7.07 1.06 10.91
11/4/2022 12:15:00 AM 7.89 46.202 0.053 7.06 1.05 10.95
11/4/2022 12:30:00 AM 7.81 46.058 0.053 7.06 1.05 10.96
11/4/2022 12:45:00 AM 7.74 45.932 0.053 7.06 1.08 10.97
11/4/2022 1:00:00 AM 7.67 45.806 0.053 7.08 1.09 11.01
11/4/2022 1:15:00 AM 7.6 45.68 0.053 7.06 1.16 11.03
11/4/2022 1:30:00 AM 7.53 45.554 0.053 7.01 1.16 11.06
11/4/2022 1:45:00 AM 7.46 45.428 0.053 7.08 1.13 11.07
11/4/2022 2:00:00 AM 7.4 45.32 0.053 7.06 1.21 11.1
11/4/2022 2:15:00 AM 7.33 45.194 0.053 7.07 1.06 11.11
11/4/2022 2:30:00 AM 7.27 45.086 0.053 7.06 1.09 11.14
11/4/2022 2:45:00 AM 7.22 44.996 0.053 7.06 1.1 11.15
11/4/2022 3:00:00 AM 7.16 44.888 0.053 7.06 1.07 11.17
11/4/2022 3:15:00 AM 7.11 44.798 0.053 7.06 1.14 11.2
11/4/2022 3:30:00 AM 7.06 44.708 0.053 7.04 1.1 11.21
11/4/2022 3:45:00 AM 7.01 44.618 0.053 7.05 1.28 11.23
11/4/2022 4:00:00 AM 6.96 44.528 0.053 7.03 1.1 11.24
11/4/2022 4:15:00 AM 6.91 44.438 0.053 7.05 1.15 11.25
11/4/2022 4:30:00 AM 6.86 44.348 0.053 7.03 1.16 11.28
11/4/2022 4:45:00 AM 6.82 44.276 0.053 7.04 1.1 11.29
11/4/2022 5:00:00 AM 6.77 44.186 0.053 7.03 1.14 11.3
11/4/2022 5:15:00 AM 6.72 44.096 0.053 7.02 1.16 11.32
11/4/2022 5:30:00 AM 6.68 44.024 0.053 7 1.2 11.34
11/4/2022 5:45:00 AM 6.64 43.952 0.053 7 1.18 11.34
11/4/2022 6:00:00 AM 6.59 43.862 0.053 7 1.11 11.38
11/4/2022 6:15:00 AM 6.55 43.79 0.053 7.01 1.11 11.39
11/4/2022 6:30:00 AM 6.52 43.736 0.053 7 1.12 11.4
11/4/2022 6:45:00 AM 6.48 43.664 0.053 7.01 1.05 11.41
11/4/2022 7:00:00 AM 6.44 43.592 0.053 7 1.21 11.42
11/4/2022 7:15:00 AM 6.4 43.52 0.053 7.01 1.08 11.45
11/4/2022 7:30:00 AM 6.37 43.466 0.053 7.01 1.1 11.46
11/4/2022 7:45:00 AM 6.34 43.412 0.053 7.02 1.03 11.47
11/4/2022 8:00:00 AM 6.31 43.358 0.053 7 1.18 11.5
11/4/2022 8:15:00 AM 6.28 43.304 0.053 7.02 1.15 11.53
11/4/2022 8:30:00 AM 6.26 43.268 0.053 7.02 1.19 11.57
11/4/2022 8:45:00 AM 6.24 43.232 0.053 7.04 1.25 11.63
11/4/2022 9:00:00 AM 6.23 43.214 0.053 7.02 1.17 11.68
11/4/2022 9:15:00 AM 6.21 43.178 0.053 7.05 1.16 11.73
11/4/2022 9:30:00 AM 6.2 43.16 0.053 7.06 1.16 11.74
11/4/2022 9:45:00 AM 6.2 43.16 0.053 7.07 1.16 11.78
11/4/2022 10:00:00 AM 6.19 43.142 0.053 7.08 1.1 11.81
11/4/2022 10:15:00 AM 6.2 43.16 0.053 7.09 1.14 11.84
11/4/2022 10:30:00 AM 6.28 43.304 0.052 7.08 1.03 11.88
11/4/2022 10:45:00 AM 6.4 43.52 0.052 7.13 1.01 11.91
11/4/2022 11:00:00 AM 6.47 43.646 0.052 7.13 1 11.92
11/4/2022 11:15:00 AM 6.53 43.754 0.052 7.15 1.02 11.91
11/4/2022 11:30:00 AM 6.65 43.97 0.052 7.15 0.97 11.95
11/4/2022 11:45:00 AM 6.78 44.204 0.052 7.17 0.94 11.94
11/4/2022 12:00:00 PM 6.88 44.384 0.052 7.17 0.99 11.91
11/4/2022 12:15:00 PM 6.94 44.492 0.052 7.17 0.98 11.94
11/4/2022 12:30:00 PM 7.05 44.69 0.052 7.2 1.02 11.91
11/4/2022 12:45:00 PM 7.19 44.942 0.052 7.2 0.93 11.9
11/4/2022 1:00:00 PM 7.37 45.266 0.052 7.22 0.94 11.85
11/4/2022 1:15:00 PM 7.63 45.734 0.052 7.24 0.89 11.82
11/4/2022 1:30:00 PM 7.92 46.256 0.052 7.23 1.26 11.75
11/4/2022 1:45:00 PM 8.17 46.706 0.051 7.25 2.04 11.7
11/4/2022 2:00:00 PM 8.35 47.03 0.051 7.25 1.35 11.63
11/4/2022 2:15:00 PM 8.56 47.408 0.051 7.27 0.92 11.59
11/4/2022 2:30:00 PM 8.79 47.822 0.051 7.28 0.95 11.53
11/4/2022 2:45:00 PM 9.02 48.236 0.051 7.28 0.98 11.46
11/4/2022 3:00:00 PM 9.28 48.704 0.051 7.28 0.88 11.41
11/4/2022 3:15:00 PM 9.47 49.046 0.051 7.3 0.92 11.34
11/4/2022 3:30:00 PM 9.65 49.37 0.051 7.3 1.01 11.29
11/4/2022 3:45:00 PM 9.79 49.622 0.051 7.33 1.31 11.24
11/4/2022 4:00:00 PM 9.95 49.91 0.051 7.27 1.03 11.19
11/4/2022 4:15:00 PM 10.07 50.126 0.051 7.35 0.97 11.16
11/4/2022 4:30:00 PM 10.14 50.252 0.051 7.33 0.89 11.11
11/4/2022 4:45:00 PM 10.18 50.324 0.051 7.33 0.85 11.02
11/4/2022 5:00:00 PM 10.23 50.414 0.051 7.29 0.89 10.99
11/4/2022 5:15:00 PM 10.25 50.45 0.051 7.28 0.91 10.91
11/4/2022 5:30:00 PM 10.25 50.45 0.051 7.27 0.9 10.84
11/4/2022 5:45:00 PM 10.23 50.414 0.051 7.29 0.96 10.77
11/4/2022 6:00:00 PM 10.18 50.324 0.051 7.24 1.19 10.64
11/4/2022 6:15:00 PM 10.11 50.198 0.051 7.22 1.21 10.6
11/4/2022 6:30:00 PM 10.05 50.09 0.052 7.21 0.87 10.54
11/4/2022 6:45:00 PM 9.99 49.982 0.052 7.2 0.96 10.51
11/4/2022 7:00:00 PM 9.92 49.856 0.052 7.2 0.97 10.49
11/4/2022 7:15:00 PM 9.85 49.73 0.052 7.17 0.95 10.47
11/4/2022 7:30:00 PM 9.78 49.604 0.052 7.18 0.89 10.48
11/4/2022 7:45:00 PM 9.72 49.496 0.052 7.16 0.92 10.45
11/4/2022 8:00:00 PM 9.66 49.388 0.052 7.16 0.88 10.47
11/4/2022 8:15:00 PM 9.6 49.28 0.052 7.13 0.9 10.47
11/4/2022 8:30:00 PM 9.56 49.208 0.052 7.14 1.04 10.48
11/4/2022 8:45:00 PM 9.52 49.136 0.052 7.12 1.02 10.47
11/4/2022 9:00:00 PM 9.48 49.064 0.052 7.13 0.95 10.46
11/4/2022 9:15:00 PM 9.45 49.01 0.052 7.11 0.97 10.48
11/4/2022 9:30:00 PM 9.42 48.956 0.052 7.09 1.01 10.49
11/4/2022 9:45:00 PM 9.39 48.902 0.052 7.11 0.95 10.5
11/4/2022 10:00:00 PM 9.35 48.83 0.052 7.11 1.08 10.5
11/4/2022 10:15:00 PM 9.32 48.776 0.052 7.11 0.99 10.52
11/4/2022 10:30:00 PM 9.29 48.722 0.052 7.1 1.05 10.52
11/4/2022 10:45:00 PM 9.26 48.668 0.052 7.08 0.98 10.51
11/4/2022 11:00:00 PM 9.23 48.614 0.052 7.12 0.98 10.54
11/4/2022 11:15:00 PM 9.19 48.542 0.052 7.11 1.13 10.54
11/4/2022 11:30:00 PM 9.16 48.488 0.053 7.11 1.18 10.54
11/4/2022 11:45:00 PM 9.13 48.434 0.053 7.11 0.95 10.56
11/5/2022 12:00:00 AM 9.11 48.398 0.053 7.11 1.33 10.58
11/5/2022 12:15:00 AM 9.08 48.344 0.053 7.06 0.98 10.58
11/5/2022 12:30:00 AM 9.05 48.29 0.053 7.11 1.01 10.59
11/5/2022 12:45:00 AM 9.04 48.272 0.053 7.05 1 10.6
11/5/2022 1:00:00 AM 9.05 48.29 0.053 7.1 1.02 10.6
11/5/2022 1:15:00 AM 9.06 48.308 0.053 7.1 0.97 10.59
11/5/2022 1:30:00 AM 9.03 48.254 0.053 7.11 1.11 10.6
11/5/2022 1:45:00 AM 9.02 48.236 0.053 7.09 1.08 10.62
11/5/2022 2:00:00 AM 9.01 48.218 0.053 7.05 1.08 10.62
11/5/2022 2:15:00 AM 8.98 48.164 0.053 7.1 1.04 10.59
11/5/2022 2:30:00 AM 8.94 48.092 0.053 7.07 1.07 10.63
11/5/2022 2:45:00 AM 8.9 48.02 0.053 7.11 1.01 10.63
11/5/2022 3:00:00 AM 8.86 47.948 0.053 7.07 1.08 10.64
11/5/2022 3:15:00 AM 8.83 47.894 0.053 7.11 0.98 10.66
11/5/2022 3:30:00 AM 8.79 47.822 0.053 7.08 1.01 10.67
11/5/2022 3:45:00 AM 8.76 47.768 0.053 7.05 1.12 10.67
11/5/2022 4:00:00 AM 8.74 47.732 0.053 7.06 1.11 10.69
11/5/2022 4:15:00 AM 8.71 47.678 0.053 7.07 1.15 10.65
11/5/2022 4:30:00 AM 8.69 47.642 0.053 7.06 1.25 10.69
11/5/2022 4:45:00 AM 8.67 47.606 0.053 7.09 1.17 10.68
11/5/2022 5:00:00 AM 8.66 47.588 0.053 7.09 1.11 10.7
11/5/2022 5:15:00 AM 8.66 47.588 0.053 7.06 1.1 10.71
11/5/2022 5:30:00 AM 8.65 47.57 0.053 7.09 1.13 10.71
11/5/2022 5:45:00 AM 8.63 47.534 0.053 7.07 1.08 10.71
11/5/2022 6:00:00 AM 8.61 47.498 0.053 7.08 1.15 10.72
11/5/2022 6:15:00 AM 8.58 47.444 0.053 7.06 1.26 10.72
11/5/2022 6:30:00 AM 8.56 47.408 0.053 7.07 1.28 10.73
11/5/2022 6:45:00 AM 8.54 47.372 0.053 7.08 1.3 10.74
11/5/2022 7:00:00 AM 8.52 47.336 0.053 7.06 1.27 10.74
11/5/2022 7:15:00 AM 8.51 47.318 0.053 7.09 1.24 10.74
11/5/2022 7:30:00 AM 8.5 47.3 0.053 7.07 1.13 10.74
11/5/2022 7:45:00 AM 8.5 47.3 0.053 7.06 1.23 10.75
11/5/2022 8:00:00 AM 8.52 47.336 0.053 7.08 1.09 10.76
11/5/2022 8:15:00 AM 8.54 47.372 0.053 7.08 1.06 10.78
11/5/2022 8:30:00 AM 8.56 47.408 0.053 7.09 1.41 10.82
11/5/2022 8:45:00 AM 8.6 47.48 0.053 7.07 1.17 10.87
11/5/2022 9:00:00 AM 8.64 47.552 0.053 7.1 1.16 10.9
11/5/2022 9:15:00 AM 8.72 47.696 0.053 7.1 1.21 10.93
11/5/2022 9:30:00 AM 8.86 47.948 0.053 7.13 1.26 10.95
11/5/2022 9:45:00 AM 8.99 48.182 0.053 7.14 1.19 11.04
11/5/2022 10:00:00 AM 9.15 48.47 0.053 7.14 1.74 11.07
11/5/2022 10:15:00 AM 9.28 48.704 0.052 7.17 0.96 11.11
11/5/2022 10:30:00 AM 9.45 49.01 0.052 7.18 0.98 11.16
11/5/2022 10:45:00 AM 9.63 49.334 0.052 7.21 0.94 11.16
11/5/2022 11:00:00 AM 9.8 49.64 0.052 7.23 0.93 11.17
11/5/2022 11:15:00 AM 9.96 49.928 0.052 7.25 3.56 11.19
11/5/2022 11:30:00 AM 10.14 50.252 0.052 7.25 0.96 11.19
11/5/2022 11:45:00 AM 10.3 50.54 0.052 7.25 0.91 11.18
11/5/2022 12:00:00 PM 10.43 50.774 0.052 7.28 1.09 11.15
11/5/2022 12:15:00 PM 10.56 51.008 0.052 7.28 0.87 11.12
11/5/2022 12:30:00 PM 10.69 51.242 0.052 7.29 0.87 11.1
11/5/2022 12:45:00 PM 10.8 51.44 0.052 7.31 0.88 11.06
11/5/2022 1:00:00 PM 10.91 51.638 0.052 7.3 1.07 11.03
11/5/2022 1:15:00 PM 11.05 51.89 0.052 7.34 0.95 10.99
11/5/2022 1:30:00 PM 11.19 52.142 0.051 7.31 0.97 10.98
11/5/2022 1:45:00 PM 11.32 52.376 0.051 7.36 1 10.91
11/5/2022 2:00:00 PM 11.5 52.7 0.051 7.31 0.98 10.88
11/5/2022 2:15:00 PM 11.67 53.006 0.051 7.38 0.99 10.86
11/5/2022 2:30:00 PM 11.86 53.348 0.051 7.37 1.23 10.83
11/5/2022 2:45:00 PM 11.98 53.564 0.051 7.37 0.85 10.77
11/5/2022 3:00:00 PM 12.12 53.816 0.051 7.41 0.79 10.71
11/5/2022 3:15:00 PM 12.33 54.194 0.051 7.39 0.82 10.7
11/5/2022 3:30:00 PM 12.48 54.464 0.051 7.39 0.86 10.65
11/5/2022 3:45:00 PM 12.55 54.59 0.051 7.39 0.83 10.58
11/5/2022 4:00:00 PM 12.63 54.734 0.051 7.37 0.78 10.51
11/5/2022 4:15:00 PM 12.67 54.806 0.051 7.38 0.9 10.44
11/5/2022 4:30:00 PM 12.68 54.824 0.051 7.31 0.94 10.31
11/5/2022 4:45:00 PM 12.73 54.914 0.051 7.34 0.92 10.27
11/5/2022 5:00:00 PM 12.76 54.968 0.051 7.34 0.79 10.28
11/5/2022 5:15:00 PM 12.73 54.914 0.051 7.28 0.78 10.18
11/5/2022 5:30:00 PM 12.71 54.878 0.051 7.31 0.79 10.07
11/5/2022 5:45:00 PM 12.7 54.86 0.051 7.28 0.87 10.02
11/5/2022 6:00:00 PM 12.68 54.824 0.051 7.25 0.88 9.95
11/5/2022 6:15:00 PM 12.66 54.788 0.051 7.21 0.83 9.87
11/5/2022 6:30:00 PM 12.64 54.752 0.052 7.18 0.82 9.8
11/5/2022 6:45:00 PM 12.63 54.734 0.052 7.2 0.9 9.74
11/5/2022 7:00:00 PM 12.61 54.698 0.052 7.21 0.97 9.7
11/5/2022 7:15:00 PM 12.62 54.716 0.052 7.18 0.91 9.67
11/5/2022 7:30:00 PM 12.61 54.698 0.052 7.17 1.11 9.62
11/5/2022 7:45:00 PM 12.61 54.698 0.052 7.1 0.96 9.61
11/5/2022 8:00:00 PM 12.61 54.698 0.052 7.15 0.91 9.58
11/5/2022 8:15:00 PM 12.6 54.68 0.052 7.15 0.93 9.6
11/5/2022 8:30:00 PM 12.58 54.644 0.052 7.14 0.94 9.58
11/5/2022 8:45:00 PM 12.56 54.608 0.052 7.1 0.91 9.59
11/5/2022 9:00:00 PM 12.58 54.644 0.052 7.13 0.92 9.57
11/5/2022 9:15:00 PM 12.56 54.608 0.052 7.11 0.94 9.56
11/5/2022 9:30:00 PM 12.54 54.572 0.052 7.12 1.05 9.56
11/5/2022 9:45:00 PM 12.51 54.518 0.052 7.1 1.03 9.55
11/5/2022 10:00:00 PM 12.5 54.5 0.053 7.07 1.11 9.56
11/5/2022 10:15:00 PM 12.5 54.5 0.053 7.07 1.01 9.56
11/5/2022 10:30:00 PM 12.53 54.554 0.053 7.07 1.08 9.59
11/5/2022 10:45:00 PM 12.54 54.572 0.053 7.06 1.02 9.55
11/5/2022 11:00:00 PM 12.54 54.572 0.053 7.1 1.03 9.56
11/5/2022 11:15:00 PM 12.55 54.59 0.053 7.11 0.96 9.54
11/5/2022 11:30:00 PM 12.56 54.608 0.053 7.11 1.03 9.57
11/5/2022 11:45:00 PM 12.56 54.608 0.053 7.12 1.02 9.53
11/6/2022 12:00:00 AM 12.57 54.626 0.053 7.09 1.02 9.51
11/6/2022 12:15:00 AM 12.57 54.626 0.053 7.1 1.1 9.52
11/6/2022 12:30:00 AM 12.58 54.644 0.053 7.07 1.19 9.54
11/6/2022 12:45:00 AM 12.59 54.662 0.053 7.07 1.12 9.51
11/6/2022 1:00:00 AM 12.59 54.662 0.053 7.11 1.06 9.55
11/6/2022 1:15:00 AM 12.6 54.68 0.053 7.11 1.16 9.54
11/6/2022 1:30:00 AM 12.6 54.68 0.053 7.08 1.09 9.55
11/6/2022 1:45:00 AM 12.61 54.698 0.053 7.08 1.15 9.53
11/6/2022 2:00:00 AM 12.63 54.734 0.053 7.08 1.11 9.51
11/6/2022 2:15:00 AM 12.63 54.734 0.053 7.1 1.18 9.52
11/6/2022 2:30:00 AM 12.67 54.806 0.053 7.11 1.18 9.53
11/6/2022 2:45:00 AM 12.77 54.986 0.053 7.1 1.09 9.48
11/6/2022 3:00:00 AM 12.83 55.094 0.053 7.11 1.03 9.51
11/6/2022 3:15:00 AM 12.86 55.148 0.053 7.1 1.09 9.47
11/6/2022 3:30:00 AM 12.85 55.13 0.054 7.1 1.01 9.48
11/6/2022 3:45:00 AM 12.86 55.148 0.054 7.06 1.13 9.47
11/6/2022 4:00:00 AM 12.87 55.166 0.054 7.07 1.09 9.48
11/6/2022 4:15:00 AM 12.89 55.202 0.054 7.11 1.24 9.43
11/6/2022 4:30:00 AM 12.9 55.22 0.054 7.1 1.18 9.49
11/6/2022 4:45:00 AM 12.9 55.22 0.054 7.1 1.17 9.47
11/6/2022 5:00:00 AM 12.89 55.202 0.054 7.09 1.25 9.45
11/6/2022 5:15:00 AM 12.89 55.202 0.054 7.11 1.2 9.45
11/6/2022 5:30:00 AM 12.89 55.202 0.054 7.09 1.22 9.44
11/6/2022 5:45:00 AM 12.89 55.202 0.054 7.05 1.18 9.47
11/6/2022 6:00:00 AM 12.87 55.166 0.054 7.06 1.21 9.45
11/6/2022 6:15:00 AM 12.84 55.112 0.054 7.05 1.29 9.46
11/6/2022 6:30:00 AM 12.82 55.076 0.054 7.07 1.18 9.46
11/6/2022 6:45:00 AM 12.79 55.022 0.054 7.06 1.13 9.44
11/6/2022 7:00:00 AM 12.78 55.004 0.054 7.07 1.11 9.49
11/6/2022 7:15:00 AM 12.76 54.968 0.054 7.07 1.18 9.53
11/6/2022 7:30:00 AM 12.74 54.932 0.054 7.09 1.23 9.58
11/6/2022 7:45:00 AM 12.75 54.95 0.054 7.09 1.07 9.68
11/6/2022 8:00:00 AM 12.78 55.004 0.053 7.09 1.12 9.73
11/6/2022 8:15:00 AM 12.82 55.076 0.053 7.16 1.02 9.87
11/6/2022 8:30:00 AM 12.84 55.112 0.053 7.14 1.01 9.91
11/6/2022 8:45:00 AM 12.88 55.184 0.053 7.17 0.94 9.98
11/6/2022 9:00:00 AM 12.91 55.238 0.053 7.19 1.01 10.02
11/6/2022 9:15:00 AM 12.92 55.256 0.053 7.21 1.22 10.07
11/6/2022 9:30:00 AM 12.9 55.22 0.053 7.21 0.85 10.01
11/6/2022 9:45:00 AM 13.04 55.472 0.053 7.23 1.99 10.07
11/6/2022 10:00:00 AM 13.16 55.688 0.053 7.24 0.98 10.14
11/6/2022 10:15:00 AM 13.26 55.868 0.053 7.24 0.85 10.17
11/6/2022 10:30:00 AM 13.36 56.048 0.053 7.25 0.89 10.18
11/6/2022 10:45:00 AM 13.49 56.282 0.053 7.27 0.88 10.22
11/6/2022 11:00:00 AM 13.61 56.498 0.053 7.3 0.85 10.26
11/6/2022 11:15:00 AM 13.61 56.498 0.053 7.3 0.82 10.22
11/6/2022 11:30:00 AM 13.66 56.588 0.052 7.25 0.89 10.22
11/6/2022 11:45:00 AM 13.72 56.696 0.052 7.3 0.85 10.2
11/6/2022 12:00:00 PM 13.82 56.876 0.052 7.32 0.94 10.19
11/6/2022 12:15:00 PM 13.95 57.11 0.052 7.32 0.81 10.21
11/6/2022 12:30:00 PM 14.02 57.236 0.052 7.34 0.82 10.17
11/6/2022 12:45:00 PM 14.03 57.254 0.052 7.34 0.83 10.06
11/6/2022 1:00:00 PM 14.19 57.542 0.052 7.3 0.83 10.02
11/6/2022 1:15:00 PM 14.33 57.794 0.052 7.29 0.81 10.03
11/6/2022 1:30:00 PM 14.43 57.974 0.052 7.32 0.86 10.03
11/6/2022 1:45:00 PM 14.5 58.1 0.052 7.36 0.88 9.98
11/6/2022 2:00:00 PM 14.64 58.352 0.052 7.37 0.77 9.99
11/6/2022 2:15:00 PM 14.72 58.496 0.052 7.36 0.86 9.95
11/6/2022 2:30:00 PM 14.71 58.478 0.052 7.34 0.79 9.85
11/6/2022 2:45:00 PM 14.73 58.514 0.052 7.32 0.8 9.76
11/6/2022 3:00:00 PM 14.74 58.532 0.052 7.27 0.81 9.71
11/6/2022 3:15:00 PM 14.73 58.514 0.052 7.29 0.95 9.62
11/6/2022 3:30:00 PM 14.71 58.478 0.052 7.24 0.95 9.57
11/6/2022 3:45:00 PM 14.72 58.496 0.052 7.29 0.91 9.63
11/6/2022 4:00:00 PM 14.65 58.37 0.052 7.21 0.83 9.6
11/6/2022 4:15:00 PM 14.59 58.262 0.052 7.26 0.88 9.56
11/6/2022 4:30:00 PM 14.56 58.208 0.052 7.23 0.93 9.51
11/6/2022 4:45:00 PM 14.5 58.1 0.052 7.23 0.86 9.47
11/6/2022 5:00:00 PM 14.43 57.974 0.052 7.18 0.92 9.39
11/6/2022 5:15:00 PM 14.39 57.902 0.052 7.19 0.89 9.3
11/6/2022 5:30:00 PM 14.34 57.812 0.052 7.16 0.97 9.28
11/6/2022 5:45:00 PM 14.3 57.74 0.052 7.09 0.94 9.24
11/6/2022 6:00:00 PM 14.24 57.632 0.053 7.14 0.89 9.2
11/6/2022 6:15:00 PM 14.19 57.542 0.053 7.1 0.94 9.19
11/6/2022 6:30:00 PM 14.15 57.47 0.053 7.1 0.97 9.18
11/6/2022 6:45:00 PM 14.1 57.38 0.053 7.05 0.96 9.18
11/6/2022 7:00:00 PM 14.06 57.308 0.053 7.1 0.98 9.16
11/6/2022 7:15:00 PM 14.02 57.236 0.053 7.06 1.02 9.16
11/6/2022 7:30:00 PM 13.99 57.182 0.053 7.09 0.97 9.19
11/6/2022 7:45:00 PM 13.95 57.11 0.053 7.06 0.99 9.19
11/6/2022 8:00:00 PM 13.88 56.984 0.053 7.06 0.97 9.19
11/6/2022 8:15:00 PM 13.82 56.876 0.053 7.07 1.06 9.21
11/6/2022 8:30:00 PM 13.76 56.768 0.053 7.03 1.06 9.21
11/6/2022 8:45:00 PM 13.7 56.66 0.053 7.06 1.1 9.21
11/6/2022 9:00:00 PM 13.65 56.57 0.053 7.06 1.14 9.24
11/6/2022 9:15:00 PM 13.59 56.462 0.053 7.06 1.07 9.24
11/6/2022 9:30:00 PM 13.56 56.408 0.054 7.02 1.05 9.23
11/6/2022 9:45:00 PM 13.53 56.354 0.054 7.06 1.01 9.27
11/6/2022 10:00:00 PM 13.49 56.282 0.054 7.05 1.07 9.3
11/6/2022 10:15:00 PM 13.46 56.228 0.054 7.04 1.02 9.3
11/6/2022 10:30:00 PM 13.42 56.156 0.054 7.04 1.04 9.32
11/6/2022 10:45:00 PM 13.37 56.066 0.054 7.02 1.07 9.29
11/6/2022 11:00:00 PM 13.33 55.994 0.054 7.05 1.05 9.35
11/6/2022 11:15:00 PM 13.29 55.922 0.054 7.02 1.09 9.34
11/6/2022 11:30:00 PM 13.23 55.814 0.054 7 1.11 9.34
11/6/2022 11:45:00 PM 13.18 55.724 0.054 7.04 1.09 9.36
11/7/2022 12:00:00 AM 13.12 55.616 0.054 6.96 1.11 9.36
11/7/2022 12:15:00 AM 13.07 55.526 0.054 7.02 1.1 9.33
11/7/2022 12:30:00 AM 13.04 55.472 0.054 7.03 1.06 9.39
11/7/2022 12:45:00 AM 13 55.4 0.054 7.01 1.04 9.36
11/7/2022 1:00:00 AM 12.97 55.346 0.054 7.02 1.02 9.4
11/7/2022 1:15:00 AM 12.92 55.256 0.054 7 1.11 9.41
11/7/2022 1:30:00 AM 12.88 55.184 0.054 6.98 1.02 9.44
11/7/2022 1:45:00 AM 12.83 55.094 0.054 7.02 1.05 9.46
11/7/2022 2:00:00 AM 12.77 54.986 0.054 6.99 1.04 9.44
11/7/2022 2:15:00 AM 12.72 54.896 0.054 7.01 1.08 9.47
11/7/2022 2:30:00 AM 12.68 54.824 0.054 7 1.04 9.46
11/7/2022 2:45:00 AM 12.64 54.752 0.054 7 1.01 9.46
11/7/2022 3:00:00 AM 12.61 54.698 0.054 7 1.12 9.52
11/7/2022 3:15:00 AM 12.54 54.572 0.054 6.98 1.09 9.52
11/7/2022 3:30:00 AM 12.48 54.464 0.054 7.04 1.21 9.54
11/7/2022 3:45:00 AM 12.41 54.338 0.054 7.03 1.19 9.57
11/7/2022 4:00:00 AM 12.34 54.212 0.054 6.99 1.2 9.56
11/7/2022 4:15:00 AM 12.26 54.068 0.054 7 1.11 9.57
11/7/2022 4:30:00 AM 12.2 53.96 0.054 7.03 1.07 9.6
11/7/2022 4:45:00 AM 12.12 53.816 0.054 7.01 1.4 9.63
11/7/2022 5:00:00 AM 12.04 53.672 0.054 7.05 1.21 9.65
11/7/2022 5:15:00 AM 11.95 53.51 0.054 7.04 1.11 9.67
11/7/2022 5:30:00 AM 11.87 53.366 0.054 7.03 1.35 9.7
11/7/2022 5:45:00 AM 11.78 53.204 0.054 7.03 1.14 9.72
11/7/2022 6:00:00 AM 11.69 53.042 0.054 7 1.15 9.74
11/7/2022 6:15:00 AM 11.61 52.898 0.054 6.95 1.16 9.76
11/7/2022 6:30:00 AM 11.52 52.736 0.054 6.98 1.13 9.78
11/7/2022 6:45:00 AM 11.43 52.574 0.054 6.98 1.34 9.76
11/7/2022 7:00:00 AM 11.35 52.43 0.054 6.96 1.13 9.84
11/7/2022 7:15:00 AM 11.28 52.304 0.054 6.98 1.04 9.88
11/7/2022 7:30:00 AM 11.21 52.178 0.054 6.94 1.2 9.94
11/7/2022 7:45:00 AM 11.15 52.07 0.054 7 1.08 10.01
11/7/2022 8:00:00 AM 11.09 51.962 0.054 6.94 1.11 10.07
11/7/2022 8:15:00 AM 11.03 51.854 0.054 7.01 1.08 10.13
11/7/2022 8:30:00 AM 10.98 51.764 0.054 7 1.24 10.18
11/7/2022 8:45:00 AM 10.93 51.674 0.054 7.03 1.1 10.23
11/7/2022 9:00:00 AM 10.91 51.638 0.054 7.03 1.12 10.27
11/7/2022 9:15:00 AM 10.88 51.584 0.054 6.98 1.06 10.3
11/7/2022 9:30:00 AM 10.88 51.584 0.054 7.03 0.99 10.36
11/7/2022 9:45:00 AM 10.97 51.746 0.054 7.07 1.1 10.42
11/7/2022 10:00:00 AM 11.03 51.854 0.054 7.12 1.01 10.49
11/7/2022 10:15:00 AM 11.06 51.908 0.054 7.1 1.05 10.53
11/7/2022 10:30:00 AM 11.06 51.908 0.053 7.17 1.04 10.56
11/7/2022 10:45:00 AM 11.11 51.998 0.053 7.18 0.97 10.61
11/7/2022 11:00:00 AM 11.12 52.016 0.053 7.19 0.95 10.64
11/7/2022 11:15:00 AM 11.12 52.016 0.053 7.16 0.99 10.63
11/7/2022 11:30:00 AM 11.1 51.98 0.053 7.21 0.96 10.67
11/7/2022 11:45:00 AM 11.16 52.088 0.053 7.19 1.65 10.68
11/7/2022 12:00:00 PM 11.21 52.178 0.053 7.23 1.02 10.68
11/7/2022 12:15:00 PM 11.3 52.34 0.053 7.26 0.89 10.69
11/7/2022 12:30:00 PM 11.51 52.718 0.053 7.24 0.94 10.68
11/7/2022 12:45:00 PM 11.65 52.97 0.053 7.28 0.95 10.66
11/7/2022 1:00:00 PM 11.76 53.168 0.052 7.26 0.88 10.63
11/7/2022 1:15:00 PM 11.84 53.312 0.052 7.3 0.92 10.61
11/7/2022 1:30:00 PM 11.98 53.564 0.052 7.25 0.91 10.57
11/7/2022 1:45:00 PM 12.13 53.834 0.052 7.31 0.9 10.55
11/7/2022 2:00:00 PM 12.28 54.104 0.052 7.27 0.85 10.51
11/7/2022 2:15:00 PM 12.39 54.302 0.052 7.29 0.88 10.47
11/7/2022 2:30:00 PM 12.52 54.536 0.052 7.34 0.85 10.44
11/7/2022 2:45:00 PM 12.59 54.662 0.052 7.27 0.88 10.42
11/7/2022 3:00:00 PM 12.6 54.68 0.052 7.33 0.91 10.38
11/7/2022 3:15:00 PM 12.59 54.662 0.052 7.28 0.91 10.32
11/7/2022 3:30:00 PM 12.59 54.662 0.052 7.29 0.91 10.27
11/7/2022 3:45:00 PM 12.6 54.68 0.052 7.29 0.9 10.24
11/7/2022 4:00:00 PM 12.55 54.59 0.052 7.28 0.96 10.19
11/7/2022 4:15:00 PM 12.45 54.41 0.052 7.3 0.93 10.14
11/7/2022 4:30:00 PM 12.35 54.23 0.052 7.28 0.93 10.09
11/7/2022 4:45:00 PM 12.26 54.068 0.052 7.2 0.98 10.05
11/7/2022 5:00:00 PM 12.15 53.87 0.053 7.24 0.98 10.02
11/7/2022 5:15:00 PM 12.02 53.636 0.053 7.23 1.15 9.97
11/7/2022 5:30:00 PM 11.88 53.384 0.053 7.18 1.43 9.92
11/7/2022 5:45:00 PM 11.75 53.15 0.053 7.14 1.01 9.93
11/7/2022 6:00:00 PM 11.59 52.862 0.053 7.18 0.92 9.91
11/7/2022 6:15:00 PM 11.45 52.61 0.053 7.11 1.01 9.92
11/7/2022 6:30:00 PM 11.32 52.376 0.053 7.14 1.01 9.96
11/7/2022 6:45:00 PM 11.19 52.142 0.053 7.15 1 9.97
11/7/2022 7:00:00 PM 11.06 51.908 0.053 7.15 1.02 10
11/7/2022 7:15:00 PM 10.92 51.656 0.053 7.12 0.99 10.02
11/7/2022 7:30:00 PM 10.8 51.44 0.053 7.01 1.12 10.04
11/7/2022 7:45:00 PM 10.71 51.278 0.053 7.04 1 10.05
11/7/2022 8:00:00 PM 10.61 51.098 0.053 7.01 1.06 10.12
11/7/2022 8:15:00 PM 10.52 50.936 0.053 7 1.03 10.13
11/7/2022 8:30:00 PM 10.44 50.792 0.053 7 0.99 10.16
11/7/2022 8:45:00 PM 10.36 50.648 0.053 6.98 1.11 10.19
11/7/2022 9:00:00 PM 10.25 50.45 0.053 6.97 1.02 10.16
11/7/2022 9:15:00 PM 10.19 50.342 0.053 7.02 1.04 10.23
11/7/2022 9:30:00 PM 10.1 50.18 0.054 6.95 1.11 10.26
11/7/2022 9:45:00 PM 9.99 49.982 0.054 7 1.11 10.28
11/7/2022 10:00:00 PM 9.9 49.82 0.054 6.99 1.12 10.32
11/7/2022 10:15:00 PM 9.81 49.658 0.054 7 1.13 10.34
11/7/2022 10:30:00 PM 9.71 49.478 0.054 6.94 1.25 10.38
11/7/2022 10:45:00 PM 9.6 49.28 0.054 6.98 1.13 10.39
11/7/2022 11:00:00 PM 9.5 49.1 0.054 6.94 1.15 10.44
11/7/2022 11:15:00 PM 9.4 48.92 0.054 6.93 1.19 10.47
11/7/2022 11:30:00 PM 9.3 48.74 0.054 6.93 1.07 10.51
11/7/2022 11:45:00 PM 9.2 48.56 0.054 6.94 1.09 10.54
11/8/2022 12:00:00 AM 9.12 48.416 0.054 6.97 1.13 10.56
11/8/2022 12:15:00 AM 9.03 48.254 0.054 6.97 1.18 10.6
11/8/2022 12:30:00 AM 8.95 48.11 0.054 6.98 1.22 10.63
11/8/2022 12:45:00 AM 8.87 47.966 0.054 6.95 1.16 10.67
11/8/2022 1:00:00 AM 8.79 47.822 0.054 6.96 1.18 10.67
11/8/2022 1:15:00 AM 8.71 47.678 0.054 6.95 1.12 10.71
11/8/2022 1:30:00 AM 8.61 47.498 0.054 6.97 1.18 10.72
11/8/2022 1:45:00 AM 8.52 47.336 0.054 6.96 1.15 10.76
11/8/2022 2:00:00 AM 8.43 47.174 0.054 6.97 1.11 10.79
11/8/2022 2:15:00 AM 8.32 46.976 0.054 6.96 1.11 10.8
11/8/2022 2:30:00 AM 8.23 46.814 0.054 6.96 1.2 10.85
11/8/2022 2:45:00 AM 8.13 46.634 0.054 6.95 1.12 10.89
11/8/2022 3:00:00 AM 8.04 46.472 0.054 6.95 1.11 10.93
11/8/2022 3:15:00 AM 7.94 46.292 0.054 6.95 1.21 10.95
11/8/2022 3:30:00 AM 7.86 46.148 0.054 6.95 1.13 10.98
11/8/2022 3:45:00 AM 7.76 45.968 0.054 6.96 1.18 11
11/8/2022 4:00:00 AM 7.68 45.824 0.054 6.98 1.14 11.03
11/8/2022 4:15:00 AM 7.59 45.662 0.054 6.95 1.17 11.07
11/8/2022 4:30:00 AM 7.51 45.518 0.054 6.96 1.13 11.08
11/8/2022 4:45:00 AM 7.43 45.374 0.054 7 1.18 11.12
11/8/2022 5:00:00 AM 7.35 45.23 0.054 6.98 1.13 11.13
11/8/2022 5:15:00 AM 7.27 45.086 0.054 6.97 1.22 11.16
11/8/2022 5:30:00 AM 7.21 44.978 0.054 6.99 1.15 11.19
11/8/2022 5:45:00 AM 7.14 44.852 0.054 7 1.07 11.2
11/8/2022 6:00:00 AM 7.08 44.744 0.054 7 1.12 11.23
11/8/2022 6:15:00 AM 7.02 44.636 0.054 6.99 1.18 11.26
11/8/2022 6:30:00 AM 6.97 44.546 0.054 7.01 1.37 11.26
11/8/2022 6:45:00 AM 6.93 44.474 0.054 7.02 1.11 11.33
11/8/2022 7:00:00 AM 6.9 44.42 0.054 7.03 1.09 11.35
11/8/2022 7:15:00 AM 6.88 44.384 0.054 7.02 1.1 11.38
11/8/2022 7:30:00 AM 6.86 44.348 0.054 7.07 1.14 11.42
11/8/2022 7:45:00 AM 6.8 44.24 0.054 7.06 1.1 11.5
11/8/2022 8:00:00 AM 6.75 44.15 0.054 7.08 1.08 11.55
11/8/2022 8:15:00 AM 6.73 44.114 0.054 7.07 1.14 11.64
11/8/2022 8:30:00 AM 6.69 44.042 0.054 7.09 1.26 11.69
11/8/2022 8:45:00 AM 6.67 44.006 0.054 7.1 1.23 11.73
11/8/2022 9:00:00 AM 6.63 43.934 0.054 7.11 1.23 11.74
11/8/2022 9:15:00 AM 6.64 43.952 0.054 7.14 1.2 11.79
11/8/2022 9:30:00 AM 6.65 43.97 0.054 7.14 1.09 11.83
11/8/2022 9:45:00 AM 6.73 44.114 0.053 7.16 1.1 11.88
11/8/2022 10:00:00 AM 6.8 44.24 0.053 7.18 1.15 11.91
11/8/2022 10:15:00 AM 6.86 44.348 0.053 7.2 1.08 11.93
11/8/2022 10:30:00 AM 6.91 44.438 0.053 7.24 1.04 11.95
11/8/2022 10:45:00 AM 7.01 44.618 0.053 7.25 1.04 11.97
11/8/2022 11:00:00 AM 7.04 44.672 0.053 7.25 1.04 11.97
11/8/2022 11:15:00 AM 7.05 44.69 0.053 7.26 1 11.97
11/8/2022 11:30:00 AM 7.09 44.762 0.053 7.25 1.07 11.98
11/8/2022 11:45:00 AM 7.15 44.87 0.053 7.27 1.04 11.99
11/8/2022 12:00:00 PM 7.22 44.996 0.053 7.26 0.99 11.96
11/8/2022 12:15:00 PM 7.35 45.23 0.053 7.29 1 11.97
11/8/2022 12:30:00 PM 7.58 45.644 0.053 7.3 0.98 11.93
11/8/2022 12:45:00 PM 7.74 45.932 0.053 7.3 0.94 11.9
11/8/2022 1:00:00 PM 7.85 46.13 0.052 7.3 0.95 11.86
11/8/2022 1:15:00 PM 7.95 46.31 0.052 7.3 0.91 11.82
11/8/2022 1:30:00 PM 8.13 46.634 0.052 7.32 0.98 11.78
11/8/2022 1:45:00 PM 8.29 46.922 0.052 7.34 0.97 11.72
11/8/2022 2:00:00 PM 8.45 47.21 0.052 7.33 0.93 11.68
11/8/2022 2:15:00 PM 8.65 47.57 0.052 7.33 0.9 11.61
11/8/2022 2:30:00 PM 8.83 47.894 0.052 7.36 0.9 11.57
11/8/2022 2:45:00 PM 8.96 48.128 0.052 7.36 0.9 11.53
11/8/2022 3:00:00 PM 9.02 48.236 0.052 7.35 0.99 11.48
11/8/2022 3:15:00 PM 9.07 48.326 0.052 7.33 0.92 11.41
11/8/2022 3:30:00 PM 9.1 48.38 0.052 7.34 0.95 11.36
11/8/2022 3:45:00 PM 9.13 48.434 0.052 7.31 0.95 11.32
11/8/2022 4:00:00 PM 9.15 48.47 0.052 7.32 0.91 11.26
11/8/2022 4:15:00 PM 9.13 48.434 0.052 7.33 0.96 11.2
11/8/2022 4:30:00 PM 9.12 48.416 0.052 7.31 0.96 11.14
11/8/2022 4:45:00 PM 9.05 48.29 0.052 7.25 0.92 11.09
11/8/2022 5:00:00 PM 9.01 48.218 0.053 7.26 0.95 11.03
11/8/2022 5:15:00 PM 8.95 48.11 0.053 7.26 0.93 10.98
11/8/2022 5:30:00 PM 8.87 47.966 0.053 7.21 0.95 10.92
11/8/2022 5:45:00 PM 8.78 47.804 0.053 7.2 0.98 10.92
11/8/2022 6:00:00 PM 8.68 47.624 0.053 7.17 1.01 10.9
11/8/2022 6:15:00 PM 8.56 47.408 0.053 7.2 1.04 10.91
11/8/2022 6:30:00 PM 8.43 47.174 0.053 7.18 1.07 10.93
11/8/2022 6:45:00 PM 8.3 46.94 0.053 7.15 1.04 10.95
11/8/2022 7:00:00 PM 8.18 46.724 0.053 7.15 1.04 10.99
11/8/2022 7:15:00 PM 8.06 46.508 0.053 7.16 1.09 11.01
11/8/2022 7:30:00 PM 7.94 46.292 0.053 7.13 0.98 11.02
11/8/2022 7:45:00 PM 7.83 46.094 0.053 7.14 1.05 11.05
11/8/2022 8:00:00 PM 7.74 45.932 0.053 7.11 1.09 11.08
11/8/2022 8:15:00 PM 7.65 45.77 0.053 7.13 1.11 11.11
11/8/2022 8:30:00 PM 7.56 45.608 0.053 7.13 1.07 11.15
11/8/2022 8:45:00 PM 7.48 45.464 0.053 7.12 1.12 11.16
11/8/2022 9:00:00 PM 7.39 45.302 0.053 7.09 1.06 11.17
11/8/2022 9:15:00 PM 7.32 45.176 0.053 7.1 1.04 11.2
11/8/2022 9:30:00 PM 7.25 45.05 0.053 7.09 1.04 11.24
11/8/2022 9:45:00 PM 7.15 44.87 0.053 7.09 1.05 11.24
11/8/2022 10:00:00 PM 7.07 44.726 0.053 7.05 1.09 11.26
11/8/2022 10:15:00 PM 6.99 44.582 0.053 7.03 1.07 11.29
11/8/2022 10:30:00 PM 6.92 44.456 0.053 7.02 1.19 11.34
11/8/2022 10:45:00 PM 6.83 44.294 0.054 7.02 1.1 11.35
11/8/2022 11:00:00 PM 6.75 44.15 0.054 7.02 1.24 11.38
11/8/2022 11:15:00 PM 6.66 43.988 0.054 7.03 1.07 11.38
11/8/2022 11:30:00 PM 6.58 43.844 0.054 7.01 1.18 11.4
11/8/2022 11:45:00 PM 6.51 43.718 0.054 7 1.09 11.44
11/9/2022 12:00:00 AM 6.44 43.592 0.054 7 1.12 11.49
11/9/2022 12:15:00 AM 6.35 43.43 0.054 7.02 1.12 11.52
11/9/2022 12:30:00 AM 6.29 43.322 0.054 7 1.21 11.55
11/9/2022 12:45:00 AM 6.22 43.196 0.054 7.02 1.09 11.57
11/9/2022 1:00:00 AM 6.14 43.052 0.054 7.01 1.09 11.61
11/9/2022 1:15:00 AM 6.06 42.908 0.054 7.01 1.11 11.64
11/9/2022 1:30:00 AM 5.98 42.764 0.054 6.99 1.12 11.63
11/9/2022 1:45:00 AM 5.91 42.638 0.054 7 1.22 11.67
11/9/2022 2:00:00 AM 5.82 42.476 0.054 7.01 1.22 11.7
11/9/2022 2:15:00 AM 5.75 42.35 0.054 7.02 1.17 11.74
11/9/2022 2:30:00 AM 5.67 42.206 0.054 7.01 1.22 11.77
11/9/2022 2:45:00 AM 5.6 42.08 0.054 6.99 1.22 11.77
11/9/2022 3:00:00 AM 5.53 41.954 0.054 7 1.19 11.8
11/9/2022 3:15:00 AM 5.47 41.846 0.054 7 1.12 11.84
11/9/2022 3:30:00 AM 5.39 41.702 0.054 7 1.11 11.86
11/9/2022 3:45:00 AM 5.33 41.594 0.054 7.02 1.18 11.88
11/9/2022 4:00:00 AM 5.25 41.45 0.054 7.01 1.14 11.91
11/9/2022 4:15:00 AM 5.19 41.342 0.054 7.02 1.18 11.93
11/9/2022 4:30:00 AM 5.12 41.216 0.054 7 1.2 11.97
11/9/2022 4:45:00 AM 5.06 41.108 0.054 7.03 1.15 11.99
11/9/2022 5:00:00 AM 5.01 41.018 0.054 7.02 1.14 12.01
11/9/2022 5:15:00 AM 4.94 40.892 0.054 7.02 1.18 12.03
11/9/2022 5:30:00 AM 4.88 40.784 0.054 7.03 1.26 12.04
11/9/2022 5:45:00 AM 4.82 40.676 0.054 7.02 1.2 12.08
11/9/2022 6:00:00 AM 4.76 40.568 0.054 7.01 1.22 12.09
11/9/2022 6:15:00 AM 4.72 40.496 0.054 7.04 1.21 12.11
11/9/2022 6:30:00 AM 4.66 40.388 0.054 7.03 1.16 12.14
11/9/2022 6:45:00 AM 4.61 40.298 0.054 7.01 1.16 12.15
11/9/2022 7:00:00 AM 4.55 40.19 0.054 7.03 1.15 12.18
11/9/2022 7:15:00 AM 4.5 40.1 0.054 7.04 1.09 12.23
11/9/2022 7:30:00 AM 4.46 40.028 0.054 7.06 1.06 12.28
11/9/2022 7:45:00 AM 4.41 39.938 0.054 7.07 1.2 12.33
11/9/2022 8:00:00 AM 4.37 39.866 0.054 7.06 1.14 12.38
11/9/2022 8:15:00 AM 4.34 39.812 0.054 7.08 1.19 12.44
11/9/2022 8:30:00 AM 4.31 39.758 0.054 7.08 1.14 12.48
11/9/2022 8:45:00 AM 4.28 39.704 0.054 7.09 1.17 12.53
11/9/2022 9:00:00 AM 4.25 39.65 0.054 7.11 1.14 12.56
11/9/2022 9:15:00 AM 4.24 39.632 0.054 7.13 1.14 12.6
11/9/2022 9:30:00 AM 4.24 39.632 0.054 7.12 1.18 12.64
11/9/2022 9:45:00 AM 4.32 39.776 0.054 7.15 1.05 12.68
11/9/2022 10:00:00 AM 4.4 39.92 0.054 7.18 1.05 12.72
11/9/2022 10:15:00 AM 4.48 40.064 0.053 7.18 1.75 12.73
11/9/2022 10:30:00 AM 4.54 40.172 0.053 7.2 1.04 12.75
11/9/2022 10:45:00 AM 4.66 40.388 0.053 7.2 1 12.75
11/9/2022 11:00:00 AM 4.7 40.46 0.053 7.22 1.02 12.74
11/9/2022 11:15:00 AM 4.72 40.496 0.053 7.22 1.06 12.74
11/9/2022 11:30:00 AM 4.78 40.604 0.053 7.24 0.95 12.73
11/9/2022 11:45:00 AM 4.9 40.82 0.053 7.24 0.95 12.71
11/9/2022 12:00:00 PM 4.99 40.982 0.053 7.25 0.98 12.7
11/9/2022 12:15:00 PM 5.13 41.234 0.053 7.25 0.97 12.69
11/9/2022 12:30:00 PM 5.3 41.54 0.053 7.25 0.95 12.65
11/9/2022 12:45:00 PM 5.52 41.936 0.053 7.29 0.96 12.62
11/9/2022 1:00:00 PM 5.66 42.188 0.053 7.29 0.97 12.56
11/9/2022 1:15:00 PM 5.79 42.422 0.053 7.29 0.93 12.51
11/9/2022 1:30:00 PM 5.99 42.782 0.052 7.3 0.94 12.45
11/9/2022 1:45:00 PM 6.27 43.286 0.052 7.32 0.88 12.39
11/9/2022 2:00:00 PM 6.48 43.664 0.052 7.32 0.95 12.34
11/9/2022 2:15:00 PM 6.6 43.88 0.052 7.33 0.92 12.29
11/9/2022 2:30:00 PM 6.79 44.222 0.052 7.33 0.91 12.23
11/9/2022 2:45:00 PM 7.03 44.654 0.052 7.35 0.96 12.18
11/9/2022 3:00:00 PM 7.15 44.87 0.052 7.36 1.06 12.08
11/9/2022 3:15:00 PM 7.2 44.96 0.052 7.36 0.93 12.07
11/9/2022 3:30:00 PM 7.26 45.068 0.052 7.35 0.95 11.99
11/9/2022 3:45:00 PM 7.32 45.176 0.052 7.33 1.87 11.91
11/9/2022 4:00:00 PM 7.36 45.248 0.052 7.34 1.01 11.85
11/9/2022 4:15:00 PM 7.37 45.266 0.052 7.32 0.93 11.77
11/9/2022 4:30:00 PM 7.37 45.266 0.052 7.3 0.94 11.69
11/9/2022 4:45:00 PM 7.34 45.212 0.052 7.3 0.96 11.64
11/9/2022 5:00:00 PM 7.29 45.122 0.053 7.27 0.93 11.55
11/9/2022 5:15:00 PM 7.24 45.032 0.053 7.27 0.98 11.5
11/9/2022 5:30:00 PM 7.17 44.906 0.053 7.25 0.99 11.46
11/9/2022 5:45:00 PM 7.1 44.78 0.053 7.23 0.98 11.43
11/9/2022 6:00:00 PM 7.02 44.636 0.053 7.22 1.05 11.41
11/9/2022 6:15:00 PM 6.93 44.474 0.053 7.2 1.02 11.4
11/9/2022 6:30:00 PM 6.84 44.312 0.053 7.18 1 11.42
11/9/2022 6:45:00 PM 6.75 44.15 0.053 7.18 1.04 11.43
11/9/2022 7:00:00 PM 6.63 43.934 0.053 7.18 2.51 11.46
11/9/2022 7:15:00 PM 6.54 43.772 0.053 7.15 1.24 11.47
11/9/2022 7:30:00 PM 6.44 43.592 0.053 7.17 1.14 11.51
11/9/2022 7:45:00 PM 6.34 43.412 0.053 7.14 1.04 11.52
11/9/2022 8:00:00 PM 6.26 43.268 0.053 7.14 1.14 11.54
11/9/2022 8:15:00 PM 6.18 43.124 0.053 7.14 1.07 11.57
11/9/2022 8:30:00 PM 6.11 42.998 0.053 7.13 1.11 11.58
11/9/2022 8:45:00 PM 6.04 42.872 0.053 7.12 1.11 11.6
11/9/2022 9:00:00 PM 5.98 42.764 0.053 7.13 1.16 11.62
11/9/2022 9:15:00 PM 5.91 42.638 0.053 7.12 1.11 11.64
11/9/2022 9:30:00 PM 5.85 42.53 0.053 7.14 1.19 11.66
11/9/2022 9:45:00 PM 5.78 42.404 0.053 7.11 1.14 11.68
11/9/2022 10:00:00 PM 5.72 42.296 0.053 7.13 1.23 11.71
11/9/2022 10:15:00 PM 5.66 42.188 0.053 7.11 1.13 11.73
11/9/2022 10:30:00 PM 5.6 42.08 0.053 7.11 1.14 11.75
11/9/2022 10:45:00 PM 5.54 41.972 0.053 7.12 1.05 11.77
11/9/2022 11:00:00 PM 5.47 41.846 0.054 7.12 1.07 11.78
11/9/2022 11:15:00 PM 5.41 41.738 0.054 7.1 1.12 11.8
11/9/2022 11:30:00 PM 5.35 41.63 0.054 7.11 1.12 11.82
11/9/2022 11:45:00 PM 5.29 41.522 0.054 7.1 1.11 11.85
11/10/2022 12:00:00 AM 5.23 41.414 0.054 7.09 1.09 11.86
11/10/2022 12:15:00 AM 5.18 41.324 0.054 7.09 1.14 11.91
11/10/2022 12:30:00 AM 5.11 41.198 0.054 7.07 1.09 11.92
11/10/2022 12:45:00 AM 5.05 41.09 0.054 7.07 1.08 11.92
11/10/2022 1:00:00 AM 4.99 40.982 0.054 7.07 1.06 11.96
11/10/2022 1:15:00 AM 4.93 40.874 0.054 7.06 1.09 11.99
11/10/2022 1:30:00 AM 4.87 40.766 0.054 7.05 1.1 12.01
11/10/2022 1:45:00 AM 4.81 40.658 0.054 7.05 1.07 12.02
11/10/2022 2:00:00 AM 4.76 40.568 0.054 7.03 1.11 12.05
11/10/2022 2:15:00 AM 4.7 40.46 0.054 7.03 1.1 12.06
11/10/2022 2:30:00 AM 4.64 40.352 0.054 7.02 1.07 12.09
11/10/2022 2:45:00 AM 4.59 40.262 0.054 7.04 1.09 12.1
11/10/2022 3:00:00 AM 4.53 40.154 0.054 7.02 1.08 12.11
11/10/2022 3:15:00 AM 4.49 40.082 0.054 7.01 1.07 12.14
11/10/2022 3:30:00 AM 4.44 39.992 0.054 7.02 1.13 12.15
11/10/2022 3:45:00 AM 4.39 39.902 0.054 7.01 1.14 12.18
11/10/2022 4:00:00 AM 4.35 39.83 0.054 7.02 1.13 12.19
11/10/2022 4:15:00 AM 4.3 39.74 0.054 7.02 1.21 12.22
11/10/2022 4:30:00 AM 4.26 39.668 0.054 7.03 1.22 12.24
11/10/2022 4:45:00 AM 4.22 39.596 0.054 7.03 1.28 12.25
11/10/2022 5:00:00 AM 4.18 39.524 0.054 7.05 1.25 12.25
11/10/2022 5:15:00 AM 4.14 39.452 0.054 7.04 1.23 12.28
11/10/2022 5:30:00 AM 4.1 39.38 0.054 7.03 1.22 12.29
11/10/2022 5:45:00 AM 4.06 39.308 0.054 7.04 1.19 12.3
11/10/2022 6:00:00 AM 4.02 39.236 0.054 7.05 1.24 12.32
11/10/2022 6:15:00 AM 3.99 39.182 0.054 7.05 1.25 12.33
11/10/2022 6:30:00 AM 3.94 39.092 0.054 7.04 1.29 12.35
11/10/2022 6:45:00 AM 3.91 39.038 0.054 7.06 1.35 12.36
11/10/2022 7:00:00 AM 3.88 38.984 0.054 7.06 1.25 12.38
11/10/2022 7:15:00 AM 3.85 38.93 0.054 7.05 1.22 12.42
11/10/2022 7:30:00 AM 3.81 38.858 0.054 7.05 1.2 12.46
11/10/2022 7:45:00 AM 3.79 38.822 0.054 7.06 1.18 12.51
11/10/2022 8:00:00 AM 3.77 38.786 0.054 7.08 1.17 12.55
11/10/2022 8:15:00 AM 3.75 38.75 0.054 7.08 1.15 12.6
11/10/2022 8:30:00 AM 3.73 38.714 0.054 7.1 1.13 12.64
11/10/2022 8:45:00 AM 3.71 38.678 0.054 7.12 1.13 12.68